<?xml version="1.0" encoding="UTF-8" standalone="no" ?>
<gpx xmlns="http://www.topografix.com/GPX/1/1" xmlns:xsi="http://www.w3.org/2001/XMLSchema-instance" xsi:schemaLocation="http://www.topografix.com/GPX/1/1 http://www.topografix.com/GPX/1/1/gpx.xsd" version="1.1" creator="VisuGPX - https://www.visugpx.com">
  <metadata>
    <name>Nézel Variante</name>
    <desc><![CDATA[Randonnée de 15 km en boucle à partir de la gare de Nézel.]]></desc>
  </metadata>
  <trk>
    <name><![CDATA[Nézel V2_R]]></name>
    <trkseg>
      <trkpt lat="48.93853" lon="1.84057">
        <ele>-10.26</ele>
        <time>2022-06-30T07:41:29Z</time>
      </trkpt>
      <trkpt lat="48.93854" lon="1.84059">
        <ele>-10.26</ele>
        <time>2022-06-30T07:41:30Z</time>
      </trkpt>
      <trkpt lat="48.93853" lon="1.8406">
        <ele>5.65</ele>
        <time>2022-06-30T07:41:34Z</time>
      </trkpt>
      <trkpt lat="48.93852" lon="1.84061">
        <ele>5.65</ele>
        <time>2022-06-30T07:41:35Z</time>
      </trkpt>
      <trkpt lat="48.93854" lon="1.84066">
        <ele>4.61</ele>
        <time>2022-06-30T07:41:50Z</time>
      </trkpt>
      <trkpt lat="48.93857" lon="1.84068">
        <ele>4.89</ele>
        <time>2022-06-30T07:42:06Z</time>
      </trkpt>
      <trkpt lat="48.93861" lon="1.84066">
        <ele>5.46</ele>
        <time>2022-06-30T07:42:17Z</time>
      </trkpt>
      <trkpt lat="48.93869" lon="1.84054">
        <ele>4.98</ele>
        <time>2022-06-30T07:42:37Z</time>
      </trkpt>
      <trkpt lat="48.93881" lon="1.84068">
        <ele>4.35</ele>
        <time>2022-06-30T07:42:52Z</time>
      </trkpt>
      <trkpt lat="48.93884" lon="1.84076">
        <ele>4.83</ele>
        <time>2022-06-30T07:43:04Z</time>
      </trkpt>
      <trkpt lat="48.93886" lon="1.84086">
        <ele>4.92</ele>
        <time>2022-06-30T07:43:25Z</time>
      </trkpt>
      <trkpt lat="48.93887" lon="1.84086">
        <ele>5.12</ele>
        <time>2022-06-30T07:43:42Z</time>
      </trkpt>
      <trkpt lat="48.93883" lon="1.8409">
        <ele>4.79</ele>
        <time>2022-06-30T07:43:59Z</time>
      </trkpt>
      <trkpt lat="48.93881" lon="1.84091">
        <ele>5.44</ele>
        <time>2022-06-30T07:44:22Z</time>
      </trkpt>
      <trkpt lat="48.93882" lon="1.84086">
        <ele>5.43</ele>
        <time>2022-06-30T07:44:42Z</time>
      </trkpt>
      <trkpt lat="48.93883" lon="1.84086">
        <ele>5.41</ele>
        <time>2022-06-30T07:45:06Z</time>
      </trkpt>
      <trkpt lat="48.93884" lon="1.84084">
        <ele>6.08</ele>
        <time>2022-06-30T07:45:23Z</time>
      </trkpt>
      <trkpt lat="48.93881" lon="1.84083">
        <ele>6.39</ele>
        <time>2022-06-30T07:45:43Z</time>
      </trkpt>
      <trkpt lat="48.93882" lon="1.84083">
        <ele>5.75</ele>
        <time>2022-06-30T07:46:00Z</time>
      </trkpt>
      <trkpt lat="48.93875" lon="1.84088">
        <ele>6.45</ele>
        <time>2022-06-30T07:46:11Z</time>
      </trkpt>
      <trkpt lat="48.93865" lon="1.84096">
        <ele>6.88</ele>
        <time>2022-06-30T07:46:23Z</time>
      </trkpt>
      <trkpt lat="48.93859" lon="1.84111">
        <ele>7.04</ele>
        <time>2022-06-30T07:46:38Z</time>
      </trkpt>
      <trkpt lat="48.93854" lon="1.84124">
        <ele>7.15</ele>
        <time>2022-06-30T07:46:50Z</time>
      </trkpt>
      <trkpt lat="48.93848" lon="1.84128">
        <ele>6.98</ele>
        <time>2022-06-30T07:46:54Z</time>
      </trkpt>
      <trkpt lat="48.93829" lon="1.84139">
        <ele>7.9</ele>
        <time>2022-06-30T07:47:12Z</time>
      </trkpt>
      <trkpt lat="48.93815" lon="1.84147">
        <ele>8.34</ele>
        <time>2022-06-30T07:47:24Z</time>
      </trkpt>
      <trkpt lat="48.93807" lon="1.84153">
        <ele>8.06</ele>
        <time>2022-06-30T07:47:32Z</time>
      </trkpt>
      <trkpt lat="48.938" lon="1.84156">
        <ele>8.36</ele>
        <time>2022-06-30T07:47:39Z</time>
      </trkpt>
      <trkpt lat="48.93793" lon="1.84158">
        <ele>8.36</ele>
        <time>2022-06-30T07:47:45Z</time>
      </trkpt>
      <trkpt lat="48.93783" lon="1.84162">
        <ele>8.36</ele>
        <time>2022-06-30T07:47:55Z</time>
      </trkpt>
      <trkpt lat="48.93774" lon="1.84167">
        <ele>8.88</ele>
        <time>2022-06-30T07:48:05Z</time>
      </trkpt>
      <trkpt lat="48.93764" lon="1.84171">
        <ele>9.32</ele>
        <time>2022-06-30T07:48:14Z</time>
      </trkpt>
      <trkpt lat="48.9375" lon="1.84175">
        <ele>9.05</ele>
        <time>2022-06-30T07:48:26Z</time>
      </trkpt>
      <trkpt lat="48.93738" lon="1.84182">
        <ele>9.36</ele>
        <time>2022-06-30T07:48:38Z</time>
      </trkpt>
      <trkpt lat="48.93734" lon="1.84185">
        <ele>9.18</ele>
        <time>2022-06-30T07:48:41Z</time>
      </trkpt>
      <trkpt lat="48.93723" lon="1.84197">
        <ele>9.45</ele>
        <time>2022-06-30T07:48:53Z</time>
      </trkpt>
      <trkpt lat="48.93717" lon="1.84203">
        <ele>9.35</ele>
        <time>2022-06-30T07:48:59Z</time>
      </trkpt>
      <trkpt lat="48.93712" lon="1.8421">
        <ele>9.82</ele>
        <time>2022-06-30T07:49:05Z</time>
      </trkpt>
      <trkpt lat="48.93706" lon="1.84218">
        <ele>9.9</ele>
        <time>2022-06-30T07:49:12Z</time>
      </trkpt>
      <trkpt lat="48.93699" lon="1.8423">
        <ele>10.3</ele>
        <time>2022-06-30T07:49:22Z</time>
      </trkpt>
      <trkpt lat="48.93694" lon="1.84239">
        <ele>10.19</ele>
        <time>2022-06-30T07:49:29Z</time>
      </trkpt>
      <trkpt lat="48.93693" lon="1.84242">
        <ele>10.37</ele>
        <time>2022-06-30T07:49:31Z</time>
      </trkpt>
      <trkpt lat="48.93701" lon="1.84256">
        <ele>11.1</ele>
        <time>2022-06-30T07:49:42Z</time>
      </trkpt>
      <trkpt lat="48.93702" lon="1.84257">
        <ele>11.27</ele>
        <time>2022-06-30T07:49:43Z</time>
      </trkpt>
      <trkpt lat="48.93708" lon="1.84268">
        <ele>11.3</ele>
        <time>2022-06-30T07:49:50Z</time>
      </trkpt>
      <trkpt lat="48.9371" lon="1.84271">
        <ele>11.5</ele>
        <time>2022-06-30T07:49:52Z</time>
      </trkpt>
      <trkpt lat="48.93713" lon="1.84278">
        <ele>11.98</ele>
        <time>2022-06-30T07:49:57Z</time>
      </trkpt>
      <trkpt lat="48.93717" lon="1.84284">
        <ele>12.24</ele>
        <time>2022-06-30T07:50:02Z</time>
      </trkpt>
      <trkpt lat="48.93725" lon="1.84294">
        <ele>13.35</ele>
        <time>2022-06-30T07:50:11Z</time>
      </trkpt>
      <trkpt lat="48.9373" lon="1.84303">
        <ele>14.08</ele>
        <time>2022-06-30T07:50:18Z</time>
      </trkpt>
      <trkpt lat="48.93737" lon="1.84323">
        <ele>14.97</ele>
        <time>2022-06-30T07:50:30Z</time>
      </trkpt>
      <trkpt lat="48.93738" lon="1.84324">
        <ele>15.05</ele>
        <time>2022-06-30T07:50:31Z</time>
      </trkpt>
      <trkpt lat="48.9374" lon="1.84329">
        <ele>15.16</ele>
        <time>2022-06-30T07:50:35Z</time>
      </trkpt>
      <trkpt lat="48.93743" lon="1.84335">
        <ele>14.56</ele>
        <time>2022-06-30T07:50:39Z</time>
      </trkpt>
      <trkpt lat="48.9375" lon="1.84354">
        <ele>14.46</ele>
        <time>2022-06-30T07:50:52Z</time>
      </trkpt>
      <trkpt lat="48.93751" lon="1.84357">
        <ele>14.47</ele>
        <time>2022-06-30T07:50:54Z</time>
      </trkpt>
      <trkpt lat="48.93757" lon="1.84376">
        <ele>14.85</ele>
        <time>2022-06-30T07:51:06Z</time>
      </trkpt>
      <trkpt lat="48.93761" lon="1.84383">
        <ele>15.03</ele>
        <time>2022-06-30T07:51:13Z</time>
      </trkpt>
      <trkpt lat="48.93767" lon="1.84403">
        <ele>15.1</ele>
        <time>2022-06-30T07:51:24Z</time>
      </trkpt>
      <trkpt lat="48.93772" lon="1.84417">
        <ele>16.91</ele>
        <time>2022-06-30T07:51:35Z</time>
      </trkpt>
      <trkpt lat="48.93776" lon="1.84415">
        <ele>17.19</ele>
        <time>2022-06-30T07:51:39Z</time>
      </trkpt>
      <trkpt lat="48.93787" lon="1.84406">
        <ele>19.1</ele>
        <time>2022-06-30T07:51:54Z</time>
      </trkpt>
      <trkpt lat="48.93797" lon="1.844">
        <ele>20.74</ele>
        <time>2022-06-30T07:52:05Z</time>
      </trkpt>
      <trkpt lat="48.93805" lon="1.84396">
        <ele>22.18</ele>
        <time>2022-06-30T07:52:13Z</time>
      </trkpt>
      <trkpt lat="48.93813" lon="1.84391">
        <ele>23.89</ele>
        <time>2022-06-30T07:52:23Z</time>
      </trkpt>
      <trkpt lat="48.93824" lon="1.8439">
        <ele>24.96</ele>
        <time>2022-06-30T07:52:33Z</time>
      </trkpt>
      <trkpt lat="48.93827" lon="1.84392">
        <ele>25.7</ele>
        <time>2022-06-30T07:52:37Z</time>
      </trkpt>
      <trkpt lat="48.93837" lon="1.84406">
        <ele>26.8</ele>
        <time>2022-06-30T07:52:50Z</time>
      </trkpt>
      <trkpt lat="48.93839" lon="1.84408">
        <ele>27.49</ele>
        <time>2022-06-30T07:52:52Z</time>
      </trkpt>
      <trkpt lat="48.93842" lon="1.8441">
        <ele>27.48</ele>
        <time>2022-06-30T07:52:55Z</time>
      </trkpt>
      <trkpt lat="48.93852" lon="1.84411">
        <ele>29.26</ele>
        <time>2022-06-30T07:53:06Z</time>
      </trkpt>
      <trkpt lat="48.93854" lon="1.8441">
        <ele>29.41</ele>
        <time>2022-06-30T07:53:09Z</time>
      </trkpt>
      <trkpt lat="48.93857" lon="1.8441">
        <ele>29.52</ele>
        <time>2022-06-30T07:53:11Z</time>
      </trkpt>
      <trkpt lat="48.93862" lon="1.8441">
        <ele>30.06</ele>
        <time>2022-06-30T07:53:17Z</time>
      </trkpt>
      <trkpt lat="48.93864" lon="1.8441">
        <ele>30.46</ele>
        <time>2022-06-30T07:53:19Z</time>
      </trkpt>
      <trkpt lat="48.93872" lon="1.84411">
        <ele>31.35</ele>
        <time>2022-06-30T07:53:28Z</time>
      </trkpt>
      <trkpt lat="48.93878" lon="1.84408">
        <ele>32.23</ele>
        <time>2022-06-30T07:53:34Z</time>
      </trkpt>
      <trkpt lat="48.93883" lon="1.84406">
        <ele>33.06</ele>
        <time>2022-06-30T07:53:39Z</time>
      </trkpt>
      <trkpt lat="48.93895" lon="1.84406">
        <ele>34.19</ele>
        <time>2022-06-30T07:53:50Z</time>
      </trkpt>
      <trkpt lat="48.93906" lon="1.84411">
        <ele>35.45</ele>
        <time>2022-06-30T07:54:00Z</time>
      </trkpt>
      <trkpt lat="48.93909" lon="1.84412">
        <ele>36.69</ele>
        <time>2022-06-30T07:54:03Z</time>
      </trkpt>
      <trkpt lat="48.9392" lon="1.84419">
        <ele>38.01</ele>
        <time>2022-06-30T07:54:13Z</time>
      </trkpt>
      <trkpt lat="48.93925" lon="1.84423">
        <ele>38.71</ele>
        <time>2022-06-30T07:54:19Z</time>
      </trkpt>
      <trkpt lat="48.93929" lon="1.84426">
        <ele>39.13</ele>
        <time>2022-06-30T07:54:23Z</time>
      </trkpt>
      <trkpt lat="48.93934" lon="1.84429">
        <ele>39.96</ele>
        <time>2022-06-30T07:54:28Z</time>
      </trkpt>
      <trkpt lat="48.93942" lon="1.84436">
        <ele>40.75</ele>
        <time>2022-06-30T07:54:37Z</time>
      </trkpt>
      <trkpt lat="48.93949" lon="1.84442">
        <ele>42.67</ele>
        <time>2022-06-30T07:54:45Z</time>
      </trkpt>
      <trkpt lat="48.93955" lon="1.84446">
        <ele>43.96</ele>
        <time>2022-06-30T07:54:53Z</time>
      </trkpt>
      <trkpt lat="48.93967" lon="1.84451">
        <ele>46.23</ele>
        <time>2022-06-30T07:55:07Z</time>
      </trkpt>
      <trkpt lat="48.93976" lon="1.84451">
        <ele>48.23</ele>
        <time>2022-06-30T07:55:19Z</time>
      </trkpt>
      <trkpt lat="48.93983" lon="1.84454">
        <ele>50.8</ele>
        <time>2022-06-30T07:55:31Z</time>
      </trkpt>
      <trkpt lat="48.93992" lon="1.84456">
        <ele>53.9</ele>
        <time>2022-06-30T07:55:44Z</time>
      </trkpt>
      <trkpt lat="48.94004" lon="1.84463">
        <ele>56.98</ele>
        <time>2022-06-30T07:56:00Z</time>
      </trkpt>
      <trkpt lat="48.94011" lon="1.84474">
        <ele>58.16</ele>
        <time>2022-06-30T07:56:11Z</time>
      </trkpt>
      <trkpt lat="48.9402" lon="1.84486">
        <ele>60.7</ele>
        <time>2022-06-30T07:56:23Z</time>
      </trkpt>
      <trkpt lat="48.94029" lon="1.84488">
        <ele>62.47</ele>
        <time>2022-06-30T07:56:32Z</time>
      </trkpt>
      <trkpt lat="48.94028" lon="1.84484">
        <ele>62.03</ele>
        <time>2022-06-30T07:56:42Z</time>
      </trkpt>
      <trkpt lat="48.94031" lon="1.84478">
        <ele>62.69</ele>
        <time>2022-06-30T07:56:58Z</time>
      </trkpt>
      <trkpt lat="48.9403" lon="1.84474">
        <ele>62.66</ele>
        <time>2022-06-30T07:57:14Z</time>
      </trkpt>
      <trkpt lat="48.94028" lon="1.84474">
        <ele>62.57</ele>
        <time>2022-06-30T07:57:30Z</time>
      </trkpt>
      <trkpt lat="48.94029" lon="1.84473">
        <ele>62.91</ele>
        <time>2022-06-30T07:57:50Z</time>
      </trkpt>
      <trkpt lat="48.94029" lon="1.84469">
        <ele>63.81</ele>
        <time>2022-06-30T07:58:10Z</time>
      </trkpt>
      <trkpt lat="48.94031" lon="1.84469">
        <ele>63.38</ele>
        <time>2022-06-30T07:58:28Z</time>
      </trkpt>
      <trkpt lat="48.94031" lon="1.8447">
        <ele>63.38</ele>
        <time>2022-06-30T07:58:49Z</time>
      </trkpt>
      <trkpt lat="48.94034" lon="1.84463">
        <ele>63.05</ele>
        <time>2022-06-30T07:59:07Z</time>
      </trkpt>
      <trkpt lat="48.94036" lon="1.84448">
        <ele>62.65</ele>
        <time>2022-06-30T07:59:19Z</time>
      </trkpt>
      <trkpt lat="48.94038" lon="1.84434">
        <ele>62.48</ele>
        <time>2022-06-30T07:59:32Z</time>
      </trkpt>
      <trkpt lat="48.94043" lon="1.84423">
        <ele>61.63</ele>
        <time>2022-06-30T07:59:45Z</time>
      </trkpt>
      <trkpt lat="48.94044" lon="1.84406">
        <ele>60.89</ele>
        <time>2022-06-30T08:00:00Z</time>
      </trkpt>
      <trkpt lat="48.94046" lon="1.84397">
        <ele>61.08</ele>
        <time>2022-06-30T08:00:06Z</time>
      </trkpt>
      <trkpt lat="48.94058" lon="1.84374">
        <ele>59.18</ele>
        <time>2022-06-30T08:00:23Z</time>
      </trkpt>
      <trkpt lat="48.94064" lon="1.84353">
        <ele>58.92</ele>
        <time>2022-06-30T08:00:38Z</time>
      </trkpt>
      <trkpt lat="48.9407" lon="1.84342">
        <ele>58.32</ele>
        <time>2022-06-30T08:00:48Z</time>
      </trkpt>
      <trkpt lat="48.94083" lon="1.84324">
        <ele>58.46</ele>
        <time>2022-06-30T08:01:05Z</time>
      </trkpt>
      <trkpt lat="48.94095" lon="1.84313">
        <ele>58.43</ele>
        <time>2022-06-30T08:01:17Z</time>
      </trkpt>
      <trkpt lat="48.94111" lon="1.84294">
        <ele>57.86</ele>
        <time>2022-06-30T08:01:37Z</time>
      </trkpt>
      <trkpt lat="48.94119" lon="1.84285">
        <ele>57.92</ele>
        <time>2022-06-30T08:01:48Z</time>
      </trkpt>
      <trkpt lat="48.94121" lon="1.84283">
        <ele>57.97</ele>
        <time>2022-06-30T08:01:51Z</time>
      </trkpt>
      <trkpt lat="48.94128" lon="1.84272">
        <ele>57.73</ele>
        <time>2022-06-30T08:02:02Z</time>
      </trkpt>
      <trkpt lat="48.94138" lon="1.84262">
        <ele>57.91</ele>
        <time>2022-06-30T08:02:12Z</time>
      </trkpt>
      <trkpt lat="48.94151" lon="1.84242">
        <ele>57.36</ele>
        <time>2022-06-30T08:02:29Z</time>
      </trkpt>
      <trkpt lat="48.94159" lon="1.84236">
        <ele>56.77</ele>
        <time>2022-06-30T08:02:41Z</time>
      </trkpt>
      <trkpt lat="48.94169" lon="1.84232">
        <ele>57.83</ele>
        <time>2022-06-30T08:02:53Z</time>
      </trkpt>
      <trkpt lat="48.9418" lon="1.84222">
        <ele>59.07</ele>
        <time>2022-06-30T08:03:07Z</time>
      </trkpt>
      <trkpt lat="48.94194" lon="1.84224">
        <ele>59.41</ele>
        <time>2022-06-30T08:03:14Z</time>
      </trkpt>
      <trkpt lat="48.94205" lon="1.84234">
        <ele>59.62</ele>
        <time>2022-06-30T08:03:21Z</time>
      </trkpt>
      <trkpt lat="48.94214" lon="1.84242">
        <ele>60.14</ele>
        <time>2022-06-30T08:03:28Z</time>
      </trkpt>
      <trkpt lat="48.94225" lon="1.8425">
        <ele>60.59</ele>
        <time>2022-06-30T08:03:37Z</time>
      </trkpt>
      <trkpt lat="48.94229" lon="1.84254">
        <ele>60.16</ele>
        <time>2022-06-30T08:03:42Z</time>
      </trkpt>
      <trkpt lat="48.94238" lon="1.84254">
        <ele>60.87</ele>
        <time>2022-06-30T08:03:52Z</time>
      </trkpt>
      <trkpt lat="48.9424" lon="1.84254">
        <ele>60.91</ele>
        <time>2022-06-30T08:03:54Z</time>
      </trkpt>
      <trkpt lat="48.9425" lon="1.84248">
        <ele>61.91</ele>
        <time>2022-06-30T08:04:05Z</time>
      </trkpt>
      <trkpt lat="48.94266" lon="1.84235">
        <ele>62.77</ele>
        <time>2022-06-30T08:04:21Z</time>
      </trkpt>
      <trkpt lat="48.94267" lon="1.84234">
        <ele>62.63</ele>
        <time>2022-06-30T08:04:22Z</time>
      </trkpt>
      <trkpt lat="48.9427" lon="1.84232">
        <ele>63.04</ele>
        <time>2022-06-30T08:04:24Z</time>
      </trkpt>
      <trkpt lat="48.94281" lon="1.84228">
        <ele>63.22</ele>
        <time>2022-06-30T08:04:31Z</time>
      </trkpt>
      <trkpt lat="48.94293" lon="1.8422">
        <ele>63.21</ele>
        <time>2022-06-30T08:04:45Z</time>
      </trkpt>
      <trkpt lat="48.94302" lon="1.84209">
        <ele>63.83</ele>
        <time>2022-06-30T08:04:57Z</time>
      </trkpt>
      <trkpt lat="48.94317" lon="1.84198">
        <ele>63.99</ele>
        <time>2022-06-30T08:05:08Z</time>
      </trkpt>
      <trkpt lat="48.94327" lon="1.84187">
        <ele>65.19</ele>
        <time>2022-06-30T08:05:20Z</time>
      </trkpt>
      <trkpt lat="48.9434" lon="1.84179">
        <ele>65.54</ele>
        <time>2022-06-30T08:05:32Z</time>
      </trkpt>
      <trkpt lat="48.9435" lon="1.84175">
        <ele>66.09</ele>
        <time>2022-06-30T08:05:42Z</time>
      </trkpt>
      <trkpt lat="48.94368" lon="1.84166">
        <ele>66.6</ele>
        <time>2022-06-30T08:06:02Z</time>
      </trkpt>
      <trkpt lat="48.94371" lon="1.84165">
        <ele>66.46</ele>
        <time>2022-06-30T08:06:05Z</time>
      </trkpt>
      <trkpt lat="48.94375" lon="1.84164">
        <ele>66.25</ele>
        <time>2022-06-30T08:06:07Z</time>
      </trkpt>
      <trkpt lat="48.94381" lon="1.84162">
        <ele>66.11</ele>
        <time>2022-06-30T08:06:11Z</time>
      </trkpt>
      <trkpt lat="48.94406" lon="1.84151">
        <ele>65.99</ele>
        <time>2022-06-30T08:06:29Z</time>
      </trkpt>
      <trkpt lat="48.94412" lon="1.84142">
        <ele>64.49</ele>
        <time>2022-06-30T08:06:40Z</time>
      </trkpt>
      <trkpt lat="48.94414" lon="1.84139">
        <ele>64.53</ele>
        <time>2022-06-30T08:06:42Z</time>
      </trkpt>
      <trkpt lat="48.94428" lon="1.84123">
        <ele>63.43</ele>
        <time>2022-06-30T08:06:58Z</time>
      </trkpt>
      <trkpt lat="48.9443" lon="1.84121">
        <ele>63.42</ele>
        <time>2022-06-30T08:07:00Z</time>
      </trkpt>
      <trkpt lat="48.94444" lon="1.84113">
        <ele>62.47</ele>
        <time>2022-06-30T08:07:13Z</time>
      </trkpt>
      <trkpt lat="48.94446" lon="1.84112">
        <ele>62.24</ele>
        <time>2022-06-30T08:07:15Z</time>
      </trkpt>
      <trkpt lat="48.94451" lon="1.84108">
        <ele>61.88</ele>
        <time>2022-06-30T08:07:22Z</time>
      </trkpt>
      <trkpt lat="48.94453" lon="1.84105">
        <ele>61.59</ele>
        <time>2022-06-30T08:07:24Z</time>
      </trkpt>
      <trkpt lat="48.9446" lon="1.84098">
        <ele>60.97</ele>
        <time>2022-06-30T08:07:33Z</time>
      </trkpt>
      <trkpt lat="48.94462" lon="1.84097">
        <ele>60.94</ele>
        <time>2022-06-30T08:07:34Z</time>
      </trkpt>
      <trkpt lat="48.94474" lon="1.84065">
        <ele>59.64</ele>
        <time>2022-06-30T08:07:52Z</time>
      </trkpt>
      <trkpt lat="48.94482" lon="1.84045">
        <ele>58.42</ele>
        <time>2022-06-30T08:08:06Z</time>
      </trkpt>
      <trkpt lat="48.94489" lon="1.84031">
        <ele>57.61</ele>
        <time>2022-06-30T08:08:16Z</time>
      </trkpt>
      <trkpt lat="48.9449" lon="1.84029">
        <ele>58.02</ele>
        <time>2022-06-30T08:08:17Z</time>
      </trkpt>
      <trkpt lat="48.94505" lon="1.84012">
        <ele>56.7</ele>
        <time>2022-06-30T08:08:34Z</time>
      </trkpt>
      <trkpt lat="48.94517" lon="1.84008">
        <ele>55.82</ele>
        <time>2022-06-30T08:08:48Z</time>
      </trkpt>
      <trkpt lat="48.94524" lon="1.84003">
        <ele>55.69</ele>
        <time>2022-06-30T08:09:02Z</time>
      </trkpt>
      <trkpt lat="48.94527" lon="1.83999">
        <ele>55.29</ele>
        <time>2022-06-30T08:09:06Z</time>
      </trkpt>
      <trkpt lat="48.94546" lon="1.83988">
        <ele>55.99</ele>
        <time>2022-06-30T08:09:24Z</time>
      </trkpt>
      <trkpt lat="48.94566" lon="1.83987">
        <ele>55.51</ele>
        <time>2022-06-30T08:09:38Z</time>
      </trkpt>
      <trkpt lat="48.94577" lon="1.83981">
        <ele>55.91</ele>
        <time>2022-06-30T08:09:50Z</time>
      </trkpt>
      <trkpt lat="48.94588" lon="1.83973">
        <ele>54.93</ele>
        <time>2022-06-30T08:10:06Z</time>
      </trkpt>
      <trkpt lat="48.946" lon="1.83968">
        <ele>54.72</ele>
        <time>2022-06-30T08:10:17Z</time>
      </trkpt>
      <trkpt lat="48.9461" lon="1.83961">
        <ele>55.09</ele>
        <time>2022-06-30T08:10:27Z</time>
      </trkpt>
      <trkpt lat="48.94627" lon="1.83946">
        <ele>55.36</ele>
        <time>2022-06-30T08:10:42Z</time>
      </trkpt>
      <trkpt lat="48.94637" lon="1.83941">
        <ele>54.43</ele>
        <time>2022-06-30T08:10:48Z</time>
      </trkpt>
      <trkpt lat="48.94642" lon="1.83938">
        <ele>53.6</ele>
        <time>2022-06-30T08:10:52Z</time>
      </trkpt>
      <trkpt lat="48.94647" lon="1.83936">
        <ele>54.24</ele>
        <time>2022-06-30T08:10:55Z</time>
      </trkpt>
      <trkpt lat="48.94658" lon="1.8393">
        <ele>53.53</ele>
        <time>2022-06-30T08:11:07Z</time>
      </trkpt>
      <trkpt lat="48.94671" lon="1.83923">
        <ele>52.84</ele>
        <time>2022-06-30T08:11:21Z</time>
      </trkpt>
      <trkpt lat="48.94688" lon="1.83911">
        <ele>52.4</ele>
        <time>2022-06-30T08:11:37Z</time>
      </trkpt>
      <trkpt lat="48.94704" lon="1.83891">
        <ele>52.61</ele>
        <time>2022-06-30T08:11:53Z</time>
      </trkpt>
      <trkpt lat="48.94707" lon="1.8389">
        <ele>52.83</ele>
        <time>2022-06-30T08:11:55Z</time>
      </trkpt>
      <trkpt lat="48.94714" lon="1.83882">
        <ele>51.63</ele>
        <time>2022-06-30T08:12:05Z</time>
      </trkpt>
      <trkpt lat="48.94718" lon="1.83876">
        <ele>51.56</ele>
        <time>2022-06-30T08:12:15Z</time>
      </trkpt>
      <trkpt lat="48.94729" lon="1.83868">
        <ele>51.33</ele>
        <time>2022-06-30T08:12:28Z</time>
      </trkpt>
      <trkpt lat="48.94737" lon="1.8386">
        <ele>51.65</ele>
        <time>2022-06-30T08:12:40Z</time>
      </trkpt>
      <trkpt lat="48.94756" lon="1.83858">
        <ele>51.2</ele>
        <time>2022-06-30T08:12:52Z</time>
      </trkpt>
      <trkpt lat="48.94766" lon="1.83859">
        <ele>50.91</ele>
        <time>2022-06-30T08:13:03Z</time>
      </trkpt>
      <trkpt lat="48.9477" lon="1.83858">
        <ele>50.71</ele>
        <time>2022-06-30T08:13:07Z</time>
      </trkpt>
      <trkpt lat="48.94787" lon="1.83855">
        <ele>50.54</ele>
        <time>2022-06-30T08:13:21Z</time>
      </trkpt>
      <trkpt lat="48.94793" lon="1.83854">
        <ele>50.38</ele>
        <time>2022-06-30T08:13:27Z</time>
      </trkpt>
      <trkpt lat="48.94799" lon="1.83852">
        <ele>49.9</ele>
        <time>2022-06-30T08:13:33Z</time>
      </trkpt>
      <trkpt lat="48.94815" lon="1.83847">
        <ele>50.04</ele>
        <time>2022-06-30T08:13:48Z</time>
      </trkpt>
      <trkpt lat="48.9482" lon="1.83844">
        <ele>49.38</ele>
        <time>2022-06-30T08:13:56Z</time>
      </trkpt>
      <trkpt lat="48.94831" lon="1.83839">
        <ele>49.18</ele>
        <time>2022-06-30T08:14:06Z</time>
      </trkpt>
      <trkpt lat="48.94833" lon="1.83838">
        <ele>49.13</ele>
        <time>2022-06-30T08:14:08Z</time>
      </trkpt>
      <trkpt lat="48.94843" lon="1.83834">
        <ele>48.66</ele>
        <time>2022-06-30T08:14:17Z</time>
      </trkpt>
      <trkpt lat="48.94856" lon="1.83831">
        <ele>48.77</ele>
        <time>2022-06-30T08:14:30Z</time>
      </trkpt>
      <trkpt lat="48.94878" lon="1.83826">
        <ele>48.25</ele>
        <time>2022-06-30T08:14:50Z</time>
      </trkpt>
      <trkpt lat="48.94886" lon="1.83829">
        <ele>48.52</ele>
        <time>2022-06-30T08:14:56Z</time>
      </trkpt>
      <trkpt lat="48.94897" lon="1.83821">
        <ele>48.65</ele>
        <time>2022-06-30T08:15:06Z</time>
      </trkpt>
      <trkpt lat="48.94902" lon="1.83818">
        <ele>48.94</ele>
        <time>2022-06-30T08:15:11Z</time>
      </trkpt>
      <trkpt lat="48.94912" lon="1.8381">
        <ele>49.67</ele>
        <time>2022-06-30T08:15:20Z</time>
      </trkpt>
      <trkpt lat="48.94925" lon="1.83805">
        <ele>49.65</ele>
        <time>2022-06-30T08:15:37Z</time>
      </trkpt>
      <trkpt lat="48.94937" lon="1.83804">
        <ele>49.94</ele>
        <time>2022-06-30T08:15:52Z</time>
      </trkpt>
      <trkpt lat="48.94941" lon="1.83805">
        <ele>50.5</ele>
        <time>2022-06-30T08:15:55Z</time>
      </trkpt>
      <trkpt lat="48.94944" lon="1.83803">
        <ele>50.15</ele>
        <time>2022-06-30T08:15:59Z</time>
      </trkpt>
      <trkpt lat="48.94952" lon="1.838">
        <ele>49.88</ele>
        <time>2022-06-30T08:16:09Z</time>
      </trkpt>
      <trkpt lat="48.94966" lon="1.83802">
        <ele>50.64</ele>
        <time>2022-06-30T08:16:23Z</time>
      </trkpt>
      <trkpt lat="48.94985" lon="1.83814">
        <ele>51.7</ele>
        <time>2022-06-30T08:16:39Z</time>
      </trkpt>
      <trkpt lat="48.94991" lon="1.83817">
        <ele>51.64</ele>
        <time>2022-06-30T08:16:44Z</time>
      </trkpt>
      <trkpt lat="48.94993" lon="1.83818">
        <ele>51.79</ele>
        <time>2022-06-30T08:16:46Z</time>
      </trkpt>
      <trkpt lat="48.94993" lon="1.83819">
        <ele>51.76</ele>
        <time>2022-06-30T08:16:48Z</time>
      </trkpt>
      <trkpt lat="48.94999" lon="1.83822">
        <ele>52.11</ele>
        <time>2022-06-30T08:16:54Z</time>
      </trkpt>
      <trkpt lat="48.95008" lon="1.83818">
        <ele>52.59</ele>
        <time>2022-06-30T08:17:09Z</time>
      </trkpt>
      <trkpt lat="48.95016" lon="1.83817">
        <ele>51.66</ele>
        <time>2022-06-30T08:17:18Z</time>
      </trkpt>
      <trkpt lat="48.95023" lon="1.83815">
        <ele>51.88</ele>
        <time>2022-06-30T08:17:27Z</time>
      </trkpt>
      <trkpt lat="48.95024" lon="1.83815">
        <ele>51.66</ele>
        <time>2022-06-30T08:17:28Z</time>
      </trkpt>
      <trkpt lat="48.95033" lon="1.83815">
        <ele>51.06</ele>
        <time>2022-06-30T08:17:40Z</time>
      </trkpt>
      <trkpt lat="48.95053" lon="1.83818">
        <ele>49.88</ele>
        <time>2022-06-30T08:17:57Z</time>
      </trkpt>
      <trkpt lat="48.9506" lon="1.8382">
        <ele>50.45</ele>
        <time>2022-06-30T08:18:05Z</time>
      </trkpt>
      <trkpt lat="48.95071" lon="1.83827">
        <ele>50.44</ele>
        <time>2022-06-30T08:18:18Z</time>
      </trkpt>
      <trkpt lat="48.95077" lon="1.83833">
        <ele>50.77</ele>
        <time>2022-06-30T08:18:27Z</time>
      </trkpt>
      <trkpt lat="48.95085" lon="1.83846">
        <ele>52.98</ele>
        <time>2022-06-30T08:18:41Z</time>
      </trkpt>
      <trkpt lat="48.95087" lon="1.83849">
        <ele>52.03</ele>
        <time>2022-06-30T08:18:46Z</time>
      </trkpt>
      <trkpt lat="48.95104" lon="1.83869">
        <ele>51.71</ele>
        <time>2022-06-30T08:19:01Z</time>
      </trkpt>
      <trkpt lat="48.9512" lon="1.83893">
        <ele>52.11</ele>
        <time>2022-06-30T08:19:17Z</time>
      </trkpt>
      <trkpt lat="48.95123" lon="1.83898">
        <ele>52.34</ele>
        <time>2022-06-30T08:19:20Z</time>
      </trkpt>
      <trkpt lat="48.95133" lon="1.83914">
        <ele>52.93</ele>
        <time>2022-06-30T08:19:29Z</time>
      </trkpt>
      <trkpt lat="48.95134" lon="1.83928">
        <ele>53.29</ele>
        <time>2022-06-30T08:19:37Z</time>
      </trkpt>
      <trkpt lat="48.95135" lon="1.83939">
        <ele>52.96</ele>
        <time>2022-06-30T08:19:47Z</time>
      </trkpt>
      <trkpt lat="48.95138" lon="1.83951">
        <ele>52.36</ele>
        <time>2022-06-30T08:19:57Z</time>
      </trkpt>
      <trkpt lat="48.95149" lon="1.83971">
        <ele>53</ele>
        <time>2022-06-30T08:20:10Z</time>
      </trkpt>
      <trkpt lat="48.95153" lon="1.83979">
        <ele>52.5</ele>
        <time>2022-06-30T08:20:20Z</time>
      </trkpt>
      <trkpt lat="48.95156" lon="1.83985">
        <ele>52.41</ele>
        <time>2022-06-30T08:20:31Z</time>
      </trkpt>
      <trkpt lat="48.95162" lon="1.84">
        <ele>52.03</ele>
        <time>2022-06-30T08:20:49Z</time>
      </trkpt>
      <trkpt lat="48.95166" lon="1.84005">
        <ele>52.5</ele>
        <time>2022-06-30T08:20:56Z</time>
      </trkpt>
      <trkpt lat="48.95181" lon="1.84024">
        <ele>52.88</ele>
        <time>2022-06-30T08:21:08Z</time>
      </trkpt>
      <trkpt lat="48.95182" lon="1.84025">
        <ele>52.93</ele>
        <time>2022-06-30T08:21:09Z</time>
      </trkpt>
      <trkpt lat="48.9519" lon="1.84035">
        <ele>53.57</ele>
        <time>2022-06-30T08:21:19Z</time>
      </trkpt>
      <trkpt lat="48.95207" lon="1.84047">
        <ele>53.61</ele>
        <time>2022-06-30T08:21:31Z</time>
      </trkpt>
      <trkpt lat="48.95215" lon="1.84056">
        <ele>53.9</ele>
        <time>2022-06-30T08:21:43Z</time>
      </trkpt>
      <trkpt lat="48.95231" lon="1.84059">
        <ele>54.7</ele>
        <time>2022-06-30T08:21:59Z</time>
      </trkpt>
      <trkpt lat="48.95241" lon="1.84064">
        <ele>54.78</ele>
        <time>2022-06-30T08:22:08Z</time>
      </trkpt>
      <trkpt lat="48.95253" lon="1.84074">
        <ele>53.87</ele>
        <time>2022-06-30T08:22:20Z</time>
      </trkpt>
      <trkpt lat="48.9527" lon="1.84086">
        <ele>53.14</ele>
        <time>2022-06-30T08:22:34Z</time>
      </trkpt>
      <trkpt lat="48.95278" lon="1.84096">
        <ele>55.99</ele>
        <time>2022-06-30T08:22:47Z</time>
      </trkpt>
      <trkpt lat="48.95282" lon="1.84104">
        <ele>57.77</ele>
        <time>2022-06-30T08:23:00Z</time>
      </trkpt>
      <trkpt lat="48.95279" lon="1.84112">
        <ele>59.65</ele>
        <time>2022-06-30T08:23:14Z</time>
      </trkpt>
      <trkpt lat="48.95277" lon="1.84118">
        <ele>61.15</ele>
        <time>2022-06-30T08:23:24Z</time>
      </trkpt>
      <trkpt lat="48.95272" lon="1.84132">
        <ele>63.97</ele>
        <time>2022-06-30T08:23:41Z</time>
      </trkpt>
      <trkpt lat="48.95269" lon="1.84138">
        <ele>64.29</ele>
        <time>2022-06-30T08:23:44Z</time>
      </trkpt>
      <trkpt lat="48.95263" lon="1.84152">
        <ele>66.58</ele>
        <time>2022-06-30T08:23:56Z</time>
      </trkpt>
      <trkpt lat="48.95261" lon="1.84157">
        <ele>67.83</ele>
        <time>2022-06-30T08:24:02Z</time>
      </trkpt>
      <trkpt lat="48.95258" lon="1.84165">
        <ele>68.94</ele>
        <time>2022-06-30T08:24:11Z</time>
      </trkpt>
      <trkpt lat="48.95258" lon="1.84175">
        <ele>69.64</ele>
        <time>2022-06-30T08:24:21Z</time>
      </trkpt>
      <trkpt lat="48.95257" lon="1.84179">
        <ele>70.68</ele>
        <time>2022-06-30T08:24:25Z</time>
      </trkpt>
      <trkpt lat="48.95253" lon="1.84194">
        <ele>72.24</ele>
        <time>2022-06-30T08:24:39Z</time>
      </trkpt>
      <trkpt lat="48.95253" lon="1.84197">
        <ele>73.14</ele>
        <time>2022-06-30T08:24:44Z</time>
      </trkpt>
      <trkpt lat="48.95253" lon="1.84215">
        <ele>73.5</ele>
        <time>2022-06-30T08:25:02Z</time>
      </trkpt>
      <trkpt lat="48.95255" lon="1.84222">
        <ele>74.9</ele>
        <time>2022-06-30T08:25:12Z</time>
      </trkpt>
      <trkpt lat="48.95263" lon="1.84231">
        <ele>74.94</ele>
        <time>2022-06-30T08:25:26Z</time>
      </trkpt>
      <trkpt lat="48.95271" lon="1.84241">
        <ele>74.95</ele>
        <time>2022-06-30T08:25:37Z</time>
      </trkpt>
      <trkpt lat="48.95275" lon="1.84246">
        <ele>75.24</ele>
        <time>2022-06-30T08:25:46Z</time>
      </trkpt>
      <trkpt lat="48.95281" lon="1.84253">
        <ele>75.03</ele>
        <time>2022-06-30T08:25:56Z</time>
      </trkpt>
      <trkpt lat="48.95286" lon="1.84264">
        <ele>73.75</ele>
        <time>2022-06-30T08:26:05Z</time>
      </trkpt>
      <trkpt lat="48.95288" lon="1.84265">
        <ele>73.83</ele>
        <time>2022-06-30T08:26:07Z</time>
      </trkpt>
      <trkpt lat="48.95297" lon="1.84271">
        <ele>73.03</ele>
        <time>2022-06-30T08:26:16Z</time>
      </trkpt>
      <trkpt lat="48.9531" lon="1.84281">
        <ele>72.68</ele>
        <time>2022-06-30T08:26:26Z</time>
      </trkpt>
      <trkpt lat="48.95326" lon="1.84289">
        <ele>73.14</ele>
        <time>2022-06-30T08:26:41Z</time>
      </trkpt>
      <trkpt lat="48.95331" lon="1.84296">
        <ele>74.12</ele>
        <time>2022-06-30T08:26:53Z</time>
      </trkpt>
      <trkpt lat="48.95337" lon="1.84308">
        <ele>74.49</ele>
        <time>2022-06-30T08:27:04Z</time>
      </trkpt>
      <trkpt lat="48.95339" lon="1.84311">
        <ele>75.17</ele>
        <time>2022-06-30T08:27:07Z</time>
      </trkpt>
      <trkpt lat="48.95341" lon="1.84315">
        <ele>75.07</ele>
        <time>2022-06-30T08:27:10Z</time>
      </trkpt>
      <trkpt lat="48.9535" lon="1.84325">
        <ele>74.78</ele>
        <time>2022-06-30T08:27:21Z</time>
      </trkpt>
      <trkpt lat="48.95356" lon="1.84332">
        <ele>75.24</ele>
        <time>2022-06-30T08:27:28Z</time>
      </trkpt>
      <trkpt lat="48.95362" lon="1.84343">
        <ele>75.38</ele>
        <time>2022-06-30T08:27:39Z</time>
      </trkpt>
      <trkpt lat="48.95375" lon="1.84347">
        <ele>76</ele>
        <time>2022-06-30T08:27:50Z</time>
      </trkpt>
      <trkpt lat="48.95383" lon="1.84364">
        <ele>76.23</ele>
        <time>2022-06-30T08:27:56Z</time>
      </trkpt>
      <trkpt lat="48.95386" lon="1.84379">
        <ele>77.25</ele>
        <time>2022-06-30T08:28:07Z</time>
      </trkpt>
      <trkpt lat="48.95391" lon="1.84391">
        <ele>78.31</ele>
        <time>2022-06-30T08:28:16Z</time>
      </trkpt>
      <trkpt lat="48.95394" lon="1.84402">
        <ele>78.39</ele>
        <time>2022-06-30T08:28:25Z</time>
      </trkpt>
      <trkpt lat="48.95395" lon="1.84406">
        <ele>78.36</ele>
        <time>2022-06-30T08:28:34Z</time>
      </trkpt>
      <trkpt lat="48.95398" lon="1.84419">
        <ele>77.89</ele>
        <time>2022-06-30T08:28:46Z</time>
      </trkpt>
      <trkpt lat="48.954" lon="1.84434">
        <ele>78.41</ele>
        <time>2022-06-30T08:28:59Z</time>
      </trkpt>
      <trkpt lat="48.95408" lon="1.84448">
        <ele>78.4</ele>
        <time>2022-06-30T08:29:15Z</time>
      </trkpt>
      <trkpt lat="48.95417" lon="1.84461">
        <ele>78.17</ele>
        <time>2022-06-30T08:29:28Z</time>
      </trkpt>
      <trkpt lat="48.95418" lon="1.84462">
        <ele>77.88</ele>
        <time>2022-06-30T08:29:29Z</time>
      </trkpt>
      <trkpt lat="48.95429" lon="1.84474">
        <ele>77.63</ele>
        <time>2022-06-30T08:29:41Z</time>
      </trkpt>
      <trkpt lat="48.95433" lon="1.84478">
        <ele>77.6</ele>
        <time>2022-06-30T08:29:44Z</time>
      </trkpt>
      <trkpt lat="48.95446" lon="1.84493">
        <ele>76.57</ele>
        <time>2022-06-30T08:29:58Z</time>
      </trkpt>
      <trkpt lat="48.95448" lon="1.84498">
        <ele>76.55</ele>
        <time>2022-06-30T08:30:02Z</time>
      </trkpt>
      <trkpt lat="48.95453" lon="1.8451">
        <ele>75.9</ele>
        <time>2022-06-30T08:30:18Z</time>
      </trkpt>
      <trkpt lat="48.95455" lon="1.84515">
        <ele>75.59</ele>
        <time>2022-06-30T08:30:23Z</time>
      </trkpt>
      <trkpt lat="48.95457" lon="1.84533">
        <ele>75.38</ele>
        <time>2022-06-30T08:30:34Z</time>
      </trkpt>
      <trkpt lat="48.95465" lon="1.84556">
        <ele>74.98</ele>
        <time>2022-06-30T08:30:47Z</time>
      </trkpt>
      <trkpt lat="48.95469" lon="1.84564">
        <ele>74.85</ele>
        <time>2022-06-30T08:31:01Z</time>
      </trkpt>
      <trkpt lat="48.95473" lon="1.84568">
        <ele>75.44</ele>
        <time>2022-06-30T08:31:15Z</time>
      </trkpt>
      <trkpt lat="48.95473" lon="1.84571">
        <ele>75.24</ele>
        <time>2022-06-30T08:31:17Z</time>
      </trkpt>
      <trkpt lat="48.95477" lon="1.84584">
        <ele>73.87</ele>
        <time>2022-06-30T08:31:28Z</time>
      </trkpt>
      <trkpt lat="48.95487" lon="1.84594">
        <ele>72.76</ele>
        <time>2022-06-30T08:31:36Z</time>
      </trkpt>
      <trkpt lat="48.95492" lon="1.84603">
        <ele>72.96</ele>
        <time>2022-06-30T08:31:45Z</time>
      </trkpt>
      <trkpt lat="48.95497" lon="1.84608">
        <ele>72.39</ele>
        <time>2022-06-30T08:31:50Z</time>
      </trkpt>
      <trkpt lat="48.95499" lon="1.84616">
        <ele>72.2</ele>
        <time>2022-06-30T08:31:55Z</time>
      </trkpt>
      <trkpt lat="48.95502" lon="1.84623">
        <ele>71.12</ele>
        <time>2022-06-30T08:32:02Z</time>
      </trkpt>
      <trkpt lat="48.95503" lon="1.84626">
        <ele>70.82</ele>
        <time>2022-06-30T08:32:05Z</time>
      </trkpt>
      <trkpt lat="48.95504" lon="1.84634">
        <ele>70.55</ele>
        <time>2022-06-30T08:32:10Z</time>
      </trkpt>
      <trkpt lat="48.95511" lon="1.84661">
        <ele>69.94</ele>
        <time>2022-06-30T08:32:23Z</time>
      </trkpt>
      <trkpt lat="48.95516" lon="1.8467">
        <ele>69.41</ele>
        <time>2022-06-30T08:32:28Z</time>
      </trkpt>
      <trkpt lat="48.95524" lon="1.84687">
        <ele>69.28</ele>
        <time>2022-06-30T08:32:41Z</time>
      </trkpt>
      <trkpt lat="48.95527" lon="1.84695">
        <ele>68.7</ele>
        <time>2022-06-30T08:32:46Z</time>
      </trkpt>
      <trkpt lat="48.95535" lon="1.84714">
        <ele>69.62</ele>
        <time>2022-06-30T08:32:58Z</time>
      </trkpt>
      <trkpt lat="48.95537" lon="1.84723">
        <ele>69.12</ele>
        <time>2022-06-30T08:33:05Z</time>
      </trkpt>
      <trkpt lat="48.95539" lon="1.84741">
        <ele>69.65</ele>
        <time>2022-06-30T08:33:14Z</time>
      </trkpt>
      <trkpt lat="48.9554" lon="1.84755">
        <ele>70.69</ele>
        <time>2022-06-30T08:33:25Z</time>
      </trkpt>
      <trkpt lat="48.95536" lon="1.84767">
        <ele>72.39</ele>
        <time>2022-06-30T08:33:36Z</time>
      </trkpt>
      <trkpt lat="48.95535" lon="1.84775">
        <ele>74.29</ele>
        <time>2022-06-30T08:33:47Z</time>
      </trkpt>
      <trkpt lat="48.95532" lon="1.84779">
        <ele>74.66</ele>
        <time>2022-06-30T08:33:53Z</time>
      </trkpt>
      <trkpt lat="48.95524" lon="1.84788">
        <ele>75.75</ele>
        <time>2022-06-30T08:34:10Z</time>
      </trkpt>
      <trkpt lat="48.95517" lon="1.84803">
        <ele>76.67</ele>
        <time>2022-06-30T08:34:18Z</time>
      </trkpt>
      <trkpt lat="48.95514" lon="1.84808">
        <ele>77.19</ele>
        <time>2022-06-30T08:34:22Z</time>
      </trkpt>
      <trkpt lat="48.95508" lon="1.84821">
        <ele>78.13</ele>
        <time>2022-06-30T08:34:33Z</time>
      </trkpt>
      <trkpt lat="48.95497" lon="1.8483">
        <ele>78.58</ele>
        <time>2022-06-30T08:34:45Z</time>
      </trkpt>
      <trkpt lat="48.95473" lon="1.84842">
        <ele>79.08</ele>
        <time>2022-06-30T08:35:01Z</time>
      </trkpt>
      <trkpt lat="48.95464" lon="1.84844">
        <ele>79.89</ele>
        <time>2022-06-30T08:35:10Z</time>
      </trkpt>
      <trkpt lat="48.95444" lon="1.84859">
        <ele>81.56</ele>
        <time>2022-06-30T08:35:27Z</time>
      </trkpt>
      <trkpt lat="48.95443" lon="1.84869">
        <ele>81.83</ele>
        <time>2022-06-30T08:35:37Z</time>
      </trkpt>
      <trkpt lat="48.95443" lon="1.84873">
        <ele>82.33</ele>
        <time>2022-06-30T08:35:47Z</time>
      </trkpt>
      <trkpt lat="48.95446" lon="1.84883">
        <ele>82.25</ele>
        <time>2022-06-30T08:36:00Z</time>
      </trkpt>
      <trkpt lat="48.95448" lon="1.84887">
        <ele>82.29</ele>
        <time>2022-06-30T08:36:03Z</time>
      </trkpt>
      <trkpt lat="48.95456" lon="1.849">
        <ele>83.02</ele>
        <time>2022-06-30T08:36:14Z</time>
      </trkpt>
      <trkpt lat="48.95457" lon="1.84906">
        <ele>82.79</ele>
        <time>2022-06-30T08:36:18Z</time>
      </trkpt>
      <trkpt lat="48.95463" lon="1.84912">
        <ele>82.81</ele>
        <time>2022-06-30T08:36:25Z</time>
      </trkpt>
      <trkpt lat="48.95468" lon="1.84917">
        <ele>82.6</ele>
        <time>2022-06-30T08:36:29Z</time>
      </trkpt>
      <trkpt lat="48.95481" lon="1.84927">
        <ele>82.72</ele>
        <time>2022-06-30T08:36:41Z</time>
      </trkpt>
      <trkpt lat="48.95485" lon="1.84938">
        <ele>82.52</ele>
        <time>2022-06-30T08:36:51Z</time>
      </trkpt>
      <trkpt lat="48.95495" lon="1.84943">
        <ele>82.37</ele>
        <time>2022-06-30T08:37:04Z</time>
      </trkpt>
      <trkpt lat="48.95498" lon="1.84942">
        <ele>82.97</ele>
        <time>2022-06-30T08:37:06Z</time>
      </trkpt>
      <trkpt lat="48.95509" lon="1.84947">
        <ele>81.71</ele>
        <time>2022-06-30T08:37:15Z</time>
      </trkpt>
      <trkpt lat="48.95522" lon="1.84952">
        <ele>82.29</ele>
        <time>2022-06-30T08:37:26Z</time>
      </trkpt>
      <trkpt lat="48.9553" lon="1.84954">
        <ele>82.11</ele>
        <time>2022-06-30T08:37:35Z</time>
      </trkpt>
      <trkpt lat="48.95539" lon="1.84965">
        <ele>81.5</ele>
        <time>2022-06-30T08:37:46Z</time>
      </trkpt>
      <trkpt lat="48.95553" lon="1.84984">
        <ele>80.86</ele>
        <time>2022-06-30T08:38:02Z</time>
      </trkpt>
      <trkpt lat="48.95566" lon="1.85005">
        <ele>80.68</ele>
        <time>2022-06-30T08:38:19Z</time>
      </trkpt>
      <trkpt lat="48.95575" lon="1.85018">
        <ele>79.91</ele>
        <time>2022-06-30T08:38:28Z</time>
      </trkpt>
      <trkpt lat="48.95584" lon="1.85035">
        <ele>79.72</ele>
        <time>2022-06-30T08:38:41Z</time>
      </trkpt>
      <trkpt lat="48.95589" lon="1.85053">
        <ele>78.97</ele>
        <time>2022-06-30T08:38:53Z</time>
      </trkpt>
      <trkpt lat="48.95593" lon="1.85061">
        <ele>78.42</ele>
        <time>2022-06-30T08:39:00Z</time>
      </trkpt>
      <trkpt lat="48.95595" lon="1.85066">
        <ele>78.5</ele>
        <time>2022-06-30T08:39:03Z</time>
      </trkpt>
      <trkpt lat="48.95603" lon="1.85081">
        <ele>77.86</ele>
        <time>2022-06-30T08:39:16Z</time>
      </trkpt>
      <trkpt lat="48.95615" lon="1.85103">
        <ele>76.53</ele>
        <time>2022-06-30T08:39:33Z</time>
      </trkpt>
      <trkpt lat="48.95625" lon="1.85126">
        <ele>75.58</ele>
        <time>2022-06-30T08:39:49Z</time>
      </trkpt>
      <trkpt lat="48.95631" lon="1.8514">
        <ele>75.19</ele>
        <time>2022-06-30T08:40:00Z</time>
      </trkpt>
      <trkpt lat="48.95637" lon="1.85166">
        <ele>74.15</ele>
        <time>2022-06-30T08:40:16Z</time>
      </trkpt>
      <trkpt lat="48.9564" lon="1.85176">
        <ele>74.23</ele>
        <time>2022-06-30T08:40:25Z</time>
      </trkpt>
      <trkpt lat="48.95642" lon="1.85179">
        <ele>73.65</ele>
        <time>2022-06-30T08:40:27Z</time>
      </trkpt>
      <trkpt lat="48.95644" lon="1.85185">
        <ele>73.51</ele>
        <time>2022-06-30T08:40:31Z</time>
      </trkpt>
      <trkpt lat="48.95645" lon="1.85189">
        <ele>73.42</ele>
        <time>2022-06-30T08:40:34Z</time>
      </trkpt>
      <trkpt lat="48.95646" lon="1.85191">
        <ele>73.13</ele>
        <time>2022-06-30T08:40:36Z</time>
      </trkpt>
      <trkpt lat="48.9565" lon="1.85201">
        <ele>72.35</ele>
        <time>2022-06-30T08:40:43Z</time>
      </trkpt>
      <trkpt lat="48.9565" lon="1.85204">
        <ele>72.48</ele>
        <time>2022-06-30T08:40:46Z</time>
      </trkpt>
      <trkpt lat="48.95656" lon="1.85221">
        <ele>72.39</ele>
        <time>2022-06-30T08:40:57Z</time>
      </trkpt>
      <trkpt lat="48.9566" lon="1.85234">
        <ele>72.01</ele>
        <time>2022-06-30T08:41:05Z</time>
      </trkpt>
      <trkpt lat="48.95662" lon="1.85242">
        <ele>71.48</ele>
        <time>2022-06-30T08:41:10Z</time>
      </trkpt>
      <trkpt lat="48.95662" lon="1.85248">
        <ele>71.35</ele>
        <time>2022-06-30T08:41:13Z</time>
      </trkpt>
      <trkpt lat="48.95666" lon="1.85269">
        <ele>71.58</ele>
        <time>2022-06-30T08:41:22Z</time>
      </trkpt>
      <trkpt lat="48.95667" lon="1.85277">
        <ele>70.8</ele>
        <time>2022-06-30T08:41:25Z</time>
      </trkpt>
      <trkpt lat="48.95665" lon="1.85301">
        <ele>70.25</ele>
        <time>2022-06-30T08:41:38Z</time>
      </trkpt>
      <trkpt lat="48.9566" lon="1.85321">
        <ele>70.47</ele>
        <time>2022-06-30T08:41:49Z</time>
      </trkpt>
      <trkpt lat="48.95656" lon="1.85347">
        <ele>70.17</ele>
        <time>2022-06-30T08:42:05Z</time>
      </trkpt>
      <trkpt lat="48.9566" lon="1.85373">
        <ele>69.8</ele>
        <time>2022-06-30T08:42:22Z</time>
      </trkpt>
      <trkpt lat="48.9566" lon="1.85382">
        <ele>70.57</ele>
        <time>2022-06-30T08:42:29Z</time>
      </trkpt>
      <trkpt lat="48.9566" lon="1.85398">
        <ele>71.49</ele>
        <time>2022-06-30T08:42:41Z</time>
      </trkpt>
      <trkpt lat="48.95662" lon="1.85405">
        <ele>71.55</ele>
        <time>2022-06-30T08:42:54Z</time>
      </trkpt>
      <trkpt lat="48.95665" lon="1.85403">
        <ele>71.45</ele>
        <time>2022-06-30T08:43:01Z</time>
      </trkpt>
      <trkpt lat="48.95669" lon="1.85391">
        <ele>70.35</ele>
        <time>2022-06-30T08:43:14Z</time>
      </trkpt>
      <trkpt lat="48.9567" lon="1.85389">
        <ele>70.17</ele>
        <time>2022-06-30T08:43:17Z</time>
      </trkpt>
      <trkpt lat="48.95672" lon="1.85386">
        <ele>70.17</ele>
        <time>2022-06-30T08:43:21Z</time>
      </trkpt>
      <trkpt lat="48.95672" lon="1.85384">
        <ele>70.31</ele>
        <time>2022-06-30T08:43:24Z</time>
      </trkpt>
      <trkpt lat="48.9568" lon="1.85373">
        <ele>69.39</ele>
        <time>2022-06-30T08:43:37Z</time>
      </trkpt>
      <trkpt lat="48.95685" lon="1.85368">
        <ele>67.61</ele>
        <time>2022-06-30T08:43:49Z</time>
      </trkpt>
      <trkpt lat="48.95687" lon="1.85369">
        <ele>67.49</ele>
        <time>2022-06-30T08:43:53Z</time>
      </trkpt>
      <trkpt lat="48.95696" lon="1.85389">
        <ele>64.39</ele>
        <time>2022-06-30T08:44:10Z</time>
      </trkpt>
      <trkpt lat="48.95705" lon="1.85408">
        <ele>61.92</ele>
        <time>2022-06-30T08:44:29Z</time>
      </trkpt>
      <trkpt lat="48.95708" lon="1.85415">
        <ele>60.76</ele>
        <time>2022-06-30T08:44:35Z</time>
      </trkpt>
      <trkpt lat="48.95705" lon="1.85424">
        <ele>60.63</ele>
        <time>2022-06-30T08:44:44Z</time>
      </trkpt>
      <trkpt lat="48.95706" lon="1.85435">
        <ele>58.65</ele>
        <time>2022-06-30T08:44:57Z</time>
      </trkpt>
      <trkpt lat="48.95708" lon="1.85447">
        <ele>58.12</ele>
        <time>2022-06-30T08:45:03Z</time>
      </trkpt>
      <trkpt lat="48.95711" lon="1.85469">
        <ele>57.24</ele>
        <time>2022-06-30T08:45:18Z</time>
      </trkpt>
      <trkpt lat="48.95714" lon="1.85486">
        <ele>57.31</ele>
        <time>2022-06-30T08:45:28Z</time>
      </trkpt>
      <trkpt lat="48.95714" lon="1.85491">
        <ele>57.29</ele>
        <time>2022-06-30T08:45:32Z</time>
      </trkpt>
      <trkpt lat="48.95715" lon="1.85502">
        <ele>57.32</ele>
        <time>2022-06-30T08:45:39Z</time>
      </trkpt>
      <trkpt lat="48.95718" lon="1.85521">
        <ele>57.45</ele>
        <time>2022-06-30T08:45:50Z</time>
      </trkpt>
      <trkpt lat="48.95716" lon="1.8553">
        <ele>57.38</ele>
        <time>2022-06-30T08:45:56Z</time>
      </trkpt>
      <trkpt lat="48.95715" lon="1.85536">
        <ele>57.95</ele>
        <time>2022-06-30T08:46:00Z</time>
      </trkpt>
      <trkpt lat="48.95712" lon="1.85547">
        <ele>57.59</ele>
        <time>2022-06-30T08:46:08Z</time>
      </trkpt>
      <trkpt lat="48.95715" lon="1.85568">
        <ele>57.32</ele>
        <time>2022-06-30T08:46:18Z</time>
      </trkpt>
      <trkpt lat="48.95716" lon="1.85585">
        <ele>57.31</ele>
        <time>2022-06-30T08:46:29Z</time>
      </trkpt>
      <trkpt lat="48.95716" lon="1.85596">
        <ele>58.01</ele>
        <time>2022-06-30T08:46:35Z</time>
      </trkpt>
      <trkpt lat="48.95718" lon="1.85612">
        <ele>57.83</ele>
        <time>2022-06-30T08:46:45Z</time>
      </trkpt>
      <trkpt lat="48.9572" lon="1.85622">
        <ele>57.37</ele>
        <time>2022-06-30T08:46:51Z</time>
      </trkpt>
      <trkpt lat="48.95721" lon="1.85631">
        <ele>57.88</ele>
        <time>2022-06-30T08:46:55Z</time>
      </trkpt>
      <trkpt lat="48.9572" lon="1.85639">
        <ele>57.7</ele>
        <time>2022-06-30T08:46:59Z</time>
      </trkpt>
      <trkpt lat="48.95721" lon="1.85642">
        <ele>57.68</ele>
        <time>2022-06-30T08:47:01Z</time>
      </trkpt>
      <trkpt lat="48.9572" lon="1.8565">
        <ele>57.79</ele>
        <time>2022-06-30T08:47:05Z</time>
      </trkpt>
      <trkpt lat="48.95714" lon="1.8567">
        <ele>57.64</ele>
        <time>2022-06-30T08:47:17Z</time>
      </trkpt>
      <trkpt lat="48.95711" lon="1.85677">
        <ele>57.77</ele>
        <time>2022-06-30T08:47:30Z</time>
      </trkpt>
      <trkpt lat="48.95711" lon="1.85677">
        <ele>57.8</ele>
        <time>2022-06-30T08:47:31Z</time>
      </trkpt>
      <trkpt lat="48.9571" lon="1.85683">
        <ele>58.14</ele>
        <time>2022-06-30T08:47:57Z</time>
      </trkpt>
      <trkpt lat="48.9571" lon="1.85682">
        <ele>58.32</ele>
        <time>2022-06-30T08:48:18Z</time>
      </trkpt>
      <trkpt lat="48.95709" lon="1.85682">
        <ele>58.56</ele>
        <time>2022-06-30T08:48:38Z</time>
      </trkpt>
      <trkpt lat="48.95707" lon="1.8569">
        <ele>58.53</ele>
        <time>2022-06-30T08:49:00Z</time>
      </trkpt>
      <trkpt lat="48.95704" lon="1.85704">
        <ele>57.85</ele>
        <time>2022-06-30T08:49:10Z</time>
      </trkpt>
      <trkpt lat="48.95702" lon="1.85722">
        <ele>56.35</ele>
        <time>2022-06-30T08:49:22Z</time>
      </trkpt>
      <trkpt lat="48.95694" lon="1.85747">
        <ele>56.84</ele>
        <time>2022-06-30T08:49:40Z</time>
      </trkpt>
      <trkpt lat="48.95679" lon="1.85761">
        <ele>59.05</ele>
        <time>2022-06-30T08:49:59Z</time>
      </trkpt>
      <trkpt lat="48.95662" lon="1.85781">
        <ele>60.33</ele>
        <time>2022-06-30T08:50:14Z</time>
      </trkpt>
      <trkpt lat="48.95657" lon="1.85787">
        <ele>61.66</ele>
        <time>2022-06-30T08:50:22Z</time>
      </trkpt>
      <trkpt lat="48.95652" lon="1.85795">
        <ele>62.48</ele>
        <time>2022-06-30T08:50:32Z</time>
      </trkpt>
      <trkpt lat="48.95639" lon="1.85804">
        <ele>63.7</ele>
        <time>2022-06-30T08:50:47Z</time>
      </trkpt>
      <trkpt lat="48.95626" lon="1.8582">
        <ele>65.7</ele>
        <time>2022-06-30T08:51:05Z</time>
      </trkpt>
      <trkpt lat="48.95613" lon="1.85839">
        <ele>67.84</ele>
        <time>2022-06-30T08:51:19Z</time>
      </trkpt>
      <trkpt lat="48.9561" lon="1.85844">
        <ele>68.47</ele>
        <time>2022-06-30T08:51:23Z</time>
      </trkpt>
      <trkpt lat="48.95602" lon="1.85857">
        <ele>68.94</ele>
        <time>2022-06-30T08:51:34Z</time>
      </trkpt>
      <trkpt lat="48.95591" lon="1.85872">
        <ele>70.23</ele>
        <time>2022-06-30T08:51:50Z</time>
      </trkpt>
      <trkpt lat="48.95583" lon="1.85885">
        <ele>71.85</ele>
        <time>2022-06-30T08:52:02Z</time>
      </trkpt>
      <trkpt lat="48.95569" lon="1.859">
        <ele>73.65</ele>
        <time>2022-06-30T08:52:17Z</time>
      </trkpt>
      <trkpt lat="48.95555" lon="1.85914">
        <ele>75.24</ele>
        <time>2022-06-30T08:52:34Z</time>
      </trkpt>
      <trkpt lat="48.95541" lon="1.85928">
        <ele>77.43</ele>
        <time>2022-06-30T08:52:50Z</time>
      </trkpt>
      <trkpt lat="48.9553" lon="1.85944">
        <ele>78.69</ele>
        <time>2022-06-30T08:53:04Z</time>
      </trkpt>
      <trkpt lat="48.95519" lon="1.85956">
        <ele>79.78</ele>
        <time>2022-06-30T08:53:17Z</time>
      </trkpt>
      <trkpt lat="48.95509" lon="1.85966">
        <ele>80.24</ele>
        <time>2022-06-30T08:53:28Z</time>
      </trkpt>
      <trkpt lat="48.95497" lon="1.85958">
        <ele>81.01</ele>
        <time>2022-06-30T08:53:41Z</time>
      </trkpt>
      <trkpt lat="48.95495" lon="1.85953">
        <ele>81.23</ele>
        <time>2022-06-30T08:53:46Z</time>
      </trkpt>
      <trkpt lat="48.95483" lon="1.85952">
        <ele>81.72</ele>
        <time>2022-06-30T08:54:01Z</time>
      </trkpt>
      <trkpt lat="48.95481" lon="1.85967">
        <ele>82.18</ele>
        <time>2022-06-30T08:54:15Z</time>
      </trkpt>
      <trkpt lat="48.9548" lon="1.85989">
        <ele>82.85</ele>
        <time>2022-06-30T08:54:28Z</time>
      </trkpt>
      <trkpt lat="48.95474" lon="1.86005">
        <ele>83.65</ele>
        <time>2022-06-30T08:54:40Z</time>
      </trkpt>
      <trkpt lat="48.95464" lon="1.86023">
        <ele>84.38</ele>
        <time>2022-06-30T08:54:55Z</time>
      </trkpt>
      <trkpt lat="48.95454" lon="1.86028">
        <ele>84.1</ele>
        <time>2022-06-30T08:55:02Z</time>
      </trkpt>
      <trkpt lat="48.95454" lon="1.86032">
        <ele>84.5</ele>
        <time>2022-06-30T08:55:09Z</time>
      </trkpt>
      <trkpt lat="48.95453" lon="1.86034">
        <ele>84.76</ele>
        <time>2022-06-30T08:55:24Z</time>
      </trkpt>
      <trkpt lat="48.95461" lon="1.86041">
        <ele>84.06</ele>
        <time>2022-06-30T08:55:38Z</time>
      </trkpt>
      <trkpt lat="48.95454" lon="1.86051">
        <ele>85.2</ele>
        <time>2022-06-30T08:55:48Z</time>
      </trkpt>
      <trkpt lat="48.9545" lon="1.86056">
        <ele>84.73</ele>
        <time>2022-06-30T08:55:52Z</time>
      </trkpt>
      <trkpt lat="48.95439" lon="1.86067">
        <ele>84.89</ele>
        <time>2022-06-30T08:56:04Z</time>
      </trkpt>
      <trkpt lat="48.95435" lon="1.86072">
        <ele>84.3</ele>
        <time>2022-06-30T08:56:08Z</time>
      </trkpt>
      <trkpt lat="48.95431" lon="1.86074">
        <ele>84.51</ele>
        <time>2022-06-30T08:56:11Z</time>
      </trkpt>
      <trkpt lat="48.9542" lon="1.86081">
        <ele>85.21</ele>
        <time>2022-06-30T08:56:22Z</time>
      </trkpt>
      <trkpt lat="48.95416" lon="1.86082">
        <ele>85.31</ele>
        <time>2022-06-30T08:56:26Z</time>
      </trkpt>
      <trkpt lat="48.95405" lon="1.86089">
        <ele>84.93</ele>
        <time>2022-06-30T08:56:39Z</time>
      </trkpt>
      <trkpt lat="48.95394" lon="1.86097">
        <ele>85.51</ele>
        <time>2022-06-30T08:56:49Z</time>
      </trkpt>
      <trkpt lat="48.95381" lon="1.86108">
        <ele>85.74</ele>
        <time>2022-06-30T08:57:01Z</time>
      </trkpt>
      <trkpt lat="48.9537" lon="1.86116">
        <ele>86.13</ele>
        <time>2022-06-30T08:57:12Z</time>
      </trkpt>
      <trkpt lat="48.95362" lon="1.86122">
        <ele>85.87</ele>
        <time>2022-06-30T08:57:26Z</time>
      </trkpt>
      <trkpt lat="48.95356" lon="1.86123">
        <ele>86.81</ele>
        <time>2022-06-30T08:57:33Z</time>
      </trkpt>
      <trkpt lat="48.95342" lon="1.86132">
        <ele>87.08</ele>
        <time>2022-06-30T08:57:48Z</time>
      </trkpt>
      <trkpt lat="48.9533" lon="1.86141">
        <ele>86.79</ele>
        <time>2022-06-30T08:58:00Z</time>
      </trkpt>
      <trkpt lat="48.95316" lon="1.86151">
        <ele>87.97</ele>
        <time>2022-06-30T08:58:16Z</time>
      </trkpt>
      <trkpt lat="48.95297" lon="1.86161">
        <ele>88.95</ele>
        <time>2022-06-30T08:58:34Z</time>
      </trkpt>
      <trkpt lat="48.95286" lon="1.86175">
        <ele>89.47</ele>
        <time>2022-06-30T08:58:50Z</time>
      </trkpt>
      <trkpt lat="48.95272" lon="1.86181">
        <ele>90.48</ele>
        <time>2022-06-30T08:59:07Z</time>
      </trkpt>
      <trkpt lat="48.95255" lon="1.86188">
        <ele>90.98</ele>
        <time>2022-06-30T08:59:22Z</time>
      </trkpt>
      <trkpt lat="48.95236" lon="1.86198">
        <ele>91.11</ele>
        <time>2022-06-30T08:59:37Z</time>
      </trkpt>
      <trkpt lat="48.95221" lon="1.86202">
        <ele>91.1</ele>
        <time>2022-06-30T08:59:50Z</time>
      </trkpt>
      <trkpt lat="48.95217" lon="1.86205">
        <ele>91.14</ele>
        <time>2022-06-30T08:59:54Z</time>
      </trkpt>
      <trkpt lat="48.95208" lon="1.86215">
        <ele>91.18</ele>
        <time>2022-06-30T09:00:08Z</time>
      </trkpt>
      <trkpt lat="48.95192" lon="1.86222">
        <ele>91.9</ele>
        <time>2022-06-30T09:00:21Z</time>
      </trkpt>
      <trkpt lat="48.95173" lon="1.86229">
        <ele>92.89</ele>
        <time>2022-06-30T09:00:39Z</time>
      </trkpt>
      <trkpt lat="48.95163" lon="1.86233">
        <ele>93.25</ele>
        <time>2022-06-30T09:00:49Z</time>
      </trkpt>
      <trkpt lat="48.95163" lon="1.86235">
        <ele>92.95</ele>
        <time>2022-06-30T09:00:50Z</time>
      </trkpt>
      <trkpt lat="48.95165" lon="1.86245">
        <ele>93.29</ele>
        <time>2022-06-30T09:00:57Z</time>
      </trkpt>
      <trkpt lat="48.95167" lon="1.86255">
        <ele>93.21</ele>
        <time>2022-06-30T09:01:08Z</time>
      </trkpt>
      <trkpt lat="48.9516" lon="1.86259">
        <ele>93.93</ele>
        <time>2022-06-30T09:01:20Z</time>
      </trkpt>
      <trkpt lat="48.95162" lon="1.86264">
        <ele>94.6</ele>
        <time>2022-06-30T09:01:39Z</time>
      </trkpt>
      <trkpt lat="48.95164" lon="1.86271">
        <ele>94.53</ele>
        <time>2022-06-30T09:01:53Z</time>
      </trkpt>
      <trkpt lat="48.95169" lon="1.86272">
        <ele>94.61</ele>
        <time>2022-06-30T09:01:58Z</time>
      </trkpt>
      <trkpt lat="48.95177" lon="1.86277">
        <ele>94.68</ele>
        <time>2022-06-30T09:02:07Z</time>
      </trkpt>
      <trkpt lat="48.95184" lon="1.86282">
        <ele>94.9</ele>
        <time>2022-06-30T09:02:14Z</time>
      </trkpt>
      <trkpt lat="48.952" lon="1.86293">
        <ele>94.17</ele>
        <time>2022-06-30T09:02:29Z</time>
      </trkpt>
      <trkpt lat="48.95215" lon="1.86303">
        <ele>94.8</ele>
        <time>2022-06-30T09:02:43Z</time>
      </trkpt>
      <trkpt lat="48.95225" lon="1.86313">
        <ele>94.68</ele>
        <time>2022-06-30T09:02:54Z</time>
      </trkpt>
      <trkpt lat="48.95233" lon="1.86321">
        <ele>94.54</ele>
        <time>2022-06-30T09:03:02Z</time>
      </trkpt>
      <trkpt lat="48.95242" lon="1.86328">
        <ele>94.34</ele>
        <time>2022-06-30T09:03:11Z</time>
      </trkpt>
      <trkpt lat="48.95252" lon="1.86337">
        <ele>94.16</ele>
        <time>2022-06-30T09:03:22Z</time>
      </trkpt>
      <trkpt lat="48.95252" lon="1.86338">
        <ele>94.03</ele>
        <time>2022-06-30T09:03:23Z</time>
      </trkpt>
      <trkpt lat="48.95254" lon="1.86351">
        <ele>94.27</ele>
        <time>2022-06-30T09:03:36Z</time>
      </trkpt>
      <trkpt lat="48.95255" lon="1.86352">
        <ele>93.86</ele>
        <time>2022-06-30T09:03:52Z</time>
      </trkpt>
      <trkpt lat="48.95254" lon="1.86354">
        <ele>93.67</ele>
        <time>2022-06-30T09:04:16Z</time>
      </trkpt>
      <trkpt lat="48.95253" lon="1.86358">
        <ele>93.48</ele>
        <time>2022-06-30T09:04:29Z</time>
      </trkpt>
      <trkpt lat="48.95254" lon="1.86355">
        <ele>93.72</ele>
        <time>2022-06-30T09:04:46Z</time>
      </trkpt>
      <trkpt lat="48.95255" lon="1.86355">
        <ele>93.94</ele>
        <time>2022-06-30T09:05:12Z</time>
      </trkpt>
      <trkpt lat="48.95251" lon="1.86364">
        <ele>94.55</ele>
        <time>2022-06-30T09:05:27Z</time>
      </trkpt>
      <trkpt lat="48.95245" lon="1.86375">
        <ele>94.14</ele>
        <time>2022-06-30T09:05:39Z</time>
      </trkpt>
      <trkpt lat="48.95244" lon="1.86376">
        <ele>94.38</ele>
        <time>2022-06-30T09:05:40Z</time>
      </trkpt>
      <trkpt lat="48.95236" lon="1.86391">
        <ele>94.06</ele>
        <time>2022-06-30T09:05:52Z</time>
      </trkpt>
      <trkpt lat="48.95236" lon="1.86392">
        <ele>94.33</ele>
        <time>2022-06-30T09:05:53Z</time>
      </trkpt>
      <trkpt lat="48.95234" lon="1.86396">
        <ele>94.18</ele>
        <time>2022-06-30T09:05:56Z</time>
      </trkpt>
      <trkpt lat="48.95226" lon="1.86411">
        <ele>94.35</ele>
        <time>2022-06-30T09:06:07Z</time>
      </trkpt>
      <trkpt lat="48.95223" lon="1.86417">
        <ele>94.2</ele>
        <time>2022-06-30T09:06:11Z</time>
      </trkpt>
      <trkpt lat="48.95218" lon="1.86426">
        <ele>94.38</ele>
        <time>2022-06-30T09:06:18Z</time>
      </trkpt>
      <trkpt lat="48.95216" lon="1.8643">
        <ele>94.57</ele>
        <time>2022-06-30T09:06:21Z</time>
      </trkpt>
      <trkpt lat="48.95214" lon="1.86433">
        <ele>94.89</ele>
        <time>2022-06-30T09:06:24Z</time>
      </trkpt>
      <trkpt lat="48.9521" lon="1.86441">
        <ele>94.18</ele>
        <time>2022-06-30T09:06:31Z</time>
      </trkpt>
      <trkpt lat="48.95205" lon="1.8645">
        <ele>94.31</ele>
        <time>2022-06-30T09:06:38Z</time>
      </trkpt>
      <trkpt lat="48.95201" lon="1.86456">
        <ele>94.83</ele>
        <time>2022-06-30T09:06:49Z</time>
      </trkpt>
      <trkpt lat="48.95192" lon="1.8647">
        <ele>95.32</ele>
        <time>2022-06-30T09:07:01Z</time>
      </trkpt>
      <trkpt lat="48.95187" lon="1.86481">
        <ele>94.97</ele>
        <time>2022-06-30T09:07:10Z</time>
      </trkpt>
      <trkpt lat="48.95187" lon="1.86492">
        <ele>94.49</ele>
        <time>2022-06-30T09:07:16Z</time>
      </trkpt>
      <trkpt lat="48.95191" lon="1.86507">
        <ele>95.02</ele>
        <time>2022-06-30T09:07:25Z</time>
      </trkpt>
      <trkpt lat="48.95195" lon="1.86512">
        <ele>95.12</ele>
        <time>2022-06-30T09:07:29Z</time>
      </trkpt>
      <trkpt lat="48.95203" lon="1.86526">
        <ele>94.05</ele>
        <time>2022-06-30T09:07:41Z</time>
      </trkpt>
      <trkpt lat="48.95212" lon="1.86543">
        <ele>93.89</ele>
        <time>2022-06-30T09:07:53Z</time>
      </trkpt>
      <trkpt lat="48.95213" lon="1.86549">
        <ele>94.77</ele>
        <time>2022-06-30T09:07:58Z</time>
      </trkpt>
      <trkpt lat="48.95218" lon="1.86557">
        <ele>93.8</ele>
        <time>2022-06-30T09:08:10Z</time>
      </trkpt>
      <trkpt lat="48.95223" lon="1.86569">
        <ele>93.42</ele>
        <time>2022-06-30T09:08:21Z</time>
      </trkpt>
      <trkpt lat="48.95225" lon="1.86573">
        <ele>93.6</ele>
        <time>2022-06-30T09:08:24Z</time>
      </trkpt>
      <trkpt lat="48.95233" lon="1.86588">
        <ele>93.85</ele>
        <time>2022-06-30T09:08:35Z</time>
      </trkpt>
      <trkpt lat="48.95242" lon="1.86606">
        <ele>93.37</ele>
        <time>2022-06-30T09:08:48Z</time>
      </trkpt>
      <trkpt lat="48.95247" lon="1.86614">
        <ele>93.59</ele>
        <time>2022-06-30T09:08:59Z</time>
      </trkpt>
      <trkpt lat="48.9525" lon="1.86622">
        <ele>93.61</ele>
        <time>2022-06-30T09:09:11Z</time>
      </trkpt>
      <trkpt lat="48.95252" lon="1.86625">
        <ele>93.19</ele>
        <time>2022-06-30T09:09:14Z</time>
      </trkpt>
      <trkpt lat="48.95254" lon="1.86631">
        <ele>93.78</ele>
        <time>2022-06-30T09:09:25Z</time>
      </trkpt>
      <trkpt lat="48.95254" lon="1.86633">
        <ele>93.51</ele>
        <time>2022-06-30T09:09:29Z</time>
      </trkpt>
      <trkpt lat="48.95256" lon="1.86636">
        <ele>93.65</ele>
        <time>2022-06-30T09:09:32Z</time>
      </trkpt>
      <trkpt lat="48.95262" lon="1.86648">
        <ele>93.42</ele>
        <time>2022-06-30T09:09:42Z</time>
      </trkpt>
      <trkpt lat="48.95269" lon="1.86663">
        <ele>93.25</ele>
        <time>2022-06-30T09:09:54Z</time>
      </trkpt>
      <trkpt lat="48.95274" lon="1.8667">
        <ele>93.48</ele>
        <time>2022-06-30T09:10:03Z</time>
      </trkpt>
      <trkpt lat="48.95275" lon="1.86672">
        <ele>93.78</ele>
        <time>2022-06-30T09:10:08Z</time>
      </trkpt>
      <trkpt lat="48.95278" lon="1.8668">
        <ele>93.66</ele>
        <time>2022-06-30T09:10:13Z</time>
      </trkpt>
      <trkpt lat="48.95288" lon="1.86697">
        <ele>93.66</ele>
        <time>2022-06-30T09:10:26Z</time>
      </trkpt>
      <trkpt lat="48.95292" lon="1.86708">
        <ele>93.83</ele>
        <time>2022-06-30T09:10:39Z</time>
      </trkpt>
      <trkpt lat="48.95293" lon="1.8671">
        <ele>93.89</ele>
        <time>2022-06-30T09:10:42Z</time>
      </trkpt>
      <trkpt lat="48.95295" lon="1.86717">
        <ele>93.65</ele>
        <time>2022-06-30T09:10:46Z</time>
      </trkpt>
      <trkpt lat="48.95303" lon="1.8673">
        <ele>93.75</ele>
        <time>2022-06-30T09:10:57Z</time>
      </trkpt>
      <trkpt lat="48.95308" lon="1.86744">
        <ele>93.87</ele>
        <time>2022-06-30T09:11:06Z</time>
      </trkpt>
      <trkpt lat="48.95312" lon="1.8675">
        <ele>93.21</ele>
        <time>2022-06-30T09:11:12Z</time>
      </trkpt>
      <trkpt lat="48.95314" lon="1.86753">
        <ele>93.72</ele>
        <time>2022-06-30T09:11:15Z</time>
      </trkpt>
      <trkpt lat="48.95321" lon="1.86768">
        <ele>93.73</ele>
        <time>2022-06-30T09:11:29Z</time>
      </trkpt>
      <trkpt lat="48.95323" lon="1.86775">
        <ele>93.82</ele>
        <time>2022-06-30T09:11:34Z</time>
      </trkpt>
      <trkpt lat="48.95328" lon="1.86787">
        <ele>94.15</ele>
        <time>2022-06-30T09:11:45Z</time>
      </trkpt>
      <trkpt lat="48.95333" lon="1.86798">
        <ele>93.71</ele>
        <time>2022-06-30T09:11:55Z</time>
      </trkpt>
      <trkpt lat="48.9534" lon="1.86817">
        <ele>94.46</ele>
        <time>2022-06-30T09:12:09Z</time>
      </trkpt>
      <trkpt lat="48.95347" lon="1.86834">
        <ele>94.7</ele>
        <time>2022-06-30T09:12:21Z</time>
      </trkpt>
      <trkpt lat="48.95352" lon="1.86848">
        <ele>95.47</ele>
        <time>2022-06-30T09:12:32Z</time>
      </trkpt>
      <trkpt lat="48.95357" lon="1.86861">
        <ele>95.29</ele>
        <time>2022-06-30T09:12:42Z</time>
      </trkpt>
      <trkpt lat="48.95363" lon="1.86873">
        <ele>95.63</ele>
        <time>2022-06-30T09:12:52Z</time>
      </trkpt>
      <trkpt lat="48.95371" lon="1.86889">
        <ele>95.73</ele>
        <time>2022-06-30T09:13:03Z</time>
      </trkpt>
      <trkpt lat="48.95375" lon="1.86901">
        <ele>95.79</ele>
        <time>2022-06-30T09:13:11Z</time>
      </trkpt>
      <trkpt lat="48.95377" lon="1.86907">
        <ele>95.88</ele>
        <time>2022-06-30T09:13:15Z</time>
      </trkpt>
      <trkpt lat="48.95381" lon="1.86918">
        <ele>96.13</ele>
        <time>2022-06-30T09:13:26Z</time>
      </trkpt>
      <trkpt lat="48.95382" lon="1.86921">
        <ele>96.13</ele>
        <time>2022-06-30T09:13:28Z</time>
      </trkpt>
      <trkpt lat="48.95387" lon="1.86931">
        <ele>95.99</ele>
        <time>2022-06-30T09:13:38Z</time>
      </trkpt>
      <trkpt lat="48.95394" lon="1.86949">
        <ele>95.56</ele>
        <time>2022-06-30T09:13:50Z</time>
      </trkpt>
      <trkpt lat="48.95401" lon="1.86965">
        <ele>95.98</ele>
        <time>2022-06-30T09:14:02Z</time>
      </trkpt>
      <trkpt lat="48.95404" lon="1.86975">
        <ele>95.81</ele>
        <time>2022-06-30T09:14:10Z</time>
      </trkpt>
      <trkpt lat="48.95405" lon="1.86978">
        <ele>96.23</ele>
        <time>2022-06-30T09:14:12Z</time>
      </trkpt>
      <trkpt lat="48.95412" lon="1.86992">
        <ele>95.96</ele>
        <time>2022-06-30T09:14:23Z</time>
      </trkpt>
      <trkpt lat="48.95419" lon="1.87005">
        <ele>96.22</ele>
        <time>2022-06-30T09:14:32Z</time>
      </trkpt>
      <trkpt lat="48.95426" lon="1.87023">
        <ele>96.16</ele>
        <time>2022-06-30T09:14:45Z</time>
      </trkpt>
      <trkpt lat="48.9543" lon="1.8703">
        <ele>96.36</ele>
        <time>2022-06-30T09:14:54Z</time>
      </trkpt>
      <trkpt lat="48.95433" lon="1.87038">
        <ele>96.24</ele>
        <time>2022-06-30T09:14:59Z</time>
      </trkpt>
      <trkpt lat="48.95434" lon="1.87043">
        <ele>96.17</ele>
        <time>2022-06-30T09:15:03Z</time>
      </trkpt>
      <trkpt lat="48.9544" lon="1.8706">
        <ele>96.1</ele>
        <time>2022-06-30T09:15:14Z</time>
      </trkpt>
      <trkpt lat="48.9544" lon="1.87063">
        <ele>96.1</ele>
        <time>2022-06-30T09:15:16Z</time>
      </trkpt>
      <trkpt lat="48.95446" lon="1.87077">
        <ele>96.36</ele>
        <time>2022-06-30T09:15:28Z</time>
      </trkpt>
      <trkpt lat="48.95451" lon="1.87089">
        <ele>96.44</ele>
        <time>2022-06-30T09:15:37Z</time>
      </trkpt>
      <trkpt lat="48.95456" lon="1.87103">
        <ele>95.79</ele>
        <time>2022-06-30T09:15:49Z</time>
      </trkpt>
      <trkpt lat="48.95458" lon="1.87105">
        <ele>96.74</ele>
        <time>2022-06-30T09:15:55Z</time>
      </trkpt>
      <trkpt lat="48.95459" lon="1.87109">
        <ele>97.06</ele>
        <time>2022-06-30T09:15:58Z</time>
      </trkpt>
      <trkpt lat="48.95466" lon="1.87127">
        <ele>96.67</ele>
        <time>2022-06-30T09:16:10Z</time>
      </trkpt>
      <trkpt lat="48.95472" lon="1.87143">
        <ele>97.35</ele>
        <time>2022-06-30T09:16:21Z</time>
      </trkpt>
      <trkpt lat="48.95478" lon="1.87164">
        <ele>97.39</ele>
        <time>2022-06-30T09:16:34Z</time>
      </trkpt>
      <trkpt lat="48.9548" lon="1.87171">
        <ele>97.36</ele>
        <time>2022-06-30T09:16:39Z</time>
      </trkpt>
      <trkpt lat="48.95484" lon="1.8718">
        <ele>97.67</ele>
        <time>2022-06-30T09:16:46Z</time>
      </trkpt>
      <trkpt lat="48.95489" lon="1.87195">
        <ele>97.86</ele>
        <time>2022-06-30T09:16:57Z</time>
      </trkpt>
      <trkpt lat="48.95493" lon="1.87209">
        <ele>98.15</ele>
        <time>2022-06-30T09:17:06Z</time>
      </trkpt>
      <trkpt lat="48.95498" lon="1.87226">
        <ele>98.8</ele>
        <time>2022-06-30T09:17:17Z</time>
      </trkpt>
      <trkpt lat="48.95501" lon="1.87238">
        <ele>98.71</ele>
        <time>2022-06-30T09:17:25Z</time>
      </trkpt>
      <trkpt lat="48.95503" lon="1.87245">
        <ele>98.44</ele>
        <time>2022-06-30T09:17:29Z</time>
      </trkpt>
      <trkpt lat="48.95507" lon="1.87263">
        <ele>99.03</ele>
        <time>2022-06-30T09:17:40Z</time>
      </trkpt>
      <trkpt lat="48.9551" lon="1.87282">
        <ele>99.35</ele>
        <time>2022-06-30T09:17:52Z</time>
      </trkpt>
      <trkpt lat="48.95511" lon="1.87288">
        <ele>99.22</ele>
        <time>2022-06-30T09:17:56Z</time>
      </trkpt>
      <trkpt lat="48.95513" lon="1.87299">
        <ele>99.19</ele>
        <time>2022-06-30T09:18:03Z</time>
      </trkpt>
      <trkpt lat="48.95515" lon="1.87311">
        <ele>99.4</ele>
        <time>2022-06-30T09:18:10Z</time>
      </trkpt>
      <trkpt lat="48.9552" lon="1.87334">
        <ele>99.4</ele>
        <time>2022-06-30T09:18:24Z</time>
      </trkpt>
      <trkpt lat="48.95522" lon="1.87348">
        <ele>99.28</ele>
        <time>2022-06-30T09:18:34Z</time>
      </trkpt>
      <trkpt lat="48.95523" lon="1.87351">
        <ele>99.26</ele>
        <time>2022-06-30T09:18:36Z</time>
      </trkpt>
      <trkpt lat="48.95527" lon="1.87371">
        <ele>99.26</ele>
        <time>2022-06-30T09:18:48Z</time>
      </trkpt>
      <trkpt lat="48.9553" lon="1.87388">
        <ele>99.45</ele>
        <time>2022-06-30T09:18:59Z</time>
      </trkpt>
      <trkpt lat="48.95533" lon="1.87402">
        <ele>99.17</ele>
        <time>2022-06-30T09:19:08Z</time>
      </trkpt>
      <trkpt lat="48.95535" lon="1.87417">
        <ele>99.48</ele>
        <time>2022-06-30T09:19:18Z</time>
      </trkpt>
      <trkpt lat="48.95539" lon="1.87436">
        <ele>99.35</ele>
        <time>2022-06-30T09:19:30Z</time>
      </trkpt>
      <trkpt lat="48.95543" lon="1.87455">
        <ele>98.99</ele>
        <time>2022-06-30T09:19:43Z</time>
      </trkpt>
      <trkpt lat="48.95546" lon="1.87471">
        <ele>99.6</ele>
        <time>2022-06-30T09:19:54Z</time>
      </trkpt>
      <trkpt lat="48.95548" lon="1.87488">
        <ele>98.96</ele>
        <time>2022-06-30T09:20:06Z</time>
      </trkpt>
      <trkpt lat="48.95549" lon="1.87496">
        <ele>99.6</ele>
        <time>2022-06-30T09:20:11Z</time>
      </trkpt>
      <trkpt lat="48.95552" lon="1.87504">
        <ele>99.68</ele>
        <time>2022-06-30T09:20:18Z</time>
      </trkpt>
      <trkpt lat="48.95557" lon="1.87523">
        <ele>99.3</ele>
        <time>2022-06-30T09:20:30Z</time>
      </trkpt>
      <trkpt lat="48.95561" lon="1.87537">
        <ele>98.76</ele>
        <time>2022-06-30T09:20:41Z</time>
      </trkpt>
      <trkpt lat="48.95565" lon="1.87559">
        <ele>99.29</ele>
        <time>2022-06-30T09:20:54Z</time>
      </trkpt>
      <trkpt lat="48.95568" lon="1.87573">
        <ele>98.69</ele>
        <time>2022-06-30T09:21:03Z</time>
      </trkpt>
      <trkpt lat="48.9557" lon="1.87578">
        <ele>97.99</ele>
        <time>2022-06-30T09:21:07Z</time>
      </trkpt>
      <trkpt lat="48.95576" lon="1.87597">
        <ele>97.51</ele>
        <time>2022-06-30T09:21:19Z</time>
      </trkpt>
      <trkpt lat="48.95577" lon="1.87598">
        <ele>97.62</ele>
        <time>2022-06-30T09:21:20Z</time>
      </trkpt>
      <trkpt lat="48.95583" lon="1.87616">
        <ele>96.31</ele>
        <time>2022-06-30T09:21:31Z</time>
      </trkpt>
      <trkpt lat="48.95584" lon="1.87619">
        <ele>97.13</ele>
        <time>2022-06-30T09:21:33Z</time>
      </trkpt>
      <trkpt lat="48.9559" lon="1.87641">
        <ele>95.54</ele>
        <time>2022-06-30T09:21:45Z</time>
      </trkpt>
      <trkpt lat="48.95596" lon="1.87654">
        <ele>94.74</ele>
        <time>2022-06-30T09:21:54Z</time>
      </trkpt>
      <trkpt lat="48.95597" lon="1.87657">
        <ele>94.86</ele>
        <time>2022-06-30T09:21:56Z</time>
      </trkpt>
      <trkpt lat="48.956" lon="1.87665">
        <ele>94.74</ele>
        <time>2022-06-30T09:22:01Z</time>
      </trkpt>
      <trkpt lat="48.95602" lon="1.87671">
        <ele>94.78</ele>
        <time>2022-06-30T09:22:05Z</time>
      </trkpt>
      <trkpt lat="48.95609" lon="1.8769">
        <ele>93.45</ele>
        <time>2022-06-30T09:22:17Z</time>
      </trkpt>
      <trkpt lat="48.95613" lon="1.877">
        <ele>93.04</ele>
        <time>2022-06-30T09:22:26Z</time>
      </trkpt>
      <trkpt lat="48.9562" lon="1.87716">
        <ele>93.4</ele>
        <time>2022-06-30T09:22:45Z</time>
      </trkpt>
      <trkpt lat="48.95626" lon="1.87733">
        <ele>93.02</ele>
        <time>2022-06-30T09:22:58Z</time>
      </trkpt>
      <trkpt lat="48.95629" lon="1.87745">
        <ele>93.08</ele>
        <time>2022-06-30T09:23:06Z</time>
      </trkpt>
      <trkpt lat="48.95632" lon="1.87749">
        <ele>93.04</ele>
        <time>2022-06-30T09:23:10Z</time>
      </trkpt>
      <trkpt lat="48.95634" lon="1.87752">
        <ele>93.16</ele>
        <time>2022-06-30T09:23:12Z</time>
      </trkpt>
      <trkpt lat="48.95643" lon="1.87768">
        <ele>92.99</ele>
        <time>2022-06-30T09:23:23Z</time>
      </trkpt>
      <trkpt lat="48.95647" lon="1.87779">
        <ele>93.41</ele>
        <time>2022-06-30T09:23:32Z</time>
      </trkpt>
      <trkpt lat="48.95657" lon="1.87795">
        <ele>92.99</ele>
        <time>2022-06-30T09:23:47Z</time>
      </trkpt>
      <trkpt lat="48.95669" lon="1.87811">
        <ele>93.05</ele>
        <time>2022-06-30T09:24:03Z</time>
      </trkpt>
      <trkpt lat="48.95679" lon="1.87834">
        <ele>92.91</ele>
        <time>2022-06-30T09:24:22Z</time>
      </trkpt>
      <trkpt lat="48.95687" lon="1.87853">
        <ele>93.28</ele>
        <time>2022-06-30T09:24:33Z</time>
      </trkpt>
      <trkpt lat="48.95691" lon="1.87863">
        <ele>92.74</ele>
        <time>2022-06-30T09:24:40Z</time>
      </trkpt>
      <trkpt lat="48.9569" lon="1.87873">
        <ele>93.19</ele>
        <time>2022-06-30T09:24:48Z</time>
      </trkpt>
      <trkpt lat="48.95683" lon="1.87877">
        <ele>93</ele>
        <time>2022-06-30T09:24:56Z</time>
      </trkpt>
      <trkpt lat="48.95678" lon="1.8788">
        <ele>93.61</ele>
        <time>2022-06-30T09:25:01Z</time>
      </trkpt>
      <trkpt lat="48.95674" lon="1.87882">
        <ele>94.15</ele>
        <time>2022-06-30T09:25:06Z</time>
      </trkpt>
      <trkpt lat="48.95664" lon="1.87887">
        <ele>95.07</ele>
        <time>2022-06-30T09:25:16Z</time>
      </trkpt>
      <trkpt lat="48.95655" lon="1.87891">
        <ele>95.77</ele>
        <time>2022-06-30T09:25:26Z</time>
      </trkpt>
      <trkpt lat="48.95646" lon="1.87893">
        <ele>95.94</ele>
        <time>2022-06-30T09:25:35Z</time>
      </trkpt>
      <trkpt lat="48.95639" lon="1.87895">
        <ele>96.94</ele>
        <time>2022-06-30T09:25:43Z</time>
      </trkpt>
      <trkpt lat="48.95635" lon="1.87897">
        <ele>97.44</ele>
        <time>2022-06-30T09:25:47Z</time>
      </trkpt>
      <trkpt lat="48.95627" lon="1.879">
        <ele>97.73</ele>
        <time>2022-06-30T09:25:55Z</time>
      </trkpt>
      <trkpt lat="48.95616" lon="1.87903">
        <ele>98.85</ele>
        <time>2022-06-30T09:26:07Z</time>
      </trkpt>
      <trkpt lat="48.95607" lon="1.87907">
        <ele>99.54</ele>
        <time>2022-06-30T09:26:16Z</time>
      </trkpt>
      <trkpt lat="48.95595" lon="1.87912">
        <ele>100.29</ele>
        <time>2022-06-30T09:26:28Z</time>
      </trkpt>
      <trkpt lat="48.95585" lon="1.87918">
        <ele>101.41</ele>
        <time>2022-06-30T09:26:38Z</time>
      </trkpt>
      <trkpt lat="48.9558" lon="1.87922">
        <ele>102.35</ele>
        <time>2022-06-30T09:26:44Z</time>
      </trkpt>
      <trkpt lat="48.95569" lon="1.87925">
        <ele>102.74</ele>
        <time>2022-06-30T09:26:54Z</time>
      </trkpt>
      <trkpt lat="48.95561" lon="1.87927">
        <ele>103.29</ele>
        <time>2022-06-30T09:27:02Z</time>
      </trkpt>
      <trkpt lat="48.95557" lon="1.87928">
        <ele>103.85</ele>
        <time>2022-06-30T09:27:06Z</time>
      </trkpt>
      <trkpt lat="48.95545" lon="1.87932">
        <ele>103.4</ele>
        <time>2022-06-30T09:27:18Z</time>
      </trkpt>
      <trkpt lat="48.95541" lon="1.87933">
        <ele>104.07</ele>
        <time>2022-06-30T09:27:22Z</time>
      </trkpt>
      <trkpt lat="48.95529" lon="1.87937">
        <ele>102.98</ele>
        <time>2022-06-30T09:27:33Z</time>
      </trkpt>
      <trkpt lat="48.95523" lon="1.87938">
        <ele>103.53</ele>
        <time>2022-06-30T09:27:38Z</time>
      </trkpt>
      <trkpt lat="48.95512" lon="1.87943">
        <ele>103.07</ele>
        <time>2022-06-30T09:27:48Z</time>
      </trkpt>
      <trkpt lat="48.95502" lon="1.87946">
        <ele>103.19</ele>
        <time>2022-06-30T09:27:58Z</time>
      </trkpt>
      <trkpt lat="48.95497" lon="1.87947">
        <ele>103.11</ele>
        <time>2022-06-30T09:28:02Z</time>
      </trkpt>
      <trkpt lat="48.95489" lon="1.87953">
        <ele>102.93</ele>
        <time>2022-06-30T09:28:10Z</time>
      </trkpt>
      <trkpt lat="48.95487" lon="1.87954">
        <ele>103.06</ele>
        <time>2022-06-30T09:28:12Z</time>
      </trkpt>
      <trkpt lat="48.95476" lon="1.87959">
        <ele>102.76</ele>
        <time>2022-06-30T09:28:23Z</time>
      </trkpt>
      <trkpt lat="48.95466" lon="1.87964">
        <ele>103.14</ele>
        <time>2022-06-30T09:28:33Z</time>
      </trkpt>
      <trkpt lat="48.95462" lon="1.87966">
        <ele>103.35</ele>
        <time>2022-06-30T09:28:36Z</time>
      </trkpt>
      <trkpt lat="48.95455" lon="1.87968">
        <ele>103.04</ele>
        <time>2022-06-30T09:28:42Z</time>
      </trkpt>
      <trkpt lat="48.95443" lon="1.87976">
        <ele>103.56</ele>
        <time>2022-06-30T09:28:54Z</time>
      </trkpt>
      <trkpt lat="48.95442" lon="1.87976">
        <ele>103.6</ele>
        <time>2022-06-30T09:28:55Z</time>
      </trkpt>
      <trkpt lat="48.9543" lon="1.87983">
        <ele>103.83</ele>
        <time>2022-06-30T09:29:07Z</time>
      </trkpt>
      <trkpt lat="48.95429" lon="1.87984">
        <ele>104.48</ele>
        <time>2022-06-30T09:29:08Z</time>
      </trkpt>
      <trkpt lat="48.95417" lon="1.87988">
        <ele>104.14</ele>
        <time>2022-06-30T09:29:20Z</time>
      </trkpt>
      <trkpt lat="48.95413" lon="1.8799">
        <ele>104.5</ele>
        <time>2022-06-30T09:29:24Z</time>
      </trkpt>
      <trkpt lat="48.95402" lon="1.87993">
        <ele>104.21</ele>
        <time>2022-06-30T09:29:34Z</time>
      </trkpt>
      <trkpt lat="48.95397" lon="1.87993">
        <ele>104.77</ele>
        <time>2022-06-30T09:29:38Z</time>
      </trkpt>
      <trkpt lat="48.95386" lon="1.87995">
        <ele>104.87</ele>
        <time>2022-06-30T09:29:48Z</time>
      </trkpt>
      <trkpt lat="48.95376" lon="1.87997">
        <ele>104.92</ele>
        <time>2022-06-30T09:29:57Z</time>
      </trkpt>
      <trkpt lat="48.95364" lon="1.87998">
        <ele>105.12</ele>
        <time>2022-06-30T09:30:10Z</time>
      </trkpt>
      <trkpt lat="48.9535" lon="1.88001">
        <ele>106.06</ele>
        <time>2022-06-30T09:30:24Z</time>
      </trkpt>
      <trkpt lat="48.95343" lon="1.88003">
        <ele>106.7</ele>
        <time>2022-06-30T09:30:32Z</time>
      </trkpt>
      <trkpt lat="48.95334" lon="1.88001">
        <ele>107.34</ele>
        <time>2022-06-30T09:30:39Z</time>
      </trkpt>
      <trkpt lat="48.95322" lon="1.88002">
        <ele>108.36</ele>
        <time>2022-06-30T09:30:49Z</time>
      </trkpt>
      <trkpt lat="48.9531" lon="1.88005">
        <ele>108.96</ele>
        <time>2022-06-30T09:31:00Z</time>
      </trkpt>
      <trkpt lat="48.953" lon="1.88009">
        <ele>110.24</ele>
        <time>2022-06-30T09:31:10Z</time>
      </trkpt>
      <trkpt lat="48.95287" lon="1.88011">
        <ele>110.87</ele>
        <time>2022-06-30T09:31:22Z</time>
      </trkpt>
      <trkpt lat="48.95275" lon="1.88012">
        <ele>111.81</ele>
        <time>2022-06-30T09:31:34Z</time>
      </trkpt>
      <trkpt lat="48.95259" lon="1.88013">
        <ele>112.76</ele>
        <time>2022-06-30T09:31:50Z</time>
      </trkpt>
      <trkpt lat="48.9525" lon="1.88015">
        <ele>113.06</ele>
        <time>2022-06-30T09:31:59Z</time>
      </trkpt>
      <trkpt lat="48.95241" lon="1.88016">
        <ele>114.07</ele>
        <time>2022-06-30T09:32:09Z</time>
      </trkpt>
      <trkpt lat="48.95226" lon="1.88021">
        <ele>114.85</ele>
        <time>2022-06-30T09:32:25Z</time>
      </trkpt>
      <trkpt lat="48.95219" lon="1.88023">
        <ele>116.13</ele>
        <time>2022-06-30T09:32:33Z</time>
      </trkpt>
      <trkpt lat="48.95212" lon="1.88026">
        <ele>116.3</ele>
        <time>2022-06-30T09:32:44Z</time>
      </trkpt>
      <trkpt lat="48.95202" lon="1.88028">
        <ele>117.38</ele>
        <time>2022-06-30T09:32:53Z</time>
      </trkpt>
      <trkpt lat="48.95188" lon="1.88029">
        <ele>118.02</ele>
        <time>2022-06-30T09:33:05Z</time>
      </trkpt>
      <trkpt lat="48.9517" lon="1.88033">
        <ele>119</ele>
        <time>2022-06-30T09:33:23Z</time>
      </trkpt>
      <trkpt lat="48.95165" lon="1.88033">
        <ele>119.42</ele>
        <time>2022-06-30T09:33:37Z</time>
      </trkpt>
      <trkpt lat="48.95162" lon="1.8803">
        <ele>119.2</ele>
        <time>2022-06-30T09:33:56Z</time>
      </trkpt>
      <trkpt lat="48.95156" lon="1.88029">
        <ele>119.69</ele>
        <time>2022-06-30T09:34:08Z</time>
      </trkpt>
      <trkpt lat="48.95152" lon="1.88027">
        <ele>119.37</ele>
        <time>2022-06-30T09:34:29Z</time>
      </trkpt>
      <trkpt lat="48.95143" lon="1.88028">
        <ele>120.59</ele>
        <time>2022-06-30T09:34:41Z</time>
      </trkpt>
      <trkpt lat="48.9514" lon="1.8803">
        <ele>120.18</ele>
        <time>2022-06-30T09:34:56Z</time>
      </trkpt>
      <trkpt lat="48.95136" lon="1.88038">
        <ele>121</ele>
        <time>2022-06-30T09:35:06Z</time>
      </trkpt>
      <trkpt lat="48.95135" lon="1.88047">
        <ele>120.53</ele>
        <time>2022-06-30T09:35:12Z</time>
      </trkpt>
      <trkpt lat="48.95134" lon="1.88053">
        <ele>120.89</ele>
        <time>2022-06-30T09:35:16Z</time>
      </trkpt>
      <trkpt lat="48.95133" lon="1.88065">
        <ele>120.93</ele>
        <time>2022-06-30T09:35:26Z</time>
      </trkpt>
      <trkpt lat="48.9513" lon="1.88088">
        <ele>121.4</ele>
        <time>2022-06-30T09:35:40Z</time>
      </trkpt>
      <trkpt lat="48.95128" lon="1.88106">
        <ele>121.47</ele>
        <time>2022-06-30T09:35:53Z</time>
      </trkpt>
      <trkpt lat="48.95125" lon="1.88122">
        <ele>122.23</ele>
        <time>2022-06-30T09:36:13Z</time>
      </trkpt>
      <trkpt lat="48.95124" lon="1.88137">
        <ele>122.18</ele>
        <time>2022-06-30T09:36:32Z</time>
      </trkpt>
      <trkpt lat="48.95124" lon="1.88147">
        <ele>123.12</ele>
        <time>2022-06-30T09:36:39Z</time>
      </trkpt>
      <trkpt lat="48.9512" lon="1.88161">
        <ele>124.31</ele>
        <time>2022-06-30T09:36:53Z</time>
      </trkpt>
      <trkpt lat="48.95115" lon="1.88169">
        <ele>125.27</ele>
        <time>2022-06-30T09:37:05Z</time>
      </trkpt>
      <trkpt lat="48.95106" lon="1.88182">
        <ele>126.63</ele>
        <time>2022-06-30T09:37:20Z</time>
      </trkpt>
      <trkpt lat="48.95096" lon="1.88194">
        <ele>127.83</ele>
        <time>2022-06-30T09:37:33Z</time>
      </trkpt>
      <trkpt lat="48.95086" lon="1.88211">
        <ele>129.62</ele>
        <time>2022-06-30T09:37:48Z</time>
      </trkpt>
      <trkpt lat="48.95077" lon="1.88229">
        <ele>130.41</ele>
        <time>2022-06-30T09:38:00Z</time>
      </trkpt>
      <trkpt lat="48.95067" lon="1.88247">
        <ele>131.63</ele>
        <time>2022-06-30T09:38:15Z</time>
      </trkpt>
      <trkpt lat="48.95054" lon="1.88266">
        <ele>133.73</ele>
        <time>2022-06-30T09:38:32Z</time>
      </trkpt>
      <trkpt lat="48.9504" lon="1.88283">
        <ele>135.16</ele>
        <time>2022-06-30T09:38:49Z</time>
      </trkpt>
      <trkpt lat="48.95023" lon="1.883">
        <ele>136.15</ele>
        <time>2022-06-30T09:39:09Z</time>
      </trkpt>
      <trkpt lat="48.95016" lon="1.88304">
        <ele>137.05</ele>
        <time>2022-06-30T09:39:14Z</time>
      </trkpt>
      <trkpt lat="48.95006" lon="1.88306">
        <ele>137.73</ele>
        <time>2022-06-30T09:39:25Z</time>
      </trkpt>
      <trkpt lat="48.94995" lon="1.88308">
        <ele>138.62</ele>
        <time>2022-06-30T09:39:39Z</time>
      </trkpt>
      <trkpt lat="48.94989" lon="1.88307">
        <ele>138.16</ele>
        <time>2022-06-30T09:39:56Z</time>
      </trkpt>
      <trkpt lat="48.94984" lon="1.8831">
        <ele>138.4</ele>
        <time>2022-06-30T09:40:20Z</time>
      </trkpt>
      <trkpt lat="48.9498" lon="1.88312">
        <ele>138.35</ele>
        <time>2022-06-30T09:40:35Z</time>
      </trkpt>
      <trkpt lat="48.94977" lon="1.88313">
        <ele>138.57</ele>
        <time>2022-06-30T09:40:38Z</time>
      </trkpt>
      <trkpt lat="48.94969" lon="1.88312">
        <ele>139.38</ele>
        <time>2022-06-30T09:40:45Z</time>
      </trkpt>
      <trkpt lat="48.94963" lon="1.88309">
        <ele>139.71</ele>
        <time>2022-06-30T09:40:59Z</time>
      </trkpt>
      <trkpt lat="48.94962" lon="1.88306">
        <ele>140.02</ele>
        <time>2022-06-30T09:41:15Z</time>
      </trkpt>
      <trkpt lat="48.94961" lon="1.88304">
        <ele>139.83</ele>
        <time>2022-06-30T09:41:34Z</time>
      </trkpt>
      <trkpt lat="48.94959" lon="1.88305">
        <ele>139.97</ele>
        <time>2022-06-30T09:41:49Z</time>
      </trkpt>
      <trkpt lat="48.94962" lon="1.88308">
        <ele>140.4</ele>
        <time>2022-06-30T09:42:09Z</time>
      </trkpt>
      <trkpt lat="48.94963" lon="1.88304">
        <ele>139.46</ele>
        <time>2022-06-30T09:42:27Z</time>
      </trkpt>
      <trkpt lat="48.94961" lon="1.8831">
        <ele>139.49</ele>
        <time>2022-06-30T09:42:44Z</time>
      </trkpt>
      <trkpt lat="48.94956" lon="1.88308">
        <ele>140.48</ele>
        <time>2022-06-30T09:43:01Z</time>
      </trkpt>
      <trkpt lat="48.94945" lon="1.88301">
        <ele>141.05</ele>
        <time>2022-06-30T09:43:15Z</time>
      </trkpt>
      <trkpt lat="48.94933" lon="1.88294">
        <ele>142.64</ele>
        <time>2022-06-30T09:43:30Z</time>
      </trkpt>
      <trkpt lat="48.94923" lon="1.88291">
        <ele>144.15</ele>
        <time>2022-06-30T09:43:45Z</time>
      </trkpt>
      <trkpt lat="48.94916" lon="1.88289">
        <ele>145.3</ele>
        <time>2022-06-30T09:43:59Z</time>
      </trkpt>
      <trkpt lat="48.94917" lon="1.88291">
        <ele>144.68</ele>
        <time>2022-06-30T09:44:18Z</time>
      </trkpt>
      <trkpt lat="48.94913" lon="1.88293">
        <ele>145.17</ele>
        <time>2022-06-30T09:44:38Z</time>
      </trkpt>
      <trkpt lat="48.94912" lon="1.88292">
        <ele>145.41</ele>
        <time>2022-06-30T09:44:54Z</time>
      </trkpt>
      <trkpt lat="48.94913" lon="1.8829">
        <ele>145.61</ele>
        <time>2022-06-30T09:45:06Z</time>
      </trkpt>
      <trkpt lat="48.94907" lon="1.88289">
        <ele>146.26</ele>
        <time>2022-06-30T09:45:23Z</time>
      </trkpt>
      <trkpt lat="48.949" lon="1.88287">
        <ele>146.41</ele>
        <time>2022-06-30T09:45:31Z</time>
      </trkpt>
      <trkpt lat="48.94891" lon="1.8828">
        <ele>148.08</ele>
        <time>2022-06-30T09:45:40Z</time>
      </trkpt>
      <trkpt lat="48.94881" lon="1.88274">
        <ele>148.28</ele>
        <time>2022-06-30T09:45:51Z</time>
      </trkpt>
      <trkpt lat="48.94868" lon="1.88268">
        <ele>149.76</ele>
        <time>2022-06-30T09:46:08Z</time>
      </trkpt>
      <trkpt lat="48.94854" lon="1.8827">
        <ele>151.97</ele>
        <time>2022-06-30T09:46:25Z</time>
      </trkpt>
      <trkpt lat="48.94842" lon="1.88271">
        <ele>153.19</ele>
        <time>2022-06-30T09:46:37Z</time>
      </trkpt>
      <trkpt lat="48.94821" lon="1.88272">
        <ele>153.96</ele>
        <time>2022-06-30T09:46:56Z</time>
      </trkpt>
      <trkpt lat="48.94802" lon="1.88275">
        <ele>153.71</ele>
        <time>2022-06-30T09:47:14Z</time>
      </trkpt>
      <trkpt lat="48.94784" lon="1.88281">
        <ele>155.99</ele>
        <time>2022-06-30T09:47:31Z</time>
      </trkpt>
      <trkpt lat="48.94764" lon="1.88286">
        <ele>156.28</ele>
        <time>2022-06-30T09:47:48Z</time>
      </trkpt>
      <trkpt lat="48.94746" lon="1.8829">
        <ele>157.28</ele>
        <time>2022-06-30T09:48:06Z</time>
      </trkpt>
      <trkpt lat="48.94731" lon="1.88297">
        <ele>158.9</ele>
        <time>2022-06-30T09:48:22Z</time>
      </trkpt>
      <trkpt lat="48.94709" lon="1.88305">
        <ele>159.68</ele>
        <time>2022-06-30T09:48:41Z</time>
      </trkpt>
      <trkpt lat="48.94689" lon="1.88306">
        <ele>159.89</ele>
        <time>2022-06-30T09:48:58Z</time>
      </trkpt>
      <trkpt lat="48.94679" lon="1.88307">
        <ele>160.4</ele>
        <time>2022-06-30T09:49:09Z</time>
      </trkpt>
      <trkpt lat="48.94663" lon="1.88311">
        <ele>160.46</ele>
        <time>2022-06-30T09:49:25Z</time>
      </trkpt>
      <trkpt lat="48.94655" lon="1.88314">
        <ele>160.64</ele>
        <time>2022-06-30T09:49:44Z</time>
      </trkpt>
      <trkpt lat="48.94654" lon="1.88325">
        <ele>160.05</ele>
        <time>2022-06-30T09:50:05Z</time>
      </trkpt>
      <trkpt lat="48.9465" lon="1.88324">
        <ele>159.58</ele>
        <time>2022-06-30T09:50:27Z</time>
      </trkpt>
      <trkpt lat="48.94647" lon="1.88312">
        <ele>159.23</ele>
        <time>2022-06-30T09:50:49Z</time>
      </trkpt>
      <trkpt lat="48.94652" lon="1.88316">
        <ele>159.45</ele>
        <time>2022-06-30T09:51:13Z</time>
      </trkpt>
      <trkpt lat="48.94651" lon="1.88316">
        <ele>160.42</ele>
        <time>2022-06-30T09:51:33Z</time>
      </trkpt>
      <trkpt lat="48.94651" lon="1.88317">
        <ele>160.2</ele>
        <time>2022-06-30T09:51:56Z</time>
      </trkpt>
      <trkpt lat="48.9465" lon="1.88313">
        <ele>160.1</ele>
        <time>2022-06-30T09:52:21Z</time>
      </trkpt>
      <trkpt lat="48.94645" lon="1.88322">
        <ele>160.36</ele>
        <time>2022-06-30T09:52:37Z</time>
      </trkpt>
      <trkpt lat="48.94634" lon="1.88329">
        <ele>161.28</ele>
        <time>2022-06-30T09:52:56Z</time>
      </trkpt>
      <trkpt lat="48.94623" lon="1.88335">
        <ele>161.86</ele>
        <time>2022-06-30T09:53:12Z</time>
      </trkpt>
      <trkpt lat="48.94607" lon="1.8834">
        <ele>161.94</ele>
        <time>2022-06-30T09:53:27Z</time>
      </trkpt>
      <trkpt lat="48.94596" lon="1.88338">
        <ele>163.08</ele>
        <time>2022-06-30T09:53:42Z</time>
      </trkpt>
      <trkpt lat="48.94582" lon="1.88339">
        <ele>163.56</ele>
        <time>2022-06-30T09:53:59Z</time>
      </trkpt>
      <trkpt lat="48.94567" lon="1.88341">
        <ele>163.6</ele>
        <time>2022-06-30T09:54:13Z</time>
      </trkpt>
      <trkpt lat="48.94552" lon="1.88345">
        <ele>163.64</ele>
        <time>2022-06-30T09:54:28Z</time>
      </trkpt>
      <trkpt lat="48.94536" lon="1.88347">
        <ele>163.96</ele>
        <time>2022-06-30T09:54:43Z</time>
      </trkpt>
      <trkpt lat="48.94519" lon="1.88351">
        <ele>163.93</ele>
        <time>2022-06-30T09:54:59Z</time>
      </trkpt>
      <trkpt lat="48.94506" lon="1.88356">
        <ele>163.8</ele>
        <time>2022-06-30T09:55:15Z</time>
      </trkpt>
      <trkpt lat="48.94488" lon="1.88363">
        <ele>164.81</ele>
        <time>2022-06-30T09:55:31Z</time>
      </trkpt>
      <trkpt lat="48.94477" lon="1.88367">
        <ele>164.51</ele>
        <time>2022-06-30T09:55:45Z</time>
      </trkpt>
      <trkpt lat="48.94457" lon="1.88369">
        <ele>164.86</ele>
        <time>2022-06-30T09:56:00Z</time>
      </trkpt>
      <trkpt lat="48.94443" lon="1.88372">
        <ele>164.56</ele>
        <time>2022-06-30T09:56:13Z</time>
      </trkpt>
      <trkpt lat="48.9443" lon="1.88375">
        <ele>164.94</ele>
        <time>2022-06-30T09:56:28Z</time>
      </trkpt>
      <trkpt lat="48.94415" lon="1.88378">
        <ele>164.89</ele>
        <time>2022-06-30T09:56:43Z</time>
      </trkpt>
      <trkpt lat="48.94396" lon="1.88384">
        <ele>165.04</ele>
        <time>2022-06-30T09:57:01Z</time>
      </trkpt>
      <trkpt lat="48.94378" lon="1.8839">
        <ele>165.76</ele>
        <time>2022-06-30T09:57:19Z</time>
      </trkpt>
      <trkpt lat="48.9437" lon="1.88392">
        <ele>165.19</ele>
        <time>2022-06-30T09:57:27Z</time>
      </trkpt>
      <trkpt lat="48.94354" lon="1.88394">
        <ele>165.06</ele>
        <time>2022-06-30T09:57:43Z</time>
      </trkpt>
      <trkpt lat="48.94338" lon="1.88404">
        <ele>164.72</ele>
        <time>2022-06-30T09:58:01Z</time>
      </trkpt>
      <trkpt lat="48.94322" lon="1.88409">
        <ele>165.09</ele>
        <time>2022-06-30T09:58:17Z</time>
      </trkpt>
      <trkpt lat="48.943" lon="1.88412">
        <ele>164.65</ele>
        <time>2022-06-30T09:58:35Z</time>
      </trkpt>
      <trkpt lat="48.94283" lon="1.88419">
        <ele>165.59</ele>
        <time>2022-06-30T09:58:52Z</time>
      </trkpt>
      <trkpt lat="48.94264" lon="1.88422">
        <ele>165.78</ele>
        <time>2022-06-30T09:59:08Z</time>
      </trkpt>
      <trkpt lat="48.94243" lon="1.88426">
        <ele>165</ele>
        <time>2022-06-30T09:59:27Z</time>
      </trkpt>
      <trkpt lat="48.94227" lon="1.88431">
        <ele>165.36</ele>
        <time>2022-06-30T09:59:40Z</time>
      </trkpt>
      <trkpt lat="48.94206" lon="1.88439">
        <ele>165.11</ele>
        <time>2022-06-30T09:59:58Z</time>
      </trkpt>
      <trkpt lat="48.94194" lon="1.88442">
        <ele>165.52</ele>
        <time>2022-06-30T10:00:15Z</time>
      </trkpt>
      <trkpt lat="48.94175" lon="1.88449">
        <ele>165.98</ele>
        <time>2022-06-30T10:00:33Z</time>
      </trkpt>
      <trkpt lat="48.94156" lon="1.88453">
        <ele>165.9</ele>
        <time>2022-06-30T10:00:49Z</time>
      </trkpt>
      <trkpt lat="48.94139" lon="1.88457">
        <ele>165.83</ele>
        <time>2022-06-30T10:01:06Z</time>
      </trkpt>
      <trkpt lat="48.94123" lon="1.88458">
        <ele>166.14</ele>
        <time>2022-06-30T10:01:21Z</time>
      </trkpt>
      <trkpt lat="48.94111" lon="1.8846">
        <ele>165.41</ele>
        <time>2022-06-30T10:01:35Z</time>
      </trkpt>
      <trkpt lat="48.94093" lon="1.88465">
        <ele>166.08</ele>
        <time>2022-06-30T10:01:52Z</time>
      </trkpt>
      <trkpt lat="48.94073" lon="1.88472">
        <ele>166.05</ele>
        <time>2022-06-30T10:02:09Z</time>
      </trkpt>
      <trkpt lat="48.94067" lon="1.88481">
        <ele>165.75</ele>
        <time>2022-06-30T10:02:23Z</time>
      </trkpt>
      <trkpt lat="48.94067" lon="1.88481">
        <ele>166.02</ele>
        <time>2022-06-30T10:02:35Z</time>
      </trkpt>
      <trkpt lat="48.94059" lon="1.88479">
        <ele>165.91</ele>
        <time>2022-06-30T10:02:46Z</time>
      </trkpt>
      <trkpt lat="48.94054" lon="1.88482">
        <ele>165.52</ele>
        <time>2022-06-30T10:03:13Z</time>
      </trkpt>
      <trkpt lat="48.9405" lon="1.88504">
        <ele>166.22</ele>
        <time>2022-06-30T10:03:31Z</time>
      </trkpt>
      <trkpt lat="48.94048" lon="1.88518">
        <ele>165.35</ele>
        <time>2022-06-30T10:03:44Z</time>
      </trkpt>
      <trkpt lat="48.94047" lon="1.88521">
        <ele>165.71</ele>
        <time>2022-06-30T10:03:46Z</time>
      </trkpt>
      <trkpt lat="48.94046" lon="1.88544">
        <ele>165.59</ele>
        <time>2022-06-30T10:04:05Z</time>
      </trkpt>
      <trkpt lat="48.94041" lon="1.8856">
        <ele>165.46</ele>
        <time>2022-06-30T10:04:20Z</time>
      </trkpt>
      <trkpt lat="48.94036" lon="1.88583">
        <ele>164.9</ele>
        <time>2022-06-30T10:04:38Z</time>
      </trkpt>
      <trkpt lat="48.94032" lon="1.88603">
        <ele>165.05</ele>
        <time>2022-06-30T10:04:55Z</time>
      </trkpt>
      <trkpt lat="48.94026" lon="1.88626">
        <ele>165.27</ele>
        <time>2022-06-30T10:05:06Z</time>
      </trkpt>
      <trkpt lat="48.9402" lon="1.88643">
        <ele>165.24</ele>
        <time>2022-06-30T10:05:22Z</time>
      </trkpt>
      <trkpt lat="48.94019" lon="1.88663">
        <ele>165.2</ele>
        <time>2022-06-30T10:05:37Z</time>
      </trkpt>
      <trkpt lat="48.9401" lon="1.88689">
        <ele>164.6</ele>
        <time>2022-06-30T10:05:55Z</time>
      </trkpt>
      <trkpt lat="48.94006" lon="1.88711">
        <ele>164.06</ele>
        <time>2022-06-30T10:06:10Z</time>
      </trkpt>
      <trkpt lat="48.94" lon="1.88739">
        <ele>164.03</ele>
        <time>2022-06-30T10:06:28Z</time>
      </trkpt>
      <trkpt lat="48.93996" lon="1.8875">
        <ele>164.98</ele>
        <time>2022-06-30T10:06:35Z</time>
      </trkpt>
      <trkpt lat="48.93995" lon="1.88755">
        <ele>164.32</ele>
        <time>2022-06-30T10:06:38Z</time>
      </trkpt>
      <trkpt lat="48.93994" lon="1.88761">
        <ele>164.77</ele>
        <time>2022-06-30T10:06:42Z</time>
      </trkpt>
      <trkpt lat="48.93989" lon="1.88789">
        <ele>164.06</ele>
        <time>2022-06-30T10:06:58Z</time>
      </trkpt>
      <trkpt lat="48.93984" lon="1.88809">
        <ele>164.13</ele>
        <time>2022-06-30T10:07:15Z</time>
      </trkpt>
      <trkpt lat="48.93984" lon="1.88812">
        <ele>163.78</ele>
        <time>2022-06-30T10:07:18Z</time>
      </trkpt>
      <trkpt lat="48.93982" lon="1.88833">
        <ele>162.8</ele>
        <time>2022-06-30T10:07:36Z</time>
      </trkpt>
      <trkpt lat="48.93976" lon="1.88856">
        <ele>162.8</ele>
        <time>2022-06-30T10:07:53Z</time>
      </trkpt>
      <trkpt lat="48.93968" lon="1.88884">
        <ele>163.51</ele>
        <time>2022-06-30T10:08:09Z</time>
      </trkpt>
      <trkpt lat="48.9396" lon="1.88904">
        <ele>162.72</ele>
        <time>2022-06-30T10:08:21Z</time>
      </trkpt>
      <trkpt lat="48.93946" lon="1.8891">
        <ele>162.75</ele>
        <time>2022-06-30T10:08:37Z</time>
      </trkpt>
      <trkpt lat="48.93938" lon="1.88909">
        <ele>162.14</ele>
        <time>2022-06-30T10:08:53Z</time>
      </trkpt>
      <trkpt lat="48.93921" lon="1.88906">
        <ele>162.01</ele>
        <time>2022-06-30T10:09:08Z</time>
      </trkpt>
      <trkpt lat="48.93903" lon="1.88901">
        <ele>162.21</ele>
        <time>2022-06-30T10:09:24Z</time>
      </trkpt>
      <trkpt lat="48.93883" lon="1.88891">
        <ele>162.24</ele>
        <time>2022-06-30T10:09:42Z</time>
      </trkpt>
      <trkpt lat="48.93865" lon="1.88875">
        <ele>162.02</ele>
        <time>2022-06-30T10:09:57Z</time>
      </trkpt>
      <trkpt lat="48.93849" lon="1.88868">
        <ele>161.89</ele>
        <time>2022-06-30T10:10:13Z</time>
      </trkpt>
      <trkpt lat="48.93835" lon="1.88851">
        <ele>162.74</ele>
        <time>2022-06-30T10:10:30Z</time>
      </trkpt>
      <trkpt lat="48.93824" lon="1.88842">
        <ele>162.69</ele>
        <time>2022-06-30T10:10:46Z</time>
      </trkpt>
      <trkpt lat="48.93811" lon="1.88837">
        <ele>162.84</ele>
        <time>2022-06-30T10:11:01Z</time>
      </trkpt>
      <trkpt lat="48.93795" lon="1.88832">
        <ele>163.29</ele>
        <time>2022-06-30T10:11:16Z</time>
      </trkpt>
      <trkpt lat="48.93777" lon="1.88814">
        <ele>163.08</ele>
        <time>2022-06-30T10:11:34Z</time>
      </trkpt>
      <trkpt lat="48.9376" lon="1.88801">
        <ele>163.63</ele>
        <time>2022-06-30T10:11:50Z</time>
      </trkpt>
      <trkpt lat="48.93744" lon="1.88786">
        <ele>163.93</ele>
        <time>2022-06-30T10:12:07Z</time>
      </trkpt>
      <trkpt lat="48.93732" lon="1.88773">
        <ele>164.73</ele>
        <time>2022-06-30T10:12:22Z</time>
      </trkpt>
      <trkpt lat="48.93724" lon="1.88772">
        <ele>164.66</ele>
        <time>2022-06-30T10:12:39Z</time>
      </trkpt>
      <trkpt lat="48.93716" lon="1.8876">
        <ele>164.99</ele>
        <time>2022-06-30T10:12:54Z</time>
      </trkpt>
      <trkpt lat="48.93704" lon="1.88748">
        <ele>164.67</ele>
        <time>2022-06-30T10:13:10Z</time>
      </trkpt>
      <trkpt lat="48.93687" lon="1.88737">
        <ele>164.24</ele>
        <time>2022-06-30T10:13:27Z</time>
      </trkpt>
      <trkpt lat="48.93672" lon="1.88727">
        <ele>164.2</ele>
        <time>2022-06-30T10:13:43Z</time>
      </trkpt>
      <trkpt lat="48.93659" lon="1.88707">
        <ele>164.42</ele>
        <time>2022-06-30T10:14:00Z</time>
      </trkpt>
      <trkpt lat="48.93656" lon="1.88705">
        <ele>164.53</ele>
        <time>2022-06-30T10:14:05Z</time>
      </trkpt>
      <trkpt lat="48.9365" lon="1.88703">
        <ele>164.6</ele>
        <time>2022-06-30T10:14:12Z</time>
      </trkpt>
      <trkpt lat="48.93643" lon="1.88692">
        <ele>164.41</ele>
        <time>2022-06-30T10:14:18Z</time>
      </trkpt>
      <trkpt lat="48.93632" lon="1.88688">
        <ele>164.54</ele>
        <time>2022-06-30T10:14:36Z</time>
      </trkpt>
      <trkpt lat="48.93621" lon="1.88681">
        <ele>164.27</ele>
        <time>2022-06-30T10:14:52Z</time>
      </trkpt>
      <trkpt lat="48.936" lon="1.88668">
        <ele>164.85</ele>
        <time>2022-06-30T10:15:10Z</time>
      </trkpt>
      <trkpt lat="48.93583" lon="1.88652">
        <ele>164.94</ele>
        <time>2022-06-30T10:15:26Z</time>
      </trkpt>
      <trkpt lat="48.93578" lon="1.88648">
        <ele>164.94</ele>
        <time>2022-06-30T10:15:32Z</time>
      </trkpt>
      <trkpt lat="48.9356" lon="1.88632">
        <ele>164.72</ele>
        <time>2022-06-30T10:15:50Z</time>
      </trkpt>
      <trkpt lat="48.93543" lon="1.88621">
        <ele>164.65</ele>
        <time>2022-06-30T10:16:05Z</time>
      </trkpt>
      <trkpt lat="48.93537" lon="1.88617">
        <ele>164.59</ele>
        <time>2022-06-30T10:16:13Z</time>
      </trkpt>
      <trkpt lat="48.93522" lon="1.88608">
        <ele>164.77</ele>
        <time>2022-06-30T10:16:30Z</time>
      </trkpt>
      <trkpt lat="48.93521" lon="1.88607">
        <ele>164.62</ele>
        <time>2022-06-30T10:16:31Z</time>
      </trkpt>
      <trkpt lat="48.93512" lon="1.88602">
        <ele>164.63</ele>
        <time>2022-06-30T10:16:43Z</time>
      </trkpt>
      <trkpt lat="48.93504" lon="1.88597">
        <ele>164.57</ele>
        <time>2022-06-30T10:16:55Z</time>
      </trkpt>
      <trkpt lat="48.935" lon="1.88592">
        <ele>164.79</ele>
        <time>2022-06-30T10:17:01Z</time>
      </trkpt>
      <trkpt lat="48.93494" lon="1.88585">
        <ele>164.61</ele>
        <time>2022-06-30T10:17:10Z</time>
      </trkpt>
      <trkpt lat="48.93486" lon="1.88583">
        <ele>164.83</ele>
        <time>2022-06-30T10:17:17Z</time>
      </trkpt>
      <trkpt lat="48.9348" lon="1.88579">
        <ele>164.88</ele>
        <time>2022-06-30T10:17:35Z</time>
      </trkpt>
      <trkpt lat="48.9348" lon="1.88574">
        <ele>164.04</ele>
        <time>2022-06-30T10:17:46Z</time>
      </trkpt>
      <trkpt lat="48.93483" lon="1.88558">
        <ele>164.19</ele>
        <time>2022-06-30T10:18:04Z</time>
      </trkpt>
      <trkpt lat="48.93483" lon="1.88558">
        <ele>164.97</ele>
        <time>2022-06-30T10:18:05Z</time>
      </trkpt>
      <trkpt lat="48.93488" lon="1.88546">
        <ele>164.86</ele>
        <time>2022-06-30T10:18:23Z</time>
      </trkpt>
      <trkpt lat="48.9349" lon="1.88539">
        <ele>165.66</ele>
        <time>2022-06-30T10:18:34Z</time>
      </trkpt>
      <trkpt lat="48.93494" lon="1.88538">
        <ele>165.47</ele>
        <time>2022-06-30T10:18:37Z</time>
      </trkpt>
      <trkpt lat="48.93499" lon="1.88523">
        <ele>165.23</ele>
        <time>2022-06-30T10:18:53Z</time>
      </trkpt>
      <trkpt lat="48.93501" lon="1.88514">
        <ele>165.31</ele>
        <time>2022-06-30T10:19:06Z</time>
      </trkpt>
      <trkpt lat="48.93505" lon="1.88516">
        <ele>165.48</ele>
        <time>2022-06-30T10:19:26Z</time>
      </trkpt>
      <trkpt lat="48.93506" lon="1.88506">
        <ele>165.57</ele>
        <time>2022-06-30T10:19:47Z</time>
      </trkpt>
      <trkpt lat="48.9351" lon="1.88501">
        <ele>165.15</ele>
        <time>2022-06-30T10:20:10Z</time>
      </trkpt>
      <trkpt lat="48.93508" lon="1.88503">
        <ele>165.61</ele>
        <time>2022-06-30T10:20:31Z</time>
      </trkpt>
      <trkpt lat="48.93508" lon="1.88501">
        <ele>164.9</ele>
        <time>2022-06-30T10:20:52Z</time>
      </trkpt>
      <trkpt lat="48.9351" lon="1.8849">
        <ele>165.7</ele>
        <time>2022-06-30T10:21:05Z</time>
      </trkpt>
      <trkpt lat="48.93516" lon="1.88473">
        <ele>166.17</ele>
        <time>2022-06-30T10:21:24Z</time>
      </trkpt>
      <trkpt lat="48.93526" lon="1.88444">
        <ele>165.44</ele>
        <time>2022-06-30T10:21:42Z</time>
      </trkpt>
      <trkpt lat="48.93533" lon="1.88423">
        <ele>165.05</ele>
        <time>2022-06-30T10:21:57Z</time>
      </trkpt>
      <trkpt lat="48.93535" lon="1.88418">
        <ele>165.59</ele>
        <time>2022-06-30T10:22:05Z</time>
      </trkpt>
      <trkpt lat="48.93538" lon="1.88398">
        <ele>164.93</ele>
        <time>2022-06-30T10:22:18Z</time>
      </trkpt>
      <trkpt lat="48.93547" lon="1.88368">
        <ele>165.01</ele>
        <time>2022-06-30T10:22:32Z</time>
      </trkpt>
      <trkpt lat="48.93549" lon="1.88359">
        <ele>164.52</ele>
        <time>2022-06-30T10:22:37Z</time>
      </trkpt>
      <trkpt lat="48.9355" lon="1.88352">
        <ele>164.43</ele>
        <time>2022-06-30T10:22:41Z</time>
      </trkpt>
      <trkpt lat="48.93554" lon="1.88331">
        <ele>164.36</ele>
        <time>2022-06-30T10:22:55Z</time>
      </trkpt>
      <trkpt lat="48.93556" lon="1.88319">
        <ele>163.81</ele>
        <time>2022-06-30T10:23:03Z</time>
      </trkpt>
      <trkpt lat="48.93567" lon="1.88295">
        <ele>163.87</ele>
        <time>2022-06-30T10:23:22Z</time>
      </trkpt>
      <trkpt lat="48.93573" lon="1.88266">
        <ele>163.79</ele>
        <time>2022-06-30T10:23:37Z</time>
      </trkpt>
      <trkpt lat="48.9358" lon="1.8824">
        <ele>162.99</ele>
        <time>2022-06-30T10:23:54Z</time>
      </trkpt>
      <trkpt lat="48.9358" lon="1.88228">
        <ele>164.1</ele>
        <time>2022-06-30T10:24:00Z</time>
      </trkpt>
      <trkpt lat="48.9359" lon="1.88205">
        <ele>164.02</ele>
        <time>2022-06-30T10:24:15Z</time>
      </trkpt>
      <trkpt lat="48.93595" lon="1.88178">
        <ele>163.52</ele>
        <time>2022-06-30T10:24:30Z</time>
      </trkpt>
      <trkpt lat="48.93597" lon="1.88172">
        <ele>163.58</ele>
        <time>2022-06-30T10:24:36Z</time>
      </trkpt>
      <trkpt lat="48.93602" lon="1.88139">
        <ele>164.02</ele>
        <time>2022-06-30T10:24:53Z</time>
      </trkpt>
      <trkpt lat="48.93606" lon="1.88118">
        <ele>163.94</ele>
        <time>2022-06-30T10:25:08Z</time>
      </trkpt>
      <trkpt lat="48.93612" lon="1.88093">
        <ele>164.53</ele>
        <time>2022-06-30T10:25:23Z</time>
      </trkpt>
      <trkpt lat="48.93613" lon="1.88071">
        <ele>165.19</ele>
        <time>2022-06-30T10:25:38Z</time>
      </trkpt>
      <trkpt lat="48.93619" lon="1.88051">
        <ele>165.79</ele>
        <time>2022-06-30T10:25:52Z</time>
      </trkpt>
      <trkpt lat="48.93626" lon="1.8803">
        <ele>166</ele>
        <time>2022-06-30T10:26:06Z</time>
      </trkpt>
      <trkpt lat="48.9363" lon="1.88008">
        <ele>165.8</ele>
        <time>2022-06-30T10:26:19Z</time>
      </trkpt>
      <trkpt lat="48.93636" lon="1.87989">
        <ele>166.32</ele>
        <time>2022-06-30T10:26:34Z</time>
      </trkpt>
      <trkpt lat="48.93643" lon="1.87963">
        <ele>166.49</ele>
        <time>2022-06-30T10:26:49Z</time>
      </trkpt>
      <trkpt lat="48.9365" lon="1.87941">
        <ele>165.94</ele>
        <time>2022-06-30T10:27:04Z</time>
      </trkpt>
      <trkpt lat="48.93659" lon="1.87912">
        <ele>165.23</ele>
        <time>2022-06-30T10:27:20Z</time>
      </trkpt>
      <trkpt lat="48.93667" lon="1.87894">
        <ele>165.75</ele>
        <time>2022-06-30T10:27:36Z</time>
      </trkpt>
      <trkpt lat="48.93671" lon="1.87871">
        <ele>165.29</ele>
        <time>2022-06-30T10:27:51Z</time>
      </trkpt>
      <trkpt lat="48.93675" lon="1.87852">
        <ele>165.39</ele>
        <time>2022-06-30T10:28:04Z</time>
      </trkpt>
      <trkpt lat="48.93684" lon="1.87828">
        <ele>164.77</ele>
        <time>2022-06-30T10:28:23Z</time>
      </trkpt>
      <trkpt lat="48.93691" lon="1.87799">
        <ele>164.47</ele>
        <time>2022-06-30T10:28:39Z</time>
      </trkpt>
      <trkpt lat="48.93696" lon="1.87779">
        <ele>164.69</ele>
        <time>2022-06-30T10:28:49Z</time>
      </trkpt>
      <trkpt lat="48.93696" lon="1.87778">
        <ele>164.39</ele>
        <time>2022-06-30T10:28:50Z</time>
      </trkpt>
      <trkpt lat="48.93701" lon="1.87753">
        <ele>164.36</ele>
        <time>2022-06-30T10:29:07Z</time>
      </trkpt>
      <trkpt lat="48.93705" lon="1.87742">
        <ele>165.06</ele>
        <time>2022-06-30T10:29:15Z</time>
      </trkpt>
      <trkpt lat="48.93707" lon="1.87739">
        <ele>164.76</ele>
        <time>2022-06-30T10:29:20Z</time>
      </trkpt>
      <trkpt lat="48.93702" lon="1.87719">
        <ele>164.1</ele>
        <time>2022-06-30T10:29:38Z</time>
      </trkpt>
      <trkpt lat="48.93696" lon="1.8771">
        <ele>164.06</ele>
        <time>2022-06-30T10:29:49Z</time>
      </trkpt>
      <trkpt lat="48.93687" lon="1.8769">
        <ele>163.3</ele>
        <time>2022-06-30T10:30:02Z</time>
      </trkpt>
      <trkpt lat="48.93686" lon="1.87688">
        <ele>162.81</ele>
        <time>2022-06-30T10:30:04Z</time>
      </trkpt>
      <trkpt lat="48.93671" lon="1.87656">
        <ele>162.48</ele>
        <time>2022-06-30T10:30:25Z</time>
      </trkpt>
      <trkpt lat="48.93665" lon="1.87643">
        <ele>161.86</ele>
        <time>2022-06-30T10:30:32Z</time>
      </trkpt>
      <trkpt lat="48.93657" lon="1.87636">
        <ele>160.65</ele>
        <time>2022-06-30T10:30:46Z</time>
      </trkpt>
      <trkpt lat="48.9365" lon="1.87623">
        <ele>159.08</ele>
        <time>2022-06-30T10:31:01Z</time>
      </trkpt>
      <trkpt lat="48.9365" lon="1.87621">
        <ele>158.43</ele>
        <time>2022-06-30T10:31:03Z</time>
      </trkpt>
      <trkpt lat="48.93647" lon="1.87615">
        <ele>157.98</ele>
        <time>2022-06-30T10:31:11Z</time>
      </trkpt>
      <trkpt lat="48.93643" lon="1.87607">
        <ele>156.51</ele>
        <time>2022-06-30T10:31:19Z</time>
      </trkpt>
      <trkpt lat="48.93642" lon="1.87604">
        <ele>156.83</ele>
        <time>2022-06-30T10:31:21Z</time>
      </trkpt>
      <trkpt lat="48.93638" lon="1.876">
        <ele>155.45</ele>
        <time>2022-06-30T10:31:27Z</time>
      </trkpt>
      <trkpt lat="48.93634" lon="1.87596">
        <ele>154.6</ele>
        <time>2022-06-30T10:31:32Z</time>
      </trkpt>
      <trkpt lat="48.93632" lon="1.87595">
        <ele>154.72</ele>
        <time>2022-06-30T10:31:34Z</time>
      </trkpt>
      <trkpt lat="48.93629" lon="1.87591">
        <ele>154.09</ele>
        <time>2022-06-30T10:31:38Z</time>
      </trkpt>
      <trkpt lat="48.93628" lon="1.87589">
        <ele>154.1</ele>
        <time>2022-06-30T10:31:40Z</time>
      </trkpt>
      <trkpt lat="48.93615" lon="1.87574">
        <ele>154.03</ele>
        <time>2022-06-30T10:31:53Z</time>
      </trkpt>
      <trkpt lat="48.936" lon="1.87559">
        <ele>151.56</ele>
        <time>2022-06-30T10:32:07Z</time>
      </trkpt>
      <trkpt lat="48.93597" lon="1.87555">
        <ele>151.01</ele>
        <time>2022-06-30T10:32:13Z</time>
      </trkpt>
      <trkpt lat="48.93595" lon="1.87553">
        <ele>150.94</ele>
        <time>2022-06-30T10:32:15Z</time>
      </trkpt>
      <trkpt lat="48.93589" lon="1.87546">
        <ele>149.8</ele>
        <time>2022-06-30T10:32:25Z</time>
      </trkpt>
      <trkpt lat="48.93585" lon="1.8754">
        <ele>149.21</ele>
        <time>2022-06-30T10:32:31Z</time>
      </trkpt>
      <trkpt lat="48.93582" lon="1.87537">
        <ele>149.06</ele>
        <time>2022-06-30T10:32:35Z</time>
      </trkpt>
      <trkpt lat="48.93575" lon="1.87529">
        <ele>147.95</ele>
        <time>2022-06-30T10:32:45Z</time>
      </trkpt>
      <trkpt lat="48.93569" lon="1.87519">
        <ele>146.98</ele>
        <time>2022-06-30T10:32:54Z</time>
      </trkpt>
      <trkpt lat="48.9356" lon="1.87499">
        <ele>144.65</ele>
        <time>2022-06-30T10:33:13Z</time>
      </trkpt>
      <trkpt lat="48.9356" lon="1.87498">
        <ele>144.4</ele>
        <time>2022-06-30T10:33:14Z</time>
      </trkpt>
      <trkpt lat="48.93555" lon="1.87489">
        <ele>143.71</ele>
        <time>2022-06-30T10:33:21Z</time>
      </trkpt>
      <trkpt lat="48.93551" lon="1.87484">
        <ele>143.08</ele>
        <time>2022-06-30T10:33:25Z</time>
      </trkpt>
      <trkpt lat="48.93548" lon="1.8748">
        <ele>142.43</ele>
        <time>2022-06-30T10:33:30Z</time>
      </trkpt>
      <trkpt lat="48.93539" lon="1.87464">
        <ele>141.16</ele>
        <time>2022-06-30T10:33:41Z</time>
      </trkpt>
      <trkpt lat="48.93539" lon="1.87461">
        <ele>140.47</ele>
        <time>2022-06-30T10:33:43Z</time>
      </trkpt>
      <trkpt lat="48.93537" lon="1.87456">
        <ele>139.99</ele>
        <time>2022-06-30T10:33:48Z</time>
      </trkpt>
      <trkpt lat="48.93535" lon="1.87451">
        <ele>139.37</ele>
        <time>2022-06-30T10:33:51Z</time>
      </trkpt>
      <trkpt lat="48.93532" lon="1.87439">
        <ele>138.23</ele>
        <time>2022-06-30T10:34:00Z</time>
      </trkpt>
      <trkpt lat="48.93535" lon="1.87419">
        <ele>136.53</ele>
        <time>2022-06-30T10:34:19Z</time>
      </trkpt>
      <trkpt lat="48.93538" lon="1.87403">
        <ele>135.22</ele>
        <time>2022-06-30T10:34:31Z</time>
      </trkpt>
      <trkpt lat="48.93538" lon="1.87389">
        <ele>133.39</ele>
        <time>2022-06-30T10:34:43Z</time>
      </trkpt>
      <trkpt lat="48.9354" lon="1.87361">
        <ele>131.8</ele>
        <time>2022-06-30T10:34:58Z</time>
      </trkpt>
      <trkpt lat="48.93538" lon="1.8734">
        <ele>131.51</ele>
        <time>2022-06-30T10:35:08Z</time>
      </trkpt>
      <trkpt lat="48.93538" lon="1.87327">
        <ele>131.02</ele>
        <time>2022-06-30T10:35:15Z</time>
      </trkpt>
      <trkpt lat="48.93538" lon="1.8732">
        <ele>130.21</ele>
        <time>2022-06-30T10:35:19Z</time>
      </trkpt>
      <trkpt lat="48.93538" lon="1.87317">
        <ele>129.44</ele>
        <time>2022-06-30T10:35:21Z</time>
      </trkpt>
      <trkpt lat="48.93539" lon="1.87298">
        <ele>128.98</ele>
        <time>2022-06-30T10:35:34Z</time>
      </trkpt>
      <trkpt lat="48.93535" lon="1.87273">
        <ele>126.44</ele>
        <time>2022-06-30T10:35:49Z</time>
      </trkpt>
      <trkpt lat="48.93535" lon="1.87266">
        <ele>125.33</ele>
        <time>2022-06-30T10:35:53Z</time>
      </trkpt>
      <trkpt lat="48.93537" lon="1.87258">
        <ele>125.21</ele>
        <time>2022-06-30T10:35:59Z</time>
      </trkpt>
      <trkpt lat="48.93538" lon="1.87256">
        <ele>125.1</ele>
        <time>2022-06-30T10:36:01Z</time>
      </trkpt>
      <trkpt lat="48.93541" lon="1.87248">
        <ele>123.99</ele>
        <time>2022-06-30T10:36:10Z</time>
      </trkpt>
      <trkpt lat="48.93544" lon="1.87229">
        <ele>121.43</ele>
        <time>2022-06-30T10:36:27Z</time>
      </trkpt>
      <trkpt lat="48.93544" lon="1.87227">
        <ele>121.26</ele>
        <time>2022-06-30T10:36:29Z</time>
      </trkpt>
      <trkpt lat="48.93545" lon="1.87213">
        <ele>120.13</ele>
        <time>2022-06-30T10:36:39Z</time>
      </trkpt>
      <trkpt lat="48.93545" lon="1.87203">
        <ele>119.58</ele>
        <time>2022-06-30T10:36:47Z</time>
      </trkpt>
      <trkpt lat="48.93546" lon="1.8719">
        <ele>119.35</ele>
        <time>2022-06-30T10:36:52Z</time>
      </trkpt>
      <trkpt lat="48.93549" lon="1.87174">
        <ele>118.74</ele>
        <time>2022-06-30T10:37:06Z</time>
      </trkpt>
      <trkpt lat="48.9355" lon="1.87166">
        <ele>118.91</ele>
        <time>2022-06-30T10:37:19Z</time>
      </trkpt>
      <trkpt lat="48.93559" lon="1.87151">
        <ele>117.65</ele>
        <time>2022-06-30T10:37:33Z</time>
      </trkpt>
      <trkpt lat="48.93569" lon="1.8714">
        <ele>116.44</ele>
        <time>2022-06-30T10:37:47Z</time>
      </trkpt>
      <trkpt lat="48.93582" lon="1.87132">
        <ele>115.72</ele>
        <time>2022-06-30T10:38:04Z</time>
      </trkpt>
      <trkpt lat="48.93596" lon="1.87122">
        <ele>114.15</ele>
        <time>2022-06-30T10:38:22Z</time>
      </trkpt>
      <trkpt lat="48.93597" lon="1.87114">
        <ele>113.58</ele>
        <time>2022-06-30T10:38:36Z</time>
      </trkpt>
      <trkpt lat="48.93597" lon="1.87111">
        <ele>113.21</ele>
        <time>2022-06-30T10:38:58Z</time>
      </trkpt>
      <trkpt lat="48.93592" lon="1.87097">
        <ele>112.53</ele>
        <time>2022-06-30T10:39:12Z</time>
      </trkpt>
      <trkpt lat="48.93587" lon="1.87084">
        <ele>111.65</ele>
        <time>2022-06-30T10:39:26Z</time>
      </trkpt>
      <trkpt lat="48.93584" lon="1.87068">
        <ele>111.06</ele>
        <time>2022-06-30T10:39:43Z</time>
      </trkpt>
      <trkpt lat="48.93587" lon="1.87064">
        <ele>111.32</ele>
        <time>2022-06-30T10:40:03Z</time>
      </trkpt>
      <trkpt lat="48.93579" lon="1.87051">
        <ele>110.47</ele>
        <time>2022-06-30T10:40:17Z</time>
      </trkpt>
      <trkpt lat="48.93569" lon="1.87035">
        <ele>109.29</ele>
        <time>2022-06-30T10:40:33Z</time>
      </trkpt>
      <trkpt lat="48.93557" lon="1.87016">
        <ele>108.32</ele>
        <time>2022-06-30T10:40:53Z</time>
      </trkpt>
      <trkpt lat="48.93555" lon="1.87009">
        <ele>108.29</ele>
        <time>2022-06-30T10:41:05Z</time>
      </trkpt>
      <trkpt lat="48.93554" lon="1.87008">
        <ele>107.69</ele>
        <time>2022-06-30T10:41:09Z</time>
      </trkpt>
      <trkpt lat="48.93544" lon="1.86999">
        <ele>107.31</ele>
        <time>2022-06-30T10:41:27Z</time>
      </trkpt>
      <trkpt lat="48.93538" lon="1.86989">
        <ele>106.84</ele>
        <time>2022-06-30T10:41:41Z</time>
      </trkpt>
      <trkpt lat="48.93538" lon="1.86985">
        <ele>105.97</ele>
        <time>2022-06-30T10:41:56Z</time>
      </trkpt>
      <trkpt lat="48.93535" lon="1.86986">
        <ele>106.04</ele>
        <time>2022-06-30T10:42:15Z</time>
      </trkpt>
      <trkpt lat="48.93534" lon="1.86979">
        <ele>105.63</ele>
        <time>2022-06-30T10:42:29Z</time>
      </trkpt>
      <trkpt lat="48.93537" lon="1.86979">
        <ele>105.59</ele>
        <time>2022-06-30T10:42:48Z</time>
      </trkpt>
      <trkpt lat="48.93536" lon="1.86975">
        <ele>106.19</ele>
        <time>2022-06-30T10:43:07Z</time>
      </trkpt>
      <trkpt lat="48.93536" lon="1.86975">
        <ele>106.24</ele>
        <time>2022-06-30T10:43:23Z</time>
      </trkpt>
      <trkpt lat="48.93533" lon="1.86977">
        <ele>106.3</ele>
        <time>2022-06-30T10:43:45Z</time>
      </trkpt>
      <trkpt lat="48.93525" lon="1.86969">
        <ele>104.9</ele>
        <time>2022-06-30T10:43:57Z</time>
      </trkpt>
      <trkpt lat="48.93519" lon="1.8696">
        <ele>103.69</ele>
        <time>2022-06-30T10:44:05Z</time>
      </trkpt>
      <trkpt lat="48.93509" lon="1.86939">
        <ele>102.11</ele>
        <time>2022-06-30T10:44:21Z</time>
      </trkpt>
      <trkpt lat="48.93503" lon="1.86922">
        <ele>101.13</ele>
        <time>2022-06-30T10:44:33Z</time>
      </trkpt>
      <trkpt lat="48.93498" lon="1.86901">
        <ele>99.34</ele>
        <time>2022-06-30T10:44:47Z</time>
      </trkpt>
      <trkpt lat="48.93496" lon="1.86894">
        <ele>98.79</ele>
        <time>2022-06-30T10:44:52Z</time>
      </trkpt>
      <trkpt lat="48.93495" lon="1.86886">
        <ele>98.22</ele>
        <time>2022-06-30T10:44:57Z</time>
      </trkpt>
      <trkpt lat="48.9349" lon="1.86868">
        <ele>97.59</ele>
        <time>2022-06-30T10:45:09Z</time>
      </trkpt>
      <trkpt lat="48.93488" lon="1.86861">
        <ele>97.37</ele>
        <time>2022-06-30T10:45:14Z</time>
      </trkpt>
      <trkpt lat="48.93483" lon="1.86852">
        <ele>96.84</ele>
        <time>2022-06-30T10:45:22Z</time>
      </trkpt>
      <trkpt lat="48.93475" lon="1.8684">
        <ele>96.74</ele>
        <time>2022-06-30T10:45:33Z</time>
      </trkpt>
      <trkpt lat="48.93465" lon="1.86838">
        <ele>96.53</ele>
        <time>2022-06-30T10:45:45Z</time>
      </trkpt>
      <trkpt lat="48.93464" lon="1.86838">
        <ele>96.35</ele>
        <time>2022-06-30T10:45:47Z</time>
      </trkpt>
      <trkpt lat="48.93455" lon="1.86831">
        <ele>96.08</ele>
        <time>2022-06-30T10:45:58Z</time>
      </trkpt>
      <trkpt lat="48.93453" lon="1.8683">
        <ele>96.02</ele>
        <time>2022-06-30T10:45:59Z</time>
      </trkpt>
      <trkpt lat="48.93441" lon="1.8682">
        <ele>95.74</ele>
        <time>2022-06-30T10:46:10Z</time>
      </trkpt>
      <trkpt lat="48.93432" lon="1.86814">
        <ele>95.13</ele>
        <time>2022-06-30T10:46:19Z</time>
      </trkpt>
      <trkpt lat="48.93427" lon="1.86809">
        <ele>95</ele>
        <time>2022-06-30T10:46:25Z</time>
      </trkpt>
      <trkpt lat="48.93416" lon="1.86805">
        <ele>95</ele>
        <time>2022-06-30T10:46:36Z</time>
      </trkpt>
      <trkpt lat="48.93404" lon="1.86804">
        <ele>94.11</ele>
        <time>2022-06-30T10:46:47Z</time>
      </trkpt>
      <trkpt lat="48.9339" lon="1.86806">
        <ele>94.29</ele>
        <time>2022-06-30T10:46:59Z</time>
      </trkpt>
      <trkpt lat="48.93379" lon="1.86813">
        <ele>93.93</ele>
        <time>2022-06-30T10:47:10Z</time>
      </trkpt>
      <trkpt lat="48.93371" lon="1.86819">
        <ele>93.87</ele>
        <time>2022-06-30T10:47:19Z</time>
      </trkpt>
      <trkpt lat="48.93369" lon="1.86823">
        <ele>93.44</ele>
        <time>2022-06-30T10:47:22Z</time>
      </trkpt>
      <trkpt lat="48.9336" lon="1.86837">
        <ele>93.63</ele>
        <time>2022-06-30T10:47:33Z</time>
      </trkpt>
      <trkpt lat="48.93354" lon="1.86836">
        <ele>93.67</ele>
        <time>2022-06-30T10:47:43Z</time>
      </trkpt>
      <trkpt lat="48.93351" lon="1.86835">
        <ele>93.45</ele>
        <time>2022-06-30T10:47:54Z</time>
      </trkpt>
      <trkpt lat="48.93354" lon="1.8682">
        <ele>92.52</ele>
        <time>2022-06-30T10:48:09Z</time>
      </trkpt>
      <trkpt lat="48.93354" lon="1.86819">
        <ele>92.34</ele>
        <time>2022-06-30T10:48:10Z</time>
      </trkpt>
      <trkpt lat="48.93357" lon="1.86811">
        <ele>92.07</ele>
        <time>2022-06-30T10:48:15Z</time>
      </trkpt>
      <trkpt lat="48.93364" lon="1.868">
        <ele>91.45</ele>
        <time>2022-06-30T10:48:25Z</time>
      </trkpt>
      <trkpt lat="48.93371" lon="1.86788">
        <ele>90.53</ele>
        <time>2022-06-30T10:48:39Z</time>
      </trkpt>
      <trkpt lat="48.93369" lon="1.86777">
        <ele>89.54</ele>
        <time>2022-06-30T10:48:52Z</time>
      </trkpt>
      <trkpt lat="48.93363" lon="1.86762">
        <ele>87.62</ele>
        <time>2022-06-30T10:49:04Z</time>
      </trkpt>
      <trkpt lat="48.93367" lon="1.86745">
        <ele>85.44</ele>
        <time>2022-06-30T10:49:19Z</time>
      </trkpt>
      <trkpt lat="48.93376" lon="1.86729">
        <ele>84.43</ele>
        <time>2022-06-30T10:49:34Z</time>
      </trkpt>
      <trkpt lat="48.93384" lon="1.86711">
        <ele>82.22</ele>
        <time>2022-06-30T10:49:48Z</time>
      </trkpt>
      <trkpt lat="48.93387" lon="1.86707">
        <ele>81.64</ele>
        <time>2022-06-30T10:49:51Z</time>
      </trkpt>
      <trkpt lat="48.93392" lon="1.86694">
        <ele>80.74</ele>
        <time>2022-06-30T10:50:01Z</time>
      </trkpt>
      <trkpt lat="48.934" lon="1.86681">
        <ele>79.25</ele>
        <time>2022-06-30T10:50:12Z</time>
      </trkpt>
      <trkpt lat="48.93402" lon="1.86676">
        <ele>79.16</ele>
        <time>2022-06-30T10:50:16Z</time>
      </trkpt>
      <trkpt lat="48.93409" lon="1.86663">
        <ele>78.1</ele>
        <time>2022-06-30T10:50:27Z</time>
      </trkpt>
      <trkpt lat="48.93414" lon="1.86655">
        <ele>77.99</ele>
        <time>2022-06-30T10:50:35Z</time>
      </trkpt>
      <trkpt lat="48.93414" lon="1.86654">
        <ele>77.95</ele>
        <time>2022-06-30T10:50:36Z</time>
      </trkpt>
      <trkpt lat="48.93421" lon="1.86638">
        <ele>77.55</ele>
        <time>2022-06-30T10:50:48Z</time>
      </trkpt>
      <trkpt lat="48.93427" lon="1.86624">
        <ele>76.8</ele>
        <time>2022-06-30T10:50:59Z</time>
      </trkpt>
      <trkpt lat="48.93428" lon="1.86621">
        <ele>77.13</ele>
        <time>2022-06-30T10:51:02Z</time>
      </trkpt>
      <trkpt lat="48.9343" lon="1.86613">
        <ele>76.01</ele>
        <time>2022-06-30T10:51:07Z</time>
      </trkpt>
      <trkpt lat="48.93431" lon="1.86607">
        <ele>76.12</ele>
        <time>2022-06-30T10:51:11Z</time>
      </trkpt>
      <trkpt lat="48.93435" lon="1.86588">
        <ele>76.14</ele>
        <time>2022-06-30T10:51:24Z</time>
      </trkpt>
      <trkpt lat="48.93437" lon="1.86581">
        <ele>75.7</ele>
        <time>2022-06-30T10:51:29Z</time>
      </trkpt>
      <trkpt lat="48.93437" lon="1.86576">
        <ele>75.42</ele>
        <time>2022-06-30T10:51:32Z</time>
      </trkpt>
      <trkpt lat="48.93441" lon="1.86565">
        <ele>75.68</ele>
        <time>2022-06-30T10:51:39Z</time>
      </trkpt>
      <trkpt lat="48.93441" lon="1.86562">
        <ele>75.98</ele>
        <time>2022-06-30T10:51:41Z</time>
      </trkpt>
      <trkpt lat="48.93444" lon="1.86556">
        <ele>75.45</ele>
        <time>2022-06-30T10:51:45Z</time>
      </trkpt>
      <trkpt lat="48.93447" lon="1.86546">
        <ele>74.26</ele>
        <time>2022-06-30T10:51:52Z</time>
      </trkpt>
      <trkpt lat="48.93448" lon="1.86538">
        <ele>74.64</ele>
        <time>2022-06-30T10:51:58Z</time>
      </trkpt>
      <trkpt lat="48.93452" lon="1.86517">
        <ele>75.44</ele>
        <time>2022-06-30T10:52:11Z</time>
      </trkpt>
      <trkpt lat="48.93453" lon="1.8651">
        <ele>75.16</ele>
        <time>2022-06-30T10:52:16Z</time>
      </trkpt>
      <trkpt lat="48.93454" lon="1.86506">
        <ele>75.47</ele>
        <time>2022-06-30T10:52:18Z</time>
      </trkpt>
      <trkpt lat="48.93453" lon="1.86503">
        <ele>75.43</ele>
        <time>2022-06-30T10:52:20Z</time>
      </trkpt>
      <trkpt lat="48.93456" lon="1.86488">
        <ele>74.88</ele>
        <time>2022-06-30T10:52:30Z</time>
      </trkpt>
      <trkpt lat="48.93456" lon="1.86484">
        <ele>74.67</ele>
        <time>2022-06-30T10:52:33Z</time>
      </trkpt>
      <trkpt lat="48.9346" lon="1.86468">
        <ele>74.63</ele>
        <time>2022-06-30T10:52:44Z</time>
      </trkpt>
      <trkpt lat="48.93462" lon="1.86463">
        <ele>73.54</ele>
        <time>2022-06-30T10:52:47Z</time>
      </trkpt>
      <trkpt lat="48.93462" lon="1.86457">
        <ele>73.1</ele>
        <time>2022-06-30T10:52:52Z</time>
      </trkpt>
      <trkpt lat="48.93464" lon="1.86443">
        <ele>73.06</ele>
        <time>2022-06-30T10:53:02Z</time>
      </trkpt>
      <trkpt lat="48.93463" lon="1.86428">
        <ele>72.02</ele>
        <time>2022-06-30T10:53:12Z</time>
      </trkpt>
      <trkpt lat="48.93462" lon="1.86408">
        <ele>70.28</ele>
        <time>2022-06-30T10:53:24Z</time>
      </trkpt>
      <trkpt lat="48.93463" lon="1.86396">
        <ele>69.94</ele>
        <time>2022-06-30T10:53:31Z</time>
      </trkpt>
      <trkpt lat="48.93464" lon="1.86373">
        <ele>69.28</ele>
        <time>2022-06-30T10:53:44Z</time>
      </trkpt>
      <trkpt lat="48.93466" lon="1.86355">
        <ele>68.46</ele>
        <time>2022-06-30T10:53:56Z</time>
      </trkpt>
      <trkpt lat="48.93468" lon="1.86335">
        <ele>67.38</ele>
        <time>2022-06-30T10:54:08Z</time>
      </trkpt>
      <trkpt lat="48.9347" lon="1.86321">
        <ele>66.37</ele>
        <time>2022-06-30T10:54:18Z</time>
      </trkpt>
      <trkpt lat="48.93471" lon="1.86317">
        <ele>66.19</ele>
        <time>2022-06-30T10:54:20Z</time>
      </trkpt>
      <trkpt lat="48.93472" lon="1.86305">
        <ele>65.9</ele>
        <time>2022-06-30T10:54:29Z</time>
      </trkpt>
      <trkpt lat="48.93473" lon="1.8629">
        <ele>65.85</ele>
        <time>2022-06-30T10:54:40Z</time>
      </trkpt>
      <trkpt lat="48.93475" lon="1.86275">
        <ele>66.24</ele>
        <time>2022-06-30T10:54:50Z</time>
      </trkpt>
      <trkpt lat="48.93475" lon="1.8626">
        <ele>64.33</ele>
        <time>2022-06-30T10:55:00Z</time>
      </trkpt>
      <trkpt lat="48.93475" lon="1.86245">
        <ele>63.97</ele>
        <time>2022-06-30T10:55:10Z</time>
      </trkpt>
      <trkpt lat="48.93476" lon="1.86234">
        <ele>63.11</ele>
        <time>2022-06-30T10:55:17Z</time>
      </trkpt>
      <trkpt lat="48.93476" lon="1.86219">
        <ele>62.06</ele>
        <time>2022-06-30T10:55:28Z</time>
      </trkpt>
      <trkpt lat="48.93476" lon="1.86209">
        <ele>62.28</ele>
        <time>2022-06-30T10:55:35Z</time>
      </trkpt>
      <trkpt lat="48.93476" lon="1.86198">
        <ele>61.86</ele>
        <time>2022-06-30T10:55:42Z</time>
      </trkpt>
      <trkpt lat="48.93476" lon="1.86194">
        <ele>61.74</ele>
        <time>2022-06-30T10:55:44Z</time>
      </trkpt>
      <trkpt lat="48.93475" lon="1.86179">
        <ele>60.85</ele>
        <time>2022-06-30T10:55:54Z</time>
      </trkpt>
      <trkpt lat="48.93475" lon="1.86177">
        <ele>60.39</ele>
        <time>2022-06-30T10:55:55Z</time>
      </trkpt>
      <trkpt lat="48.93475" lon="1.86173">
        <ele>60.46</ele>
        <time>2022-06-30T10:55:58Z</time>
      </trkpt>
      <trkpt lat="48.93475" lon="1.86169">
        <ele>60.45</ele>
        <time>2022-06-30T10:56:01Z</time>
      </trkpt>
      <trkpt lat="48.93476" lon="1.8615">
        <ele>60.55</ele>
        <time>2022-06-30T10:56:14Z</time>
      </trkpt>
      <trkpt lat="48.93477" lon="1.86139">
        <ele>60.77</ele>
        <time>2022-06-30T10:56:23Z</time>
      </trkpt>
      <trkpt lat="48.9348" lon="1.86131">
        <ele>60.62</ele>
        <time>2022-06-30T10:56:37Z</time>
      </trkpt>
      <trkpt lat="48.93483" lon="1.86128">
        <ele>60.32</ele>
        <time>2022-06-30T10:56:50Z</time>
      </trkpt>
      <trkpt lat="48.93489" lon="1.8613">
        <ele>60.45</ele>
        <time>2022-06-30T10:57:06Z</time>
      </trkpt>
      <trkpt lat="48.93492" lon="1.86128">
        <ele>60.88</ele>
        <time>2022-06-30T10:57:22Z</time>
      </trkpt>
      <trkpt lat="48.93492" lon="1.86125">
        <ele>60.69</ele>
        <time>2022-06-30T10:57:38Z</time>
      </trkpt>
      <trkpt lat="48.93495" lon="1.86123">
        <ele>59.82</ele>
        <time>2022-06-30T10:57:51Z</time>
      </trkpt>
      <trkpt lat="48.93493" lon="1.86123">
        <ele>60.39</ele>
        <time>2022-06-30T10:58:12Z</time>
      </trkpt>
      <trkpt lat="48.93492" lon="1.86122">
        <ele>60.53</ele>
        <time>2022-06-30T10:58:33Z</time>
      </trkpt>
      <trkpt lat="48.93491" lon="1.86123">
        <ele>60.28</ele>
        <time>2022-06-30T10:58:51Z</time>
      </trkpt>
      <trkpt lat="48.93489" lon="1.86123">
        <ele>60.87</ele>
        <time>2022-06-30T10:59:12Z</time>
      </trkpt>
      <trkpt lat="48.9349" lon="1.86124">
        <ele>61.28</ele>
        <time>2022-06-30T10:59:33Z</time>
      </trkpt>
      <trkpt lat="48.93491" lon="1.86123">
        <ele>61.07</ele>
        <time>2022-06-30T10:59:56Z</time>
      </trkpt>
      <trkpt lat="48.93491" lon="1.86122">
        <ele>60.57</ele>
        <time>2022-06-30T11:00:14Z</time>
      </trkpt>
      <trkpt lat="48.93492" lon="1.86124">
        <ele>60.86</ele>
        <time>2022-06-30T11:00:22Z</time>
      </trkpt>
      <trkpt lat="48.93494" lon="1.86123">
        <ele>61.35</ele>
        <time>2022-06-30T11:00:49Z</time>
      </trkpt>
      <trkpt lat="48.93495" lon="1.86123">
        <ele>61.99</ele>
        <time>2022-06-30T11:01:10Z</time>
      </trkpt>
      <trkpt lat="48.93493" lon="1.86122">
        <ele>61.13</ele>
        <time>2022-06-30T11:01:31Z</time>
      </trkpt>
      <trkpt lat="48.93493" lon="1.86118">
        <ele>61.43</ele>
        <time>2022-06-30T11:01:53Z</time>
      </trkpt>
      <trkpt lat="48.93491" lon="1.8612">
        <ele>60.91</ele>
        <time>2022-06-30T11:02:12Z</time>
      </trkpt>
      <trkpt lat="48.93492" lon="1.86121">
        <ele>61.55</ele>
        <time>2022-06-30T11:02:34Z</time>
      </trkpt>
      <trkpt lat="48.93491" lon="1.86121">
        <ele>61.16</ele>
        <time>2022-06-30T11:02:53Z</time>
      </trkpt>
      <trkpt lat="48.93491" lon="1.86121">
        <ele>62.34</ele>
        <time>2022-06-30T11:03:12Z</time>
      </trkpt>
      <trkpt lat="48.93491" lon="1.86122">
        <ele>62.12</ele>
        <time>2022-06-30T11:03:36Z</time>
      </trkpt>
      <trkpt lat="48.93491" lon="1.86123">
        <ele>62.25</ele>
        <time>2022-06-30T11:03:56Z</time>
      </trkpt>
      <trkpt lat="48.93492" lon="1.86121">
        <ele>62.76</ele>
        <time>2022-06-30T11:04:18Z</time>
      </trkpt>
      <trkpt lat="48.93492" lon="1.86123">
        <ele>62.27</ele>
        <time>2022-06-30T11:04:41Z</time>
      </trkpt>
      <trkpt lat="48.9349" lon="1.86122">
        <ele>62.92</ele>
        <time>2022-06-30T11:05:00Z</time>
      </trkpt>
      <trkpt lat="48.93491" lon="1.86124">
        <ele>62.97</ele>
        <time>2022-06-30T11:05:22Z</time>
      </trkpt>
      <trkpt lat="48.93491" lon="1.86124">
        <ele>62.56</ele>
        <time>2022-06-30T11:05:46Z</time>
      </trkpt>
      <trkpt lat="48.93492" lon="1.86126">
        <ele>63.17</ele>
        <time>2022-06-30T11:06:07Z</time>
      </trkpt>
      <trkpt lat="48.93492" lon="1.86123">
        <ele>63.27</ele>
        <time>2022-06-30T11:06:26Z</time>
      </trkpt>
      <trkpt lat="48.93492" lon="1.86124">
        <ele>62.59</ele>
        <time>2022-06-30T11:06:48Z</time>
      </trkpt>
      <trkpt lat="48.93494" lon="1.86125">
        <ele>62.67</ele>
        <time>2022-06-30T11:07:11Z</time>
      </trkpt>
      <trkpt lat="48.93493" lon="1.86124">
        <ele>62.94</ele>
        <time>2022-06-30T11:07:33Z</time>
      </trkpt>
      <trkpt lat="48.93494" lon="1.86124">
        <ele>62.65</ele>
        <time>2022-06-30T11:07:55Z</time>
      </trkpt>
      <trkpt lat="48.93494" lon="1.86123">
        <ele>63.36</ele>
        <time>2022-06-30T11:08:18Z</time>
      </trkpt>
      <trkpt lat="48.93493" lon="1.86124">
        <ele>62.7</ele>
        <time>2022-06-30T11:08:38Z</time>
      </trkpt>
      <trkpt lat="48.93491" lon="1.86119">
        <ele>62.42</ele>
        <time>2022-06-30T11:09:04Z</time>
      </trkpt>
      <trkpt lat="48.93493" lon="1.86123">
        <ele>62.03</ele>
        <time>2022-06-30T11:09:23Z</time>
      </trkpt>
      <trkpt lat="48.93493" lon="1.86125">
        <ele>61.44</ele>
        <time>2022-06-30T11:09:52Z</time>
      </trkpt>
      <trkpt lat="48.93491" lon="1.86124">
        <ele>61.52</ele>
        <time>2022-06-30T11:10:15Z</time>
      </trkpt>
      <trkpt lat="48.93489" lon="1.86126">
        <ele>61.32</ele>
        <time>2022-06-30T11:10:41Z</time>
      </trkpt>
      <trkpt lat="48.9349" lon="1.86125">
        <ele>61.04</ele>
        <time>2022-06-30T11:11:17Z</time>
      </trkpt>
      <trkpt lat="48.93492" lon="1.86123">
        <ele>60.78</ele>
        <time>2022-06-30T11:12:17Z</time>
      </trkpt>
      <trkpt lat="48.93492" lon="1.86125">
        <ele>60.15</ele>
        <time>2022-06-30T11:12:40Z</time>
      </trkpt>
      <trkpt lat="48.93492" lon="1.86122">
        <ele>59.67</ele>
        <time>2022-06-30T11:13:02Z</time>
      </trkpt>
      <trkpt lat="48.93494" lon="1.86121">
        <ele>60.03</ele>
        <time>2022-06-30T11:13:19Z</time>
      </trkpt>
      <trkpt lat="48.93492" lon="1.86122">
        <ele>59.35</ele>
        <time>2022-06-30T11:13:42Z</time>
      </trkpt>
      <trkpt lat="48.93491" lon="1.86122">
        <ele>59.51</ele>
        <time>2022-06-30T11:14:08Z</time>
      </trkpt>
      <trkpt lat="48.93492" lon="1.86123">
        <ele>59.33</ele>
        <time>2022-06-30T11:14:28Z</time>
      </trkpt>
      <trkpt lat="48.93492" lon="1.86124">
        <ele>59.97</ele>
        <time>2022-06-30T11:14:52Z</time>
      </trkpt>
      <trkpt lat="48.93492" lon="1.86123">
        <ele>59.88</ele>
        <time>2022-06-30T11:15:18Z</time>
      </trkpt>
      <trkpt lat="48.93492" lon="1.86124">
        <ele>59.71</ele>
        <time>2022-06-30T11:15:46Z</time>
      </trkpt>
      <trkpt lat="48.9349" lon="1.86124">
        <ele>59.41</ele>
        <time>2022-06-30T11:16:12Z</time>
      </trkpt>
      <trkpt lat="48.93489" lon="1.86127">
        <ele>59.73</ele>
        <time>2022-06-30T11:16:37Z</time>
      </trkpt>
      <trkpt lat="48.9349" lon="1.86128">
        <ele>58.92</ele>
        <time>2022-06-30T11:16:58Z</time>
      </trkpt>
      <trkpt lat="48.93491" lon="1.86125">
        <ele>58.86</ele>
        <time>2022-06-30T11:17:24Z</time>
      </trkpt>
      <trkpt lat="48.93493" lon="1.86122">
        <ele>58.83</ele>
        <time>2022-06-30T11:17:44Z</time>
      </trkpt>
      <trkpt lat="48.93493" lon="1.86123">
        <ele>59.18</ele>
        <time>2022-06-30T11:18:04Z</time>
      </trkpt>
      <trkpt lat="48.93491" lon="1.86123">
        <ele>59.06</ele>
        <time>2022-06-30T11:18:25Z</time>
      </trkpt>
      <trkpt lat="48.93492" lon="1.86123">
        <ele>59.08</ele>
        <time>2022-06-30T11:18:45Z</time>
      </trkpt>
      <trkpt lat="48.93491" lon="1.86125">
        <ele>59.18</ele>
        <time>2022-06-30T11:19:07Z</time>
      </trkpt>
      <trkpt lat="48.93491" lon="1.86123">
        <ele>59.35</ele>
        <time>2022-06-30T11:19:28Z</time>
      </trkpt>
      <trkpt lat="48.93492" lon="1.8612">
        <ele>59.33</ele>
        <time>2022-06-30T11:19:49Z</time>
      </trkpt>
      <trkpt lat="48.93496" lon="1.86122">
        <ele>59.36</ele>
        <time>2022-06-30T11:20:10Z</time>
      </trkpt>
      <trkpt lat="48.93501" lon="1.86126">
        <ele>59.97</ele>
        <time>2022-06-30T11:20:17Z</time>
      </trkpt>
      <trkpt lat="48.9351" lon="1.86129">
        <ele>59.88</ele>
        <time>2022-06-30T11:20:27Z</time>
      </trkpt>
      <trkpt lat="48.93517" lon="1.86131">
        <ele>59.72</ele>
        <time>2022-06-30T11:20:37Z</time>
      </trkpt>
      <trkpt lat="48.9352" lon="1.86128">
        <ele>59.79</ele>
        <time>2022-06-30T11:20:56Z</time>
      </trkpt>
      <trkpt lat="48.93512" lon="1.86122">
        <ele>59.81</ele>
        <time>2022-06-30T11:21:10Z</time>
      </trkpt>
      <trkpt lat="48.93505" lon="1.86122">
        <ele>59.74</ele>
        <time>2022-06-30T11:21:25Z</time>
      </trkpt>
      <trkpt lat="48.93498" lon="1.86125">
        <ele>59.96</ele>
        <time>2022-06-30T11:21:40Z</time>
      </trkpt>
      <trkpt lat="48.93493" lon="1.86123">
        <ele>60.04</ele>
        <time>2022-06-30T11:22:01Z</time>
      </trkpt>
      <trkpt lat="48.93494" lon="1.86123">
        <ele>59.7</ele>
        <time>2022-06-30T11:22:19Z</time>
      </trkpt>
      <trkpt lat="48.93492" lon="1.86123">
        <ele>59.8</ele>
        <time>2022-06-30T11:22:38Z</time>
      </trkpt>
      <trkpt lat="48.93492" lon="1.86126">
        <ele>59.52</ele>
        <time>2022-06-30T11:22:57Z</time>
      </trkpt>
      <trkpt lat="48.93492" lon="1.86125">
        <ele>59.72</ele>
        <time>2022-06-30T11:23:20Z</time>
      </trkpt>
      <trkpt lat="48.93492" lon="1.86124">
        <ele>60.02</ele>
        <time>2022-06-30T11:23:39Z</time>
      </trkpt>
      <trkpt lat="48.93492" lon="1.86124">
        <ele>59.71</ele>
        <time>2022-06-30T11:24:03Z</time>
      </trkpt>
      <trkpt lat="48.93493" lon="1.86124">
        <ele>59.61</ele>
        <time>2022-06-30T11:24:26Z</time>
      </trkpt>
      <trkpt lat="48.93492" lon="1.86124">
        <ele>59.53</ele>
        <time>2022-06-30T11:24:47Z</time>
      </trkpt>
      <trkpt lat="48.93494" lon="1.86122">
        <ele>59.97</ele>
        <time>2022-06-30T11:25:13Z</time>
      </trkpt>
      <trkpt lat="48.93493" lon="1.86124">
        <ele>60.02</ele>
        <time>2022-06-30T11:25:37Z</time>
      </trkpt>
      <trkpt lat="48.93494" lon="1.86125">
        <ele>60.25</ele>
        <time>2022-06-30T11:25:59Z</time>
      </trkpt>
      <trkpt lat="48.93493" lon="1.86125">
        <ele>59.49</ele>
        <time>2022-06-30T11:26:21Z</time>
      </trkpt>
      <trkpt lat="48.93493" lon="1.86126">
        <ele>60.85</ele>
        <time>2022-06-30T11:26:42Z</time>
      </trkpt>
      <trkpt lat="48.93492" lon="1.86125">
        <ele>60.7</ele>
        <time>2022-06-30T11:27:03Z</time>
      </trkpt>
      <trkpt lat="48.93494" lon="1.86125">
        <ele>60.93</ele>
        <time>2022-06-30T11:27:23Z</time>
      </trkpt>
      <trkpt lat="48.93493" lon="1.86125">
        <ele>60.78</ele>
        <time>2022-06-30T11:27:46Z</time>
      </trkpt>
      <trkpt lat="48.93492" lon="1.86125">
        <ele>61.23</ele>
        <time>2022-06-30T11:28:06Z</time>
      </trkpt>
      <trkpt lat="48.93492" lon="1.86125">
        <ele>61.27</ele>
        <time>2022-06-30T11:28:27Z</time>
      </trkpt>
      <trkpt lat="48.93492" lon="1.86125">
        <ele>60.98</ele>
        <time>2022-06-30T11:28:50Z</time>
      </trkpt>
      <trkpt lat="48.93492" lon="1.86125">
        <ele>61.45</ele>
        <time>2022-06-30T11:29:08Z</time>
      </trkpt>
      <trkpt lat="48.93493" lon="1.86124">
        <ele>61.77</ele>
        <time>2022-06-30T11:29:27Z</time>
      </trkpt>
      <trkpt lat="48.93492" lon="1.86127">
        <ele>61.8</ele>
        <time>2022-06-30T11:29:49Z</time>
      </trkpt>
      <trkpt lat="48.93492" lon="1.86125">
        <ele>61.85</ele>
        <time>2022-06-30T11:30:09Z</time>
      </trkpt>
      <trkpt lat="48.93492" lon="1.86123">
        <ele>61.75</ele>
        <time>2022-06-30T11:30:29Z</time>
      </trkpt>
      <trkpt lat="48.93493" lon="1.86121">
        <ele>61.78</ele>
        <time>2022-06-30T11:30:58Z</time>
      </trkpt>
      <trkpt lat="48.93493" lon="1.86122">
        <ele>62.79</ele>
        <time>2022-06-30T11:31:24Z</time>
      </trkpt>
      <trkpt lat="48.93492" lon="1.86123">
        <ele>62.69</ele>
        <time>2022-06-30T11:31:46Z</time>
      </trkpt>
      <trkpt lat="48.93491" lon="1.86126">
        <ele>63.34</ele>
        <time>2022-06-30T11:32:21Z</time>
      </trkpt>
      <trkpt lat="48.93492" lon="1.86123">
        <ele>62.82</ele>
        <time>2022-06-30T11:32:44Z</time>
      </trkpt>
      <trkpt lat="48.93491" lon="1.86122">
        <ele>63.2</ele>
        <time>2022-06-30T11:33:04Z</time>
      </trkpt>
      <trkpt lat="48.93491" lon="1.86122">
        <ele>63.97</ele>
        <time>2022-06-30T11:33:21Z</time>
      </trkpt>
      <trkpt lat="48.93492" lon="1.86124">
        <ele>64.06</ele>
        <time>2022-06-30T11:33:44Z</time>
      </trkpt>
      <trkpt lat="48.93491" lon="1.86125">
        <ele>63.96</ele>
        <time>2022-06-30T11:34:07Z</time>
      </trkpt>
      <trkpt lat="48.93492" lon="1.86124">
        <ele>64.3</ele>
        <time>2022-06-30T11:34:26Z</time>
      </trkpt>
      <trkpt lat="48.93492" lon="1.86123">
        <ele>64.8</ele>
        <time>2022-06-30T11:34:47Z</time>
      </trkpt>
      <trkpt lat="48.93492" lon="1.86124">
        <ele>64.63</ele>
        <time>2022-06-30T11:35:06Z</time>
      </trkpt>
      <trkpt lat="48.93492" lon="1.86124">
        <ele>65.3</ele>
        <time>2022-06-30T11:35:25Z</time>
      </trkpt>
      <trkpt lat="48.93493" lon="1.86123">
        <ele>65.04</ele>
        <time>2022-06-30T11:35:45Z</time>
      </trkpt>
      <trkpt lat="48.93494" lon="1.86122">
        <ele>65.65</ele>
        <time>2022-06-30T11:36:04Z</time>
      </trkpt>
      <trkpt lat="48.93495" lon="1.86123">
        <ele>65.24</ele>
        <time>2022-06-30T11:36:24Z</time>
      </trkpt>
      <trkpt lat="48.93495" lon="1.86123">
        <ele>65.75</ele>
        <time>2022-06-30T11:36:45Z</time>
      </trkpt>
      <trkpt lat="48.93494" lon="1.86122">
        <ele>66.29</ele>
        <time>2022-06-30T11:37:05Z</time>
      </trkpt>
      <trkpt lat="48.93494" lon="1.86123">
        <ele>66.25</ele>
        <time>2022-06-30T11:37:24Z</time>
      </trkpt>
      <trkpt lat="48.93493" lon="1.86123">
        <ele>66.82</ele>
        <time>2022-06-30T11:37:41Z</time>
      </trkpt>
      <trkpt lat="48.93495" lon="1.86123">
        <ele>67.13</ele>
        <time>2022-06-30T11:38:01Z</time>
      </trkpt>
      <trkpt lat="48.93495" lon="1.86121">
        <ele>66.88</ele>
        <time>2022-06-30T11:38:17Z</time>
      </trkpt>
      <trkpt lat="48.93495" lon="1.86123">
        <ele>67.26</ele>
        <time>2022-06-30T11:38:38Z</time>
      </trkpt>
      <trkpt lat="48.93494" lon="1.86123">
        <ele>67.47</ele>
        <time>2022-06-30T11:39:01Z</time>
      </trkpt>
      <trkpt lat="48.93494" lon="1.86123">
        <ele>68</ele>
        <time>2022-06-30T11:39:33Z</time>
      </trkpt>
      <trkpt lat="48.9349" lon="1.86123">
        <ele>68.12</ele>
        <time>2022-06-30T11:39:49Z</time>
      </trkpt>
      <trkpt lat="48.9349" lon="1.86126">
        <ele>68.73</ele>
        <time>2022-06-30T11:40:03Z</time>
      </trkpt>
      <trkpt lat="48.93483" lon="1.8613">
        <ele>69.03</ele>
        <time>2022-06-30T11:40:18Z</time>
      </trkpt>
      <trkpt lat="48.93475" lon="1.8613">
        <ele>69.36</ele>
        <time>2022-06-30T11:40:30Z</time>
      </trkpt>
      <trkpt lat="48.93466" lon="1.86124">
        <ele>70</ele>
        <time>2022-06-30T11:40:41Z</time>
      </trkpt>
      <trkpt lat="48.9346" lon="1.8612">
        <ele>70.2</ele>
        <time>2022-06-30T11:40:49Z</time>
      </trkpt>
      <trkpt lat="48.93448" lon="1.86115">
        <ele>71.14</ele>
        <time>2022-06-30T11:41:02Z</time>
      </trkpt>
      <trkpt lat="48.9344" lon="1.86109">
        <ele>71.59</ele>
        <time>2022-06-30T11:41:11Z</time>
      </trkpt>
      <trkpt lat="48.93435" lon="1.8609">
        <ele>72.02</ele>
        <time>2022-06-30T11:41:27Z</time>
      </trkpt>
      <trkpt lat="48.93434" lon="1.86078">
        <ele>71.65</ele>
        <time>2022-06-30T11:41:45Z</time>
      </trkpt>
      <trkpt lat="48.93434" lon="1.86068">
        <ele>71.19</ele>
        <time>2022-06-30T11:41:53Z</time>
      </trkpt>
      <trkpt lat="48.93432" lon="1.86048">
        <ele>70.43</ele>
        <time>2022-06-30T11:42:05Z</time>
      </trkpt>
      <trkpt lat="48.93431" lon="1.86031">
        <ele>69.75</ele>
        <time>2022-06-30T11:42:16Z</time>
      </trkpt>
      <trkpt lat="48.9343" lon="1.86013">
        <ele>69.1</ele>
        <time>2022-06-30T11:42:29Z</time>
      </trkpt>
      <trkpt lat="48.93427" lon="1.85999">
        <ele>67.6</ele>
        <time>2022-06-30T11:42:42Z</time>
      </trkpt>
      <trkpt lat="48.93423" lon="1.85978">
        <ele>66.99</ele>
        <time>2022-06-30T11:42:58Z</time>
      </trkpt>
      <trkpt lat="48.9342" lon="1.85965">
        <ele>66.83</ele>
        <time>2022-06-30T11:43:07Z</time>
      </trkpt>
      <trkpt lat="48.93415" lon="1.85947">
        <ele>66.3</ele>
        <time>2022-06-30T11:43:19Z</time>
      </trkpt>
      <trkpt lat="48.9341" lon="1.85931">
        <ele>65.95</ele>
        <time>2022-06-30T11:43:30Z</time>
      </trkpt>
      <trkpt lat="48.93406" lon="1.85917">
        <ele>65.81</ele>
        <time>2022-06-30T11:43:40Z</time>
      </trkpt>
      <trkpt lat="48.93402" lon="1.85904">
        <ele>65.19</ele>
        <time>2022-06-30T11:43:52Z</time>
      </trkpt>
      <trkpt lat="48.93397" lon="1.85886">
        <ele>64.94</ele>
        <time>2022-06-30T11:44:05Z</time>
      </trkpt>
      <trkpt lat="48.93392" lon="1.85871">
        <ele>64.98</ele>
        <time>2022-06-30T11:44:16Z</time>
      </trkpt>
      <trkpt lat="48.9339" lon="1.85865">
        <ele>64.59</ele>
        <time>2022-06-30T11:44:20Z</time>
      </trkpt>
      <trkpt lat="48.93387" lon="1.85852">
        <ele>64.59</ele>
        <time>2022-06-30T11:44:29Z</time>
      </trkpt>
      <trkpt lat="48.93381" lon="1.85834">
        <ele>64.74</ele>
        <time>2022-06-30T11:44:42Z</time>
      </trkpt>
      <trkpt lat="48.93376" lon="1.85817">
        <ele>64.31</ele>
        <time>2022-06-30T11:44:52Z</time>
      </trkpt>
      <trkpt lat="48.93369" lon="1.85797">
        <ele>64.62</ele>
        <time>2022-06-30T11:45:05Z</time>
      </trkpt>
      <trkpt lat="48.93364" lon="1.85785">
        <ele>64.45</ele>
        <time>2022-06-30T11:45:14Z</time>
      </trkpt>
      <trkpt lat="48.93361" lon="1.85772">
        <ele>64.42</ele>
        <time>2022-06-30T11:45:23Z</time>
      </trkpt>
      <trkpt lat="48.93357" lon="1.85759">
        <ele>64.02</ele>
        <time>2022-06-30T11:45:33Z</time>
      </trkpt>
      <trkpt lat="48.93354" lon="1.85754">
        <ele>63.8</ele>
        <time>2022-06-30T11:45:44Z</time>
      </trkpt>
      <trkpt lat="48.93353" lon="1.85752">
        <ele>63.52</ele>
        <time>2022-06-30T11:45:48Z</time>
      </trkpt>
      <trkpt lat="48.93349" lon="1.85741">
        <ele>63.44</ele>
        <time>2022-06-30T11:45:59Z</time>
      </trkpt>
      <trkpt lat="48.93346" lon="1.85732">
        <ele>63.37</ele>
        <time>2022-06-30T11:46:16Z</time>
      </trkpt>
      <trkpt lat="48.93344" lon="1.85728">
        <ele>63.14</ele>
        <time>2022-06-30T11:46:19Z</time>
      </trkpt>
      <trkpt lat="48.93339" lon="1.85711">
        <ele>62.42</ele>
        <time>2022-06-30T11:46:31Z</time>
      </trkpt>
      <trkpt lat="48.93335" lon="1.85703">
        <ele>62</ele>
        <time>2022-06-30T11:46:40Z</time>
      </trkpt>
      <trkpt lat="48.93333" lon="1.85696">
        <ele>61.94</ele>
        <time>2022-06-30T11:46:49Z</time>
      </trkpt>
      <trkpt lat="48.93331" lon="1.85691">
        <ele>61.88</ele>
        <time>2022-06-30T11:46:53Z</time>
      </trkpt>
      <trkpt lat="48.93325" lon="1.85673">
        <ele>61.88</ele>
        <time>2022-06-30T11:47:06Z</time>
      </trkpt>
      <trkpt lat="48.93318" lon="1.85655">
        <ele>61.64</ele>
        <time>2022-06-30T11:47:18Z</time>
      </trkpt>
      <trkpt lat="48.93311" lon="1.85637">
        <ele>61.77</ele>
        <time>2022-06-30T11:47:30Z</time>
      </trkpt>
      <trkpt lat="48.93307" lon="1.8562">
        <ele>61.66</ele>
        <time>2022-06-30T11:47:41Z</time>
      </trkpt>
      <trkpt lat="48.93304" lon="1.85609">
        <ele>61.38</ele>
        <time>2022-06-30T11:47:48Z</time>
      </trkpt>
      <trkpt lat="48.93299" lon="1.85592">
        <ele>60.85</ele>
        <time>2022-06-30T11:47:58Z</time>
      </trkpt>
      <trkpt lat="48.93295" lon="1.85575">
        <ele>61.24</ele>
        <time>2022-06-30T11:48:07Z</time>
      </trkpt>
      <trkpt lat="48.93294" lon="1.85574">
        <ele>61.32</ele>
        <time>2022-06-30T11:48:08Z</time>
      </trkpt>
      <trkpt lat="48.93292" lon="1.85562">
        <ele>60.54</ele>
        <time>2022-06-30T11:48:15Z</time>
      </trkpt>
      <trkpt lat="48.93291" lon="1.85555">
        <ele>60.56</ele>
        <time>2022-06-30T11:48:19Z</time>
      </trkpt>
      <trkpt lat="48.93291" lon="1.85538">
        <ele>61.27</ele>
        <time>2022-06-30T11:48:30Z</time>
      </trkpt>
      <trkpt lat="48.93288" lon="1.85519">
        <ele>61.35</ele>
        <time>2022-06-30T11:48:41Z</time>
      </trkpt>
      <trkpt lat="48.93286" lon="1.855">
        <ele>61.11</ele>
        <time>2022-06-30T11:48:53Z</time>
      </trkpt>
      <trkpt lat="48.93285" lon="1.85493">
        <ele>61.43</ele>
        <time>2022-06-30T11:48:57Z</time>
      </trkpt>
      <trkpt lat="48.93285" lon="1.85476">
        <ele>61.76</ele>
        <time>2022-06-30T11:49:08Z</time>
      </trkpt>
      <trkpt lat="48.93284" lon="1.85466">
        <ele>61.78</ele>
        <time>2022-06-30T11:49:17Z</time>
      </trkpt>
      <trkpt lat="48.93281" lon="1.8545">
        <ele>62.22</ele>
        <time>2022-06-30T11:49:27Z</time>
      </trkpt>
      <trkpt lat="48.93281" lon="1.85443">
        <ele>62.31</ele>
        <time>2022-06-30T11:49:32Z</time>
      </trkpt>
      <trkpt lat="48.9328" lon="1.85431">
        <ele>62.39</ele>
        <time>2022-06-30T11:49:40Z</time>
      </trkpt>
      <trkpt lat="48.9328" lon="1.85418">
        <ele>63.03</ele>
        <time>2022-06-30T11:49:52Z</time>
      </trkpt>
      <trkpt lat="48.9328" lon="1.85411">
        <ele>62.78</ele>
        <time>2022-06-30T11:50:02Z</time>
      </trkpt>
      <trkpt lat="48.93278" lon="1.85406">
        <ele>62.73</ele>
        <time>2022-06-30T11:50:05Z</time>
      </trkpt>
      <trkpt lat="48.93275" lon="1.85391">
        <ele>63.52</ele>
        <time>2022-06-30T11:50:14Z</time>
      </trkpt>
      <trkpt lat="48.93272" lon="1.85376">
        <ele>63.21</ele>
        <time>2022-06-30T11:50:25Z</time>
      </trkpt>
      <trkpt lat="48.93271" lon="1.85362">
        <ele>63.2</ele>
        <time>2022-06-30T11:50:34Z</time>
      </trkpt>
      <trkpt lat="48.93271" lon="1.85357">
        <ele>63.07</ele>
        <time>2022-06-30T11:50:37Z</time>
      </trkpt>
      <trkpt lat="48.9327" lon="1.85342">
        <ele>63.71</ele>
        <time>2022-06-30T11:50:46Z</time>
      </trkpt>
      <trkpt lat="48.93269" lon="1.85336">
        <ele>63.29</ele>
        <time>2022-06-30T11:50:50Z</time>
      </trkpt>
      <trkpt lat="48.93269" lon="1.85326">
        <ele>63.01</ele>
        <time>2022-06-30T11:50:56Z</time>
      </trkpt>
      <trkpt lat="48.93268" lon="1.85315">
        <ele>63.22</ele>
        <time>2022-06-30T11:51:04Z</time>
      </trkpt>
      <trkpt lat="48.93268" lon="1.85312">
        <ele>63.27</ele>
        <time>2022-06-30T11:51:06Z</time>
      </trkpt>
      <trkpt lat="48.93266" lon="1.85291">
        <ele>62.65</ele>
        <time>2022-06-30T11:51:21Z</time>
      </trkpt>
      <trkpt lat="48.93264" lon="1.85272">
        <ele>62.33</ele>
        <time>2022-06-30T11:51:33Z</time>
      </trkpt>
      <trkpt lat="48.93263" lon="1.85262">
        <ele>62.37</ele>
        <time>2022-06-30T11:51:38Z</time>
      </trkpt>
      <trkpt lat="48.93263" lon="1.85257">
        <ele>62.44</ele>
        <time>2022-06-30T11:51:41Z</time>
      </trkpt>
      <trkpt lat="48.93261" lon="1.8524">
        <ele>61.76</ele>
        <time>2022-06-30T11:51:52Z</time>
      </trkpt>
      <trkpt lat="48.9326" lon="1.85222">
        <ele>61.18</ele>
        <time>2022-06-30T11:52:03Z</time>
      </trkpt>
      <trkpt lat="48.93259" lon="1.85216">
        <ele>61.08</ele>
        <time>2022-06-30T11:52:07Z</time>
      </trkpt>
      <trkpt lat="48.93257" lon="1.85204">
        <ele>60.89</ele>
        <time>2022-06-30T11:52:15Z</time>
      </trkpt>
      <trkpt lat="48.93256" lon="1.85201">
        <ele>60.64</ele>
        <time>2022-06-30T11:52:17Z</time>
      </trkpt>
      <trkpt lat="48.93255" lon="1.85197">
        <ele>60.74</ele>
        <time>2022-06-30T11:52:20Z</time>
      </trkpt>
      <trkpt lat="48.93255" lon="1.85181">
        <ele>60.64</ele>
        <time>2022-06-30T11:52:29Z</time>
      </trkpt>
      <trkpt lat="48.93254" lon="1.85171">
        <ele>60.32</ele>
        <time>2022-06-30T11:52:35Z</time>
      </trkpt>
      <trkpt lat="48.93253" lon="1.85164">
        <ele>60.16</ele>
        <time>2022-06-30T11:52:39Z</time>
      </trkpt>
      <trkpt lat="48.93254" lon="1.85158">
        <ele>60.51</ele>
        <time>2022-06-30T11:52:43Z</time>
      </trkpt>
      <trkpt lat="48.93253" lon="1.85142">
        <ele>60.23</ele>
        <time>2022-06-30T11:52:53Z</time>
      </trkpt>
      <trkpt lat="48.93252" lon="1.85131">
        <ele>60.21</ele>
        <time>2022-06-30T11:53:02Z</time>
      </trkpt>
      <trkpt lat="48.9325" lon="1.85124">
        <ele>60.46</ele>
        <time>2022-06-30T11:53:07Z</time>
      </trkpt>
      <trkpt lat="48.93243" lon="1.85103">
        <ele>59.87</ele>
        <time>2022-06-30T11:53:21Z</time>
      </trkpt>
      <trkpt lat="48.93243" lon="1.85102">
        <ele>59.86</ele>
        <time>2022-06-30T11:53:22Z</time>
      </trkpt>
      <trkpt lat="48.9324" lon="1.85099">
        <ele>59.84</ele>
        <time>2022-06-30T11:53:25Z</time>
      </trkpt>
      <trkpt lat="48.93226" lon="1.85091">
        <ele>59.66</ele>
        <time>2022-06-30T11:53:39Z</time>
      </trkpt>
      <trkpt lat="48.93224" lon="1.85091">
        <ele>59.83</ele>
        <time>2022-06-30T11:53:40Z</time>
      </trkpt>
      <trkpt lat="48.93212" lon="1.85086">
        <ele>60.37</ele>
        <time>2022-06-30T11:53:53Z</time>
      </trkpt>
      <trkpt lat="48.93199" lon="1.85082">
        <ele>59.81</ele>
        <time>2022-06-30T11:54:05Z</time>
      </trkpt>
      <trkpt lat="48.93187" lon="1.85079">
        <ele>59.9</ele>
        <time>2022-06-30T11:54:16Z</time>
      </trkpt>
      <trkpt lat="48.93174" lon="1.85076">
        <ele>59.9</ele>
        <time>2022-06-30T11:54:27Z</time>
      </trkpt>
      <trkpt lat="48.93165" lon="1.85066">
        <ele>59.06</ele>
        <time>2022-06-30T11:54:40Z</time>
      </trkpt>
      <trkpt lat="48.93157" lon="1.85054">
        <ele>58.4</ele>
        <time>2022-06-30T11:54:51Z</time>
      </trkpt>
      <trkpt lat="48.93154" lon="1.85036">
        <ele>57.84</ele>
        <time>2022-06-30T11:55:04Z</time>
      </trkpt>
      <trkpt lat="48.93154" lon="1.85035">
        <ele>57.94</ele>
        <time>2022-06-30T11:55:05Z</time>
      </trkpt>
      <trkpt lat="48.93151" lon="1.85022">
        <ele>57.5</ele>
        <time>2022-06-30T11:55:16Z</time>
      </trkpt>
      <trkpt lat="48.93151" lon="1.85019">
        <ele>57.4</ele>
        <time>2022-06-30T11:55:20Z</time>
      </trkpt>
      <trkpt lat="48.93151" lon="1.85014">
        <ele>57.04</ele>
        <time>2022-06-30T11:55:23Z</time>
      </trkpt>
      <trkpt lat="48.93147" lon="1.85001">
        <ele>56.12</ele>
        <time>2022-06-30T11:55:31Z</time>
      </trkpt>
      <trkpt lat="48.93145" lon="1.84985">
        <ele>55.85</ele>
        <time>2022-06-30T11:55:41Z</time>
      </trkpt>
      <trkpt lat="48.93143" lon="1.84975">
        <ele>55.89</ele>
        <time>2022-06-30T11:55:46Z</time>
      </trkpt>
      <trkpt lat="48.93138" lon="1.84958">
        <ele>55.62</ele>
        <time>2022-06-30T11:55:57Z</time>
      </trkpt>
      <trkpt lat="48.93136" lon="1.84949">
        <ele>54.59</ele>
        <time>2022-06-30T11:56:03Z</time>
      </trkpt>
      <trkpt lat="48.93135" lon="1.84935">
        <ele>54.26</ele>
        <time>2022-06-30T11:56:10Z</time>
      </trkpt>
      <trkpt lat="48.93131" lon="1.84927">
        <ele>54.23</ele>
        <time>2022-06-30T11:56:16Z</time>
      </trkpt>
      <trkpt lat="48.93125" lon="1.84906">
        <ele>53.91</ele>
        <time>2022-06-30T11:56:30Z</time>
      </trkpt>
      <trkpt lat="48.9312" lon="1.84889">
        <ele>52.92</ele>
        <time>2022-06-30T11:56:42Z</time>
      </trkpt>
      <trkpt lat="48.93113" lon="1.84871">
        <ele>51.47</ele>
        <time>2022-06-30T11:56:58Z</time>
      </trkpt>
      <trkpt lat="48.93107" lon="1.84861">
        <ele>50.22</ele>
        <time>2022-06-30T11:57:12Z</time>
      </trkpt>
      <trkpt lat="48.93106" lon="1.84857">
        <ele>50.12</ele>
        <time>2022-06-30T11:57:15Z</time>
      </trkpt>
      <trkpt lat="48.93097" lon="1.84844">
        <ele>49.19</ele>
        <time>2022-06-30T11:57:27Z</time>
      </trkpt>
      <trkpt lat="48.93087" lon="1.8483">
        <ele>48.2</ele>
        <time>2022-06-30T11:57:40Z</time>
      </trkpt>
      <trkpt lat="48.93077" lon="1.84819">
        <ele>47.23</ele>
        <time>2022-06-30T11:57:53Z</time>
      </trkpt>
      <trkpt lat="48.93073" lon="1.84817">
        <ele>46.76</ele>
        <time>2022-06-30T11:57:57Z</time>
      </trkpt>
      <trkpt lat="48.93061" lon="1.84808">
        <ele>45.72</ele>
        <time>2022-06-30T11:58:10Z</time>
      </trkpt>
      <trkpt lat="48.93049" lon="1.84801">
        <ele>44.75</ele>
        <time>2022-06-30T11:58:22Z</time>
      </trkpt>
      <trkpt lat="48.93039" lon="1.84794">
        <ele>42.79</ele>
        <time>2022-06-30T11:58:34Z</time>
      </trkpt>
      <trkpt lat="48.93025" lon="1.84785">
        <ele>40.78</ele>
        <time>2022-06-30T11:58:52Z</time>
      </trkpt>
      <trkpt lat="48.93011" lon="1.84776">
        <ele>38.1</ele>
        <time>2022-06-30T11:59:09Z</time>
      </trkpt>
      <trkpt lat="48.92995" lon="1.84762">
        <ele>36.11</ele>
        <time>2022-06-30T11:59:29Z</time>
      </trkpt>
      <trkpt lat="48.92985" lon="1.84757">
        <ele>33.29</ele>
        <time>2022-06-30T11:59:46Z</time>
      </trkpt>
      <trkpt lat="48.92974" lon="1.84745">
        <ele>31.88</ele>
        <time>2022-06-30T12:00:02Z</time>
      </trkpt>
      <trkpt lat="48.92962" lon="1.84726">
        <ele>29.63</ele>
        <time>2022-06-30T12:00:19Z</time>
      </trkpt>
      <trkpt lat="48.92954" lon="1.84708">
        <ele>28.51</ele>
        <time>2022-06-30T12:00:31Z</time>
      </trkpt>
      <trkpt lat="48.92953" lon="1.84707">
        <ele>28.28</ele>
        <time>2022-06-30T12:00:33Z</time>
      </trkpt>
      <trkpt lat="48.92952" lon="1.84704">
        <ele>28.72</ele>
        <time>2022-06-30T12:00:45Z</time>
      </trkpt>
      <trkpt lat="48.92949" lon="1.84705">
        <ele>28.64</ele>
        <time>2022-06-30T12:00:59Z</time>
      </trkpt>
      <trkpt lat="48.92945" lon="1.84692">
        <ele>28.8</ele>
        <time>2022-06-30T12:01:15Z</time>
      </trkpt>
      <trkpt lat="48.92944" lon="1.84677">
        <ele>26.72</ele>
        <time>2022-06-30T12:01:29Z</time>
      </trkpt>
      <trkpt lat="48.92937" lon="1.84664">
        <ele>24.94</ele>
        <time>2022-06-30T12:01:42Z</time>
      </trkpt>
      <trkpt lat="48.92935" lon="1.84657">
        <ele>24.5</ele>
        <time>2022-06-30T12:01:50Z</time>
      </trkpt>
      <trkpt lat="48.92929" lon="1.84623">
        <ele>24.07</ele>
        <time>2022-06-30T12:02:08Z</time>
      </trkpt>
      <trkpt lat="48.9292" lon="1.846">
        <ele>22.84</ele>
        <time>2022-06-30T12:02:24Z</time>
      </trkpt>
      <trkpt lat="48.92917" lon="1.84588">
        <ele>21.16</ele>
        <time>2022-06-30T12:02:35Z</time>
      </trkpt>
      <trkpt lat="48.92913" lon="1.84576">
        <ele>21.59</ele>
        <time>2022-06-30T12:02:44Z</time>
      </trkpt>
      <trkpt lat="48.92912" lon="1.84571">
        <ele>20.93</ele>
        <time>2022-06-30T12:02:46Z</time>
      </trkpt>
      <trkpt lat="48.92909" lon="1.84566">
        <ele>20.83</ele>
        <time>2022-06-30T12:02:50Z</time>
      </trkpt>
      <trkpt lat="48.92906" lon="1.8456">
        <ele>20.37</ele>
        <time>2022-06-30T12:02:55Z</time>
      </trkpt>
      <trkpt lat="48.92903" lon="1.84539">
        <ele>20.08</ele>
        <time>2022-06-30T12:03:09Z</time>
      </trkpt>
      <trkpt lat="48.92902" lon="1.84521">
        <ele>20.35</ele>
        <time>2022-06-30T12:03:22Z</time>
      </trkpt>
      <trkpt lat="48.92906" lon="1.84493">
        <ele>19.06</ele>
        <time>2022-06-30T12:03:37Z</time>
      </trkpt>
      <trkpt lat="48.92912" lon="1.84477">
        <ele>19.61</ele>
        <time>2022-06-30T12:03:46Z</time>
      </trkpt>
      <trkpt lat="48.92912" lon="1.84466">
        <ele>19.85</ele>
        <time>2022-06-30T12:03:53Z</time>
      </trkpt>
      <trkpt lat="48.92916" lon="1.84446">
        <ele>19.88</ele>
        <time>2022-06-30T12:04:08Z</time>
      </trkpt>
      <trkpt lat="48.92916" lon="1.84426">
        <ele>19.22</ele>
        <time>2022-06-30T12:04:21Z</time>
      </trkpt>
      <trkpt lat="48.92911" lon="1.84408">
        <ele>19.35</ele>
        <time>2022-06-30T12:04:33Z</time>
      </trkpt>
      <trkpt lat="48.92908" lon="1.8439">
        <ele>19.43</ele>
        <time>2022-06-30T12:04:47Z</time>
      </trkpt>
      <trkpt lat="48.92904" lon="1.84381">
        <ele>19.43</ele>
        <time>2022-06-30T12:05:02Z</time>
      </trkpt>
      <trkpt lat="48.92902" lon="1.84373">
        <ele>19.76</ele>
        <time>2022-06-30T12:05:18Z</time>
      </trkpt>
      <trkpt lat="48.92901" lon="1.84366">
        <ele>19.72</ele>
        <time>2022-06-30T12:05:33Z</time>
      </trkpt>
      <trkpt lat="48.92898" lon="1.84355">
        <ele>19.75</ele>
        <time>2022-06-30T12:05:50Z</time>
      </trkpt>
      <trkpt lat="48.92898" lon="1.84354">
        <ele>20.07</ele>
        <time>2022-06-30T12:06:08Z</time>
      </trkpt>
      <trkpt lat="48.929" lon="1.84357">
        <ele>19.76</ele>
        <time>2022-06-30T12:06:28Z</time>
      </trkpt>
      <trkpt lat="48.929" lon="1.84366">
        <ele>19.8</ele>
        <time>2022-06-30T12:06:44Z</time>
      </trkpt>
      <trkpt lat="48.92899" lon="1.84366">
        <ele>19.89</ele>
        <time>2022-06-30T12:07:01Z</time>
      </trkpt>
      <trkpt lat="48.929" lon="1.84369">
        <ele>20.19</ele>
        <time>2022-06-30T12:07:15Z</time>
      </trkpt>
      <trkpt lat="48.92903" lon="1.84382">
        <ele>19.62</ele>
        <time>2022-06-30T12:07:27Z</time>
      </trkpt>
      <trkpt lat="48.92907" lon="1.84396">
        <ele>19.63</ele>
        <time>2022-06-30T12:07:41Z</time>
      </trkpt>
      <trkpt lat="48.92909" lon="1.84409">
        <ele>20.3</ele>
        <time>2022-06-30T12:07:52Z</time>
      </trkpt>
      <trkpt lat="48.92911" lon="1.84426">
        <ele>20.22</ele>
        <time>2022-06-30T12:08:03Z</time>
      </trkpt>
      <trkpt lat="48.92912" lon="1.84434">
        <ele>20.19</ele>
        <time>2022-06-30T12:08:07Z</time>
      </trkpt>
      <trkpt lat="48.92914" lon="1.84453">
        <ele>20.15</ele>
        <time>2022-06-30T12:08:17Z</time>
      </trkpt>
      <trkpt lat="48.92915" lon="1.84464">
        <ele>20.51</ele>
        <time>2022-06-30T12:08:25Z</time>
      </trkpt>
      <trkpt lat="48.92923" lon="1.84471">
        <ele>20.24</ele>
        <time>2022-06-30T12:08:36Z</time>
      </trkpt>
      <trkpt lat="48.92926" lon="1.84471">
        <ele>19.96</ele>
        <time>2022-06-30T12:08:40Z</time>
      </trkpt>
      <trkpt lat="48.92942" lon="1.84469">
        <ele>20.72</ele>
        <time>2022-06-30T12:08:54Z</time>
      </trkpt>
      <trkpt lat="48.92955" lon="1.84464">
        <ele>20.34</ele>
        <time>2022-06-30T12:09:05Z</time>
      </trkpt>
      <trkpt lat="48.92966" lon="1.84465">
        <ele>20.06</ele>
        <time>2022-06-30T12:09:19Z</time>
      </trkpt>
      <trkpt lat="48.92982" lon="1.84457">
        <ele>20.3</ele>
        <time>2022-06-30T12:09:35Z</time>
      </trkpt>
      <trkpt lat="48.92985" lon="1.84457">
        <ele>20.43</ele>
        <time>2022-06-30T12:09:37Z</time>
      </trkpt>
      <trkpt lat="48.93002" lon="1.84452">
        <ele>19.7</ele>
        <time>2022-06-30T12:09:48Z</time>
      </trkpt>
      <trkpt lat="48.93005" lon="1.84451">
        <ele>20.3</ele>
        <time>2022-06-30T12:09:51Z</time>
      </trkpt>
      <trkpt lat="48.93007" lon="1.84451">
        <ele>20.24</ele>
        <time>2022-06-30T12:09:53Z</time>
      </trkpt>
      <trkpt lat="48.93021" lon="1.84448">
        <ele>20.54</ele>
        <time>2022-06-30T12:10:07Z</time>
      </trkpt>
      <trkpt lat="48.93037" lon="1.84444">
        <ele>20.66</ele>
        <time>2022-06-30T12:10:21Z</time>
      </trkpt>
      <trkpt lat="48.93047" lon="1.84444">
        <ele>20.23</ele>
        <time>2022-06-30T12:10:31Z</time>
      </trkpt>
      <trkpt lat="48.9306" lon="1.84441">
        <ele>20.2</ele>
        <time>2022-06-30T12:10:46Z</time>
      </trkpt>
      <trkpt lat="48.93064" lon="1.84441">
        <ele>20.15</ele>
        <time>2022-06-30T12:10:50Z</time>
      </trkpt>
      <trkpt lat="48.93074" lon="1.8444">
        <ele>20.63</ele>
        <time>2022-06-30T12:10:58Z</time>
      </trkpt>
      <trkpt lat="48.93076" lon="1.8444">
        <ele>20.56</ele>
        <time>2022-06-30T12:11:00Z</time>
      </trkpt>
      <trkpt lat="48.93089" lon="1.84438">
        <ele>20.37</ele>
        <time>2022-06-30T12:11:11Z</time>
      </trkpt>
      <trkpt lat="48.93101" lon="1.84437">
        <ele>20.45</ele>
        <time>2022-06-30T12:11:23Z</time>
      </trkpt>
      <trkpt lat="48.93112" lon="1.84436">
        <ele>20.99</ele>
        <time>2022-06-30T12:11:35Z</time>
      </trkpt>
      <trkpt lat="48.93126" lon="1.84438">
        <ele>20.67</ele>
        <time>2022-06-30T12:11:46Z</time>
      </trkpt>
      <trkpt lat="48.9313" lon="1.8444">
        <ele>21.19</ele>
        <time>2022-06-30T12:11:50Z</time>
      </trkpt>
      <trkpt lat="48.93133" lon="1.84445">
        <ele>21.34</ele>
        <time>2022-06-30T12:11:54Z</time>
      </trkpt>
      <trkpt lat="48.93146" lon="1.84459">
        <ele>21.22</ele>
        <time>2022-06-30T12:12:09Z</time>
      </trkpt>
      <trkpt lat="48.93151" lon="1.84462">
        <ele>21.46</ele>
        <time>2022-06-30T12:12:13Z</time>
      </trkpt>
      <trkpt lat="48.93157" lon="1.84466">
        <ele>22.27</ele>
        <time>2022-06-30T12:12:19Z</time>
      </trkpt>
      <trkpt lat="48.93169" lon="1.84467">
        <ele>22.3</ele>
        <time>2022-06-30T12:12:31Z</time>
      </trkpt>
      <trkpt lat="48.93184" lon="1.84467">
        <ele>22.36</ele>
        <time>2022-06-30T12:12:45Z</time>
      </trkpt>
      <trkpt lat="48.932" lon="1.84462">
        <ele>22.4</ele>
        <time>2022-06-30T12:12:56Z</time>
      </trkpt>
      <trkpt lat="48.93213" lon="1.84456">
        <ele>22.21</ele>
        <time>2022-06-30T12:13:08Z</time>
      </trkpt>
      <trkpt lat="48.93223" lon="1.84449">
        <ele>22.18</ele>
        <time>2022-06-30T12:13:19Z</time>
      </trkpt>
      <trkpt lat="48.93235" lon="1.84438">
        <ele>22.03</ele>
        <time>2022-06-30T12:13:34Z</time>
      </trkpt>
      <trkpt lat="48.93239" lon="1.84436">
        <ele>22.08</ele>
        <time>2022-06-30T12:13:40Z</time>
      </trkpt>
      <trkpt lat="48.93249" lon="1.84427">
        <ele>22.35</ele>
        <time>2022-06-30T12:13:54Z</time>
      </trkpt>
      <trkpt lat="48.93257" lon="1.84416">
        <ele>21.46</ele>
        <time>2022-06-30T12:14:09Z</time>
      </trkpt>
      <trkpt lat="48.93261" lon="1.84413">
        <ele>21.59</ele>
        <time>2022-06-30T12:14:17Z</time>
      </trkpt>
      <trkpt lat="48.93279" lon="1.844">
        <ele>21.02</ele>
        <time>2022-06-30T12:14:33Z</time>
      </trkpt>
      <trkpt lat="48.93298" lon="1.84387">
        <ele>21.89</ele>
        <time>2022-06-30T12:14:48Z</time>
      </trkpt>
      <trkpt lat="48.93314" lon="1.84378">
        <ele>22</ele>
        <time>2022-06-30T12:15:04Z</time>
      </trkpt>
      <trkpt lat="48.9332" lon="1.84377">
        <ele>21.99</ele>
        <time>2022-06-30T12:15:09Z</time>
      </trkpt>
      <trkpt lat="48.93337" lon="1.84369">
        <ele>21.48</ele>
        <time>2022-06-30T12:15:24Z</time>
      </trkpt>
      <trkpt lat="48.93354" lon="1.84367">
        <ele>21.44</ele>
        <time>2022-06-30T12:15:37Z</time>
      </trkpt>
      <trkpt lat="48.9336" lon="1.84364">
        <ele>21.12</ele>
        <time>2022-06-30T12:15:51Z</time>
      </trkpt>
      <trkpt lat="48.93373" lon="1.84359">
        <ele>21.12</ele>
        <time>2022-06-30T12:16:04Z</time>
      </trkpt>
      <trkpt lat="48.93382" lon="1.84357">
        <ele>20.97</ele>
        <time>2022-06-30T12:16:11Z</time>
      </trkpt>
      <trkpt lat="48.93387" lon="1.84354">
        <ele>20.74</ele>
        <time>2022-06-30T12:16:16Z</time>
      </trkpt>
      <trkpt lat="48.934" lon="1.84349">
        <ele>20.45</ele>
        <time>2022-06-30T12:16:30Z</time>
      </trkpt>
      <trkpt lat="48.93414" lon="1.84342">
        <ele>20.05</ele>
        <time>2022-06-30T12:16:44Z</time>
      </trkpt>
      <trkpt lat="48.93422" lon="1.84338">
        <ele>19.82</ele>
        <time>2022-06-30T12:16:59Z</time>
      </trkpt>
      <trkpt lat="48.93433" lon="1.84331">
        <ele>19.23</ele>
        <time>2022-06-30T12:17:14Z</time>
      </trkpt>
      <trkpt lat="48.93449" lon="1.84325">
        <ele>19.01</ele>
        <time>2022-06-30T12:17:33Z</time>
      </trkpt>
      <trkpt lat="48.93462" lon="1.84316">
        <ele>18.35</ele>
        <time>2022-06-30T12:17:49Z</time>
      </trkpt>
      <trkpt lat="48.93464" lon="1.84315">
        <ele>18.48</ele>
        <time>2022-06-30T12:17:51Z</time>
      </trkpt>
      <trkpt lat="48.93472" lon="1.8431">
        <ele>19.07</ele>
        <time>2022-06-30T12:17:57Z</time>
      </trkpt>
      <trkpt lat="48.93485" lon="1.84299">
        <ele>18.58</ele>
        <time>2022-06-30T12:18:14Z</time>
      </trkpt>
      <trkpt lat="48.93501" lon="1.84287">
        <ele>18.61</ele>
        <time>2022-06-30T12:18:30Z</time>
      </trkpt>
      <trkpt lat="48.93512" lon="1.84279">
        <ele>18.56</ele>
        <time>2022-06-30T12:18:45Z</time>
      </trkpt>
      <trkpt lat="48.9353" lon="1.84263">
        <ele>18.42</ele>
        <time>2022-06-30T12:19:01Z</time>
      </trkpt>
      <trkpt lat="48.93541" lon="1.84252">
        <ele>18.12</ele>
        <time>2022-06-30T12:19:18Z</time>
      </trkpt>
      <trkpt lat="48.93555" lon="1.84241">
        <ele>18.15</ele>
        <time>2022-06-30T12:19:34Z</time>
      </trkpt>
      <trkpt lat="48.93573" lon="1.84229">
        <ele>18.02</ele>
        <time>2022-06-30T12:19:46Z</time>
      </trkpt>
      <trkpt lat="48.93582" lon="1.84219">
        <ele>17.87</ele>
        <time>2022-06-30T12:19:54Z</time>
      </trkpt>
      <trkpt lat="48.93583" lon="1.84215">
        <ele>17.85</ele>
        <time>2022-06-30T12:19:57Z</time>
      </trkpt>
      <trkpt lat="48.93588" lon="1.84202">
        <ele>18.3</ele>
        <time>2022-06-30T12:20:06Z</time>
      </trkpt>
      <trkpt lat="48.93594" lon="1.84194">
        <ele>18.02</ele>
        <time>2022-06-30T12:20:12Z</time>
      </trkpt>
      <trkpt lat="48.93604" lon="1.84178">
        <ele>17.88</ele>
        <time>2022-06-30T12:20:22Z</time>
      </trkpt>
      <trkpt lat="48.93605" lon="1.84176">
        <ele>17.48</ele>
        <time>2022-06-30T12:20:23Z</time>
      </trkpt>
      <trkpt lat="48.93615" lon="1.84163">
        <ele>17.53</ele>
        <time>2022-06-30T12:20:34Z</time>
      </trkpt>
      <trkpt lat="48.93621" lon="1.84154">
        <ele>18.01</ele>
        <time>2022-06-30T12:20:41Z</time>
      </trkpt>
      <trkpt lat="48.93632" lon="1.84139">
        <ele>17.49</ele>
        <time>2022-06-30T12:20:53Z</time>
      </trkpt>
      <trkpt lat="48.93634" lon="1.84136">
        <ele>17.74</ele>
        <time>2022-06-30T12:20:55Z</time>
      </trkpt>
      <trkpt lat="48.93643" lon="1.84126">
        <ele>17.92</ele>
        <time>2022-06-30T12:21:05Z</time>
      </trkpt>
      <trkpt lat="48.93649" lon="1.84118">
        <ele>17.81</ele>
        <time>2022-06-30T12:21:12Z</time>
      </trkpt>
      <trkpt lat="48.93659" lon="1.84109">
        <ele>18.07</ele>
        <time>2022-06-30T12:21:23Z</time>
      </trkpt>
      <trkpt lat="48.93664" lon="1.84101">
        <ele>17.67</ele>
        <time>2022-06-30T12:21:29Z</time>
      </trkpt>
      <trkpt lat="48.93669" lon="1.84092">
        <ele>17.07</ele>
        <time>2022-06-30T12:21:36Z</time>
      </trkpt>
      <trkpt lat="48.93675" lon="1.84082">
        <ele>17.07</ele>
        <time>2022-06-30T12:21:43Z</time>
      </trkpt>
      <trkpt lat="48.93675" lon="1.8408">
        <ele>17.26</ele>
        <time>2022-06-30T12:21:44Z</time>
      </trkpt>
      <trkpt lat="48.93681" lon="1.84069">
        <ele>16.59</ele>
        <time>2022-06-30T12:21:56Z</time>
      </trkpt>
      <trkpt lat="48.93682" lon="1.84068">
        <ele>16.59</ele>
        <time>2022-06-30T12:21:57Z</time>
      </trkpt>
      <trkpt lat="48.93683" lon="1.84066">
        <ele>16.62</ele>
        <time>2022-06-30T12:21:58Z</time>
      </trkpt>
      <trkpt lat="48.93683" lon="1.84064">
        <ele>16.67</ele>
        <time>2022-06-30T12:21:59Z</time>
      </trkpt>
      <trkpt lat="48.93684" lon="1.84063">
        <ele>16.61</ele>
        <time>2022-06-30T12:22:00Z</time>
      </trkpt>
      <trkpt lat="48.93685" lon="1.84061">
        <ele>16.45</ele>
        <time>2022-06-30T12:22:01Z</time>
      </trkpt>
      <trkpt lat="48.93685" lon="1.8406">
        <ele>16.64</ele>
        <time>2022-06-30T12:22:02Z</time>
      </trkpt>
      <trkpt lat="48.93692" lon="1.84048">
        <ele>16.19</ele>
        <time>2022-06-30T12:22:12Z</time>
      </trkpt>
      <trkpt lat="48.937" lon="1.84035">
        <ele>15.71</ele>
        <time>2022-06-30T12:22:22Z</time>
      </trkpt>
      <trkpt lat="48.93707" lon="1.84025">
        <ele>15.91</ele>
        <time>2022-06-30T12:22:30Z</time>
      </trkpt>
      <trkpt lat="48.93712" lon="1.84014">
        <ele>15.89</ele>
        <time>2022-06-30T12:22:44Z</time>
      </trkpt>
      <trkpt lat="48.93715" lon="1.84009">
        <ele>15.85</ele>
        <time>2022-06-30T12:23:04Z</time>
      </trkpt>
      <trkpt lat="48.93716" lon="1.84006">
        <ele>15.52</ele>
        <time>2022-06-30T12:23:28Z</time>
      </trkpt>
      <trkpt lat="48.93724" lon="1.84002">
        <ele>15.55</ele>
        <time>2022-06-30T12:23:46Z</time>
      </trkpt>
      <trkpt lat="48.93735" lon="1.83998">
        <ele>15.23</ele>
        <time>2022-06-30T12:24:02Z</time>
      </trkpt>
      <trkpt lat="48.93746" lon="1.83998">
        <ele>15.62</ele>
        <time>2022-06-30T12:24:16Z</time>
      </trkpt>
      <trkpt lat="48.9375" lon="1.84015">
        <ele>15.42</ele>
        <time>2022-06-30T12:24:31Z</time>
      </trkpt>
      <trkpt lat="48.93754" lon="1.84035">
        <ele>15.43</ele>
        <time>2022-06-30T12:24:47Z</time>
      </trkpt>
      <trkpt lat="48.93756" lon="1.84053">
        <ele>16.7</ele>
        <time>2022-06-30T12:25:01Z</time>
      </trkpt>
      <trkpt lat="48.93757" lon="1.84067">
        <ele>16.34</ele>
        <time>2022-06-30T12:25:10Z</time>
      </trkpt>
      <trkpt lat="48.9376" lon="1.84079">
        <ele>17.65</ele>
        <time>2022-06-30T12:25:22Z</time>
      </trkpt>
      <trkpt lat="48.93768" lon="1.84084">
        <ele>18.67</ele>
        <time>2022-06-30T12:25:36Z</time>
      </trkpt>
      <trkpt lat="48.93782" lon="1.84082">
        <ele>19.1</ele>
        <time>2022-06-30T12:25:50Z</time>
      </trkpt>
      <trkpt lat="48.93785" lon="1.8408">
        <ele>18.68</ele>
        <time>2022-06-30T12:25:53Z</time>
      </trkpt>
      <trkpt lat="48.93795" lon="1.84077">
        <ele>19.05</ele>
        <time>2022-06-30T12:26:04Z</time>
      </trkpt>
      <trkpt lat="48.93805" lon="1.84072">
        <ele>18.13</ele>
        <time>2022-06-30T12:26:15Z</time>
      </trkpt>
      <trkpt lat="48.93811" lon="1.84079">
        <ele>18.75</ele>
        <time>2022-06-30T12:26:23Z</time>
      </trkpt>
      <trkpt lat="48.93816" lon="1.84086">
        <ele>18.89</ele>
        <time>2022-06-30T12:26:33Z</time>
      </trkpt>
      <trkpt lat="48.93821" lon="1.84095">
        <ele>18.68</ele>
        <time>2022-06-30T12:26:42Z</time>
      </trkpt>
      <trkpt lat="48.93826" lon="1.841">
        <ele>19.56</ele>
        <time>2022-06-30T12:26:49Z</time>
      </trkpt>
      <trkpt lat="48.93827" lon="1.84101">
        <ele>19.55</ele>
        <time>2022-06-30T12:26:50Z</time>
      </trkpt>
      <trkpt lat="48.93832" lon="1.84107">
        <ele>19.47</ele>
        <time>2022-06-30T12:27:00Z</time>
      </trkpt>
      <trkpt lat="48.93839" lon="1.84105">
        <ele>19.33</ele>
        <time>2022-06-30T12:27:15Z</time>
      </trkpt>
      <trkpt lat="48.93854" lon="1.841">
        <ele>19.6</ele>
        <time>2022-06-30T12:27:31Z</time>
      </trkpt>
      <trkpt lat="48.9386" lon="1.84099">
        <ele>19.41</ele>
        <time>2022-06-30T12:27:36Z</time>
      </trkpt>
      <trkpt lat="48.93862" lon="1.841">
        <ele>19.2</ele>
        <time>2022-06-30T12:27:38Z</time>
      </trkpt>
      <trkpt lat="48.93871" lon="1.84095">
        <ele>19.22</ele>
        <time>2022-06-30T12:27:49Z</time>
      </trkpt>
      <trkpt lat="48.93881" lon="1.84088">
        <ele>18.68</ele>
        <time>2022-06-30T12:28:03Z</time>
      </trkpt>
      <trkpt lat="48.93887" lon="1.84077">
        <ele>18.7</ele>
        <time>2022-06-30T12:28:17Z</time>
      </trkpt>
      <trkpt lat="48.93888" lon="1.8407">
        <ele>19.13</ele>
        <time>2022-06-30T12:28:34Z</time>
      </trkpt>
      <trkpt lat="48.93888" lon="1.84064">
        <ele>18.74</ele>
        <time>2022-06-30T12:28:52Z</time>
      </trkpt>
      <trkpt lat="48.93886" lon="1.84065">
        <ele>18.88</ele>
        <time>2022-06-30T12:29:09Z</time>
      </trkpt>
      <trkpt lat="48.93883" lon="1.8406">
        <ele>19.06</ele>
        <time>2022-06-30T12:29:23Z</time>
      </trkpt>
      <trkpt lat="48.93888" lon="1.84053">
        <ele>19.25</ele>
        <time>2022-06-30T12:29:39Z</time>
      </trkpt>
      <trkpt lat="48.93891" lon="1.84051">
        <ele>19.24</ele>
        <time>2022-06-30T12:30:00Z</time>
      </trkpt>
      <trkpt lat="48.93889" lon="1.84053">
        <ele>19.38</ele>
        <time>2022-06-30T12:30:18Z</time>
      </trkpt>
      <trkpt lat="48.9389" lon="1.84053">
        <ele>19.53</ele>
        <time>2022-06-30T12:30:39Z</time>
      </trkpt>
    </trkseg>
  </trk>
</gpx>